<?xml version="1.0" encoding="UTF-8" standalone="no" ?>
<gpx xmlns="http://www.topografix.com/GPX/1/1" xmlns:xsi="http://www.w3.org/2001/XMLSchema-instance" xsi:schemaLocation="http://www.topografix.com/GPX/1/1 http://www.topografix.com/GPX/1/1/gpx.xsd" version="1.1" creator="VisuGPX - https://www.visugpx.com">
  <metadata>
    <name>pardies abos pardies</name>
    <desc><![CDATA[petite sortie hivernale (-4 au départ) avec de très beaux paysages]]></desc>
  </metadata>
  <trk>
    <name><![CDATA[Tracé actuel: 21 JAN 2017 08:37]]></name>
    <trkseg>
      <trkpt lat="43.36434" lon="-0.58951">
        <ele>106.84</ele>
        <time>2017-01-21T07:37:52Z</time>
      </trkpt>
      <trkpt lat="43.36432" lon="-0.58952">
        <ele>107.32</ele>
        <time>2017-01-21T07:38:09Z</time>
      </trkpt>
      <trkpt lat="43.36402" lon="-0.58961">
        <ele>105.88</ele>
        <time>2017-01-21T07:38:22Z</time>
      </trkpt>
      <trkpt lat="43.36363" lon="-0.58979">
        <ele>106.84</ele>
        <time>2017-01-21T07:38:34Z</time>
      </trkpt>
      <trkpt lat="43.36293" lon="-0.5901">
        <ele>109.25</ele>
        <time>2017-01-21T07:38:54Z</time>
      </trkpt>
      <trkpt lat="43.36242" lon="-0.59034">
        <ele>109.25</ele>
        <time>2017-01-21T07:39:09Z</time>
      </trkpt>
      <trkpt lat="43.36167" lon="-0.59073">
        <ele>110.21</ele>
        <time>2017-01-21T07:39:29Z</time>
      </trkpt>
      <trkpt lat="43.36137" lon="-0.59091">
        <ele>110.69</ele>
        <time>2017-01-21T07:39:37Z</time>
      </trkpt>
      <trkpt lat="43.36134" lon="-0.59093">
        <ele>110.69</ele>
        <time>2017-01-21T07:39:38Z</time>
      </trkpt>
      <trkpt lat="43.36084" lon="-0.59125">
        <ele>112.13</ele>
        <time>2017-01-21T07:39:52Z</time>
      </trkpt>
      <trkpt lat="43.36037" lon="-0.59148">
        <ele>112.61</ele>
        <time>2017-01-21T07:40:07Z</time>
      </trkpt>
      <trkpt lat="43.36036" lon="-0.59148">
        <ele>112.13</ele>
        <time>2017-01-21T07:40:25Z</time>
      </trkpt>
      <trkpt lat="43.36005" lon="-0.59157">
        <ele>115.01</ele>
        <time>2017-01-21T07:40:37Z</time>
      </trkpt>
      <trkpt lat="43.3596" lon="-0.59168">
        <ele>115.01</ele>
        <time>2017-01-21T07:40:49Z</time>
      </trkpt>
      <trkpt lat="43.35956" lon="-0.5917">
        <ele>115.01</ele>
        <time>2017-01-21T07:40:50Z</time>
      </trkpt>
      <trkpt lat="43.35901" lon="-0.59186">
        <ele>114.53</ele>
        <time>2017-01-21T07:41:04Z</time>
      </trkpt>
      <trkpt lat="43.35837" lon="-0.59203">
        <ele>115.01</ele>
        <time>2017-01-21T07:41:20Z</time>
      </trkpt>
      <trkpt lat="43.35824" lon="-0.59205">
        <ele>115.01</ele>
        <time>2017-01-21T07:41:24Z</time>
      </trkpt>
      <trkpt lat="43.35821" lon="-0.59204">
        <ele>115.01</ele>
        <time>2017-01-21T07:41:25Z</time>
      </trkpt>
      <trkpt lat="43.35819" lon="-0.59202">
        <ele>114.53</ele>
        <time>2017-01-21T07:41:26Z</time>
      </trkpt>
      <trkpt lat="43.35816" lon="-0.592">
        <ele>114.53</ele>
        <time>2017-01-21T07:41:27Z</time>
      </trkpt>
      <trkpt lat="43.35815" lon="-0.59198">
        <ele>114.05</ele>
        <time>2017-01-21T07:41:28Z</time>
      </trkpt>
      <trkpt lat="43.35813" lon="-0.59196">
        <ele>114.05</ele>
        <time>2017-01-21T07:41:29Z</time>
      </trkpt>
      <trkpt lat="43.35812" lon="-0.59194">
        <ele>114.05</ele>
        <time>2017-01-21T07:41:30Z</time>
      </trkpt>
      <trkpt lat="43.35812" lon="-0.59191">
        <ele>114.53</ele>
        <time>2017-01-21T07:41:31Z</time>
      </trkpt>
      <trkpt lat="43.35813" lon="-0.59188">
        <ele>114.53</ele>
        <time>2017-01-21T07:41:32Z</time>
      </trkpt>
      <trkpt lat="43.35806" lon="-0.59136">
        <ele>112.13</ele>
        <time>2017-01-21T07:41:45Z</time>
      </trkpt>
      <trkpt lat="43.35775" lon="-0.59113">
        <ele>113.57</ele>
        <time>2017-01-21T07:41:55Z</time>
      </trkpt>
      <trkpt lat="43.35763" lon="-0.59084">
        <ele>114.53</ele>
        <time>2017-01-21T07:42:03Z</time>
      </trkpt>
      <trkpt lat="43.35755" lon="-0.59027">
        <ele>116.94</ele>
        <time>2017-01-21T07:42:15Z</time>
      </trkpt>
      <trkpt lat="43.3575" lon="-0.58963">
        <ele>118.86</ele>
        <time>2017-01-21T07:42:28Z</time>
      </trkpt>
      <trkpt lat="43.35745" lon="-0.58947">
        <ele>118.38</ele>
        <time>2017-01-21T07:42:34Z</time>
      </trkpt>
      <trkpt lat="43.35716" lon="-0.58929">
        <ele>120.3</ele>
        <time>2017-01-21T07:42:47Z</time>
      </trkpt>
      <trkpt lat="43.3567" lon="-0.58902">
        <ele>121.26</ele>
        <time>2017-01-21T07:43:00Z</time>
      </trkpt>
      <trkpt lat="43.35631" lon="-0.58883">
        <ele>118.86</ele>
        <time>2017-01-21T07:43:12Z</time>
      </trkpt>
      <trkpt lat="43.35609" lon="-0.5887">
        <ele>117.42</ele>
        <time>2017-01-21T07:43:19Z</time>
      </trkpt>
      <trkpt lat="43.35607" lon="-0.58867">
        <ele>116.94</ele>
        <time>2017-01-21T07:43:20Z</time>
      </trkpt>
      <trkpt lat="43.35605" lon="-0.58863">
        <ele>116.94</ele>
        <time>2017-01-21T07:43:21Z</time>
      </trkpt>
      <trkpt lat="43.35604" lon="-0.58859">
        <ele>116.46</ele>
        <time>2017-01-21T07:43:22Z</time>
      </trkpt>
      <trkpt lat="43.35603" lon="-0.58855">
        <ele>115.98</ele>
        <time>2017-01-21T07:43:23Z</time>
      </trkpt>
      <trkpt lat="43.35603" lon="-0.58852">
        <ele>115.98</ele>
        <time>2017-01-21T07:43:24Z</time>
      </trkpt>
      <trkpt lat="43.35602" lon="-0.58848">
        <ele>115.5</ele>
        <time>2017-01-21T07:43:25Z</time>
      </trkpt>
      <trkpt lat="43.35599" lon="-0.58823">
        <ele>115.98</ele>
        <time>2017-01-21T07:43:31Z</time>
      </trkpt>
      <trkpt lat="43.35597" lon="-0.5882">
        <ele>115.5</ele>
        <time>2017-01-21T07:43:32Z</time>
      </trkpt>
      <trkpt lat="43.3559" lon="-0.58801">
        <ele>115.01</ele>
        <time>2017-01-21T07:43:37Z</time>
      </trkpt>
      <trkpt lat="43.35591" lon="-0.58797">
        <ele>115.01</ele>
        <time>2017-01-21T07:43:38Z</time>
      </trkpt>
      <trkpt lat="43.35592" lon="-0.58792">
        <ele>115.01</ele>
        <time>2017-01-21T07:43:39Z</time>
      </trkpt>
      <trkpt lat="43.35594" lon="-0.58788">
        <ele>115.5</ele>
        <time>2017-01-21T07:43:40Z</time>
      </trkpt>
      <trkpt lat="43.35593" lon="-0.58784">
        <ele>115.5</ele>
        <time>2017-01-21T07:43:41Z</time>
      </trkpt>
      <trkpt lat="43.35592" lon="-0.5878">
        <ele>115.5</ele>
        <time>2017-01-21T07:43:42Z</time>
      </trkpt>
      <trkpt lat="43.35591" lon="-0.58777">
        <ele>115.5</ele>
        <time>2017-01-21T07:43:43Z</time>
      </trkpt>
      <trkpt lat="43.35591" lon="-0.58772">
        <ele>115.5</ele>
        <time>2017-01-21T07:43:44Z</time>
      </trkpt>
      <trkpt lat="43.35591" lon="-0.58768">
        <ele>115.5</ele>
        <time>2017-01-21T07:43:45Z</time>
      </trkpt>
      <trkpt lat="43.3559" lon="-0.58764">
        <ele>115.98</ele>
        <time>2017-01-21T07:43:46Z</time>
      </trkpt>
      <trkpt lat="43.35589" lon="-0.58759">
        <ele>115.98</ele>
        <time>2017-01-21T07:43:47Z</time>
      </trkpt>
      <trkpt lat="43.35588" lon="-0.58755">
        <ele>115.98</ele>
        <time>2017-01-21T07:43:48Z</time>
      </trkpt>
      <trkpt lat="43.35587" lon="-0.5875">
        <ele>115.98</ele>
        <time>2017-01-21T07:43:49Z</time>
      </trkpt>
      <trkpt lat="43.35585" lon="-0.58746">
        <ele>115.98</ele>
        <time>2017-01-21T07:43:50Z</time>
      </trkpt>
      <trkpt lat="43.35579" lon="-0.58704">
        <ele>116.46</ele>
        <time>2017-01-21T07:43:59Z</time>
      </trkpt>
      <trkpt lat="43.35571" lon="-0.58653">
        <ele>117.42</ele>
        <time>2017-01-21T07:44:11Z</time>
      </trkpt>
      <trkpt lat="43.35562" lon="-0.586">
        <ele>115.98</ele>
        <time>2017-01-21T07:44:23Z</time>
      </trkpt>
      <trkpt lat="43.35564" lon="-0.58548">
        <ele>116.46</ele>
        <time>2017-01-21T07:44:34Z</time>
      </trkpt>
      <trkpt lat="43.35582" lon="-0.58505">
        <ele>115.01</ele>
        <time>2017-01-21T07:44:44Z</time>
      </trkpt>
      <trkpt lat="43.356" lon="-0.58462">
        <ele>115.01</ele>
        <time>2017-01-21T07:44:54Z</time>
      </trkpt>
      <trkpt lat="43.3561" lon="-0.5841">
        <ele>115.01</ele>
        <time>2017-01-21T07:45:05Z</time>
      </trkpt>
      <trkpt lat="43.35616" lon="-0.5834">
        <ele>115.5</ele>
        <time>2017-01-21T07:45:20Z</time>
      </trkpt>
      <trkpt lat="43.3563" lon="-0.5831">
        <ele>115.98</ele>
        <time>2017-01-21T07:45:29Z</time>
      </trkpt>
      <trkpt lat="43.35638" lon="-0.58309">
        <ele>115.01</ele>
        <time>2017-01-21T07:45:32Z</time>
      </trkpt>
      <trkpt lat="43.35659" lon="-0.58297">
        <ele>116.46</ele>
        <time>2017-01-21T07:45:41Z</time>
      </trkpt>
      <trkpt lat="43.35659" lon="-0.58294">
        <ele>116.94</ele>
        <time>2017-01-21T07:45:42Z</time>
      </trkpt>
      <trkpt lat="43.35659" lon="-0.58292">
        <ele>116.94</ele>
        <time>2017-01-21T07:45:43Z</time>
      </trkpt>
      <trkpt lat="43.35659" lon="-0.5829">
        <ele>117.42</ele>
        <time>2017-01-21T07:45:44Z</time>
      </trkpt>
      <trkpt lat="43.35656" lon="-0.5825">
        <ele>119.34</ele>
        <time>2017-01-21T07:45:55Z</time>
      </trkpt>
      <trkpt lat="43.3565" lon="-0.58194">
        <ele>118.86</ele>
        <time>2017-01-21T07:46:05Z</time>
      </trkpt>
      <trkpt lat="43.3565" lon="-0.58188">
        <ele>118.86</ele>
        <time>2017-01-21T07:46:06Z</time>
      </trkpt>
      <trkpt lat="43.35651" lon="-0.58181">
        <ele>118.38</ele>
        <time>2017-01-21T07:46:07Z</time>
      </trkpt>
      <trkpt lat="43.35652" lon="-0.58175">
        <ele>118.38</ele>
        <time>2017-01-21T07:46:08Z</time>
      </trkpt>
      <trkpt lat="43.35653" lon="-0.58169">
        <ele>118.38</ele>
        <time>2017-01-21T07:46:09Z</time>
      </trkpt>
      <trkpt lat="43.35655" lon="-0.58163">
        <ele>117.9</ele>
        <time>2017-01-21T07:46:10Z</time>
      </trkpt>
      <trkpt lat="43.35692" lon="-0.58027">
        <ele>114.53</ele>
        <time>2017-01-21T07:46:32Z</time>
      </trkpt>
      <trkpt lat="43.35728" lon="-0.57897">
        <ele>114.05</ele>
        <time>2017-01-21T07:46:52Z</time>
      </trkpt>
      <trkpt lat="43.35765" lon="-0.57767">
        <ele>113.57</ele>
        <time>2017-01-21T07:47:11Z</time>
      </trkpt>
      <trkpt lat="43.35803" lon="-0.57637">
        <ele>114.05</ele>
        <time>2017-01-21T07:47:30Z</time>
      </trkpt>
      <trkpt lat="43.35808" lon="-0.57614">
        <ele>114.53</ele>
        <time>2017-01-21T07:47:34Z</time>
      </trkpt>
      <trkpt lat="43.35808" lon="-0.57608">
        <ele>114.05</ele>
        <time>2017-01-21T07:47:35Z</time>
      </trkpt>
      <trkpt lat="43.35808" lon="-0.57603">
        <ele>114.05</ele>
        <time>2017-01-21T07:47:36Z</time>
      </trkpt>
      <trkpt lat="43.35806" lon="-0.57593">
        <ele>113.09</ele>
        <time>2017-01-21T07:47:37Z</time>
      </trkpt>
      <trkpt lat="43.35806" lon="-0.57588">
        <ele>113.09</ele>
        <time>2017-01-21T07:47:38Z</time>
      </trkpt>
      <trkpt lat="43.35804" lon="-0.5756">
        <ele>112.61</ele>
        <time>2017-01-21T07:47:42Z</time>
      </trkpt>
      <trkpt lat="43.35774" lon="-0.57467">
        <ele>113.09</ele>
        <time>2017-01-21T07:47:56Z</time>
      </trkpt>
      <trkpt lat="43.3575" lon="-0.57373">
        <ele>113.57</ele>
        <time>2017-01-21T07:48:10Z</time>
      </trkpt>
      <trkpt lat="43.35735" lon="-0.57304">
        <ele>114.05</ele>
        <time>2017-01-21T07:48:20Z</time>
      </trkpt>
      <trkpt lat="43.35732" lon="-0.57298">
        <ele>114.05</ele>
        <time>2017-01-21T07:48:21Z</time>
      </trkpt>
      <trkpt lat="43.3572" lon="-0.57275">
        <ele>114.53</ele>
        <time>2017-01-21T07:48:25Z</time>
      </trkpt>
      <trkpt lat="43.35687" lon="-0.57177">
        <ele>114.53</ele>
        <time>2017-01-21T07:48:44Z</time>
      </trkpt>
      <trkpt lat="43.35666" lon="-0.57099">
        <ele>114.53</ele>
        <time>2017-01-21T07:48:58Z</time>
      </trkpt>
      <trkpt lat="43.35668" lon="-0.57009">
        <ele>114.53</ele>
        <time>2017-01-21T07:49:13Z</time>
      </trkpt>
      <trkpt lat="43.35682" lon="-0.56914">
        <ele>115.01</ele>
        <time>2017-01-21T07:49:29Z</time>
      </trkpt>
      <trkpt lat="43.35703" lon="-0.56813">
        <ele>115.98</ele>
        <time>2017-01-21T07:49:47Z</time>
      </trkpt>
      <trkpt lat="43.35717" lon="-0.5675">
        <ele>116.94</ele>
        <time>2017-01-21T07:49:59Z</time>
      </trkpt>
      <trkpt lat="43.35715" lon="-0.56747">
        <ele>116.94</ele>
        <time>2017-01-21T07:50:00Z</time>
      </trkpt>
      <trkpt lat="43.35713" lon="-0.56745">
        <ele>116.94</ele>
        <time>2017-01-21T07:50:01Z</time>
      </trkpt>
      <trkpt lat="43.35709" lon="-0.56745">
        <ele>116.94</ele>
        <time>2017-01-21T07:50:02Z</time>
      </trkpt>
      <trkpt lat="43.35706" lon="-0.56747">
        <ele>116.94</ele>
        <time>2017-01-21T07:50:03Z</time>
      </trkpt>
      <trkpt lat="43.35702" lon="-0.56749">
        <ele>116.94</ele>
        <time>2017-01-21T07:50:04Z</time>
      </trkpt>
      <trkpt lat="43.35699" lon="-0.56752">
        <ele>116.94</ele>
        <time>2017-01-21T07:50:05Z</time>
      </trkpt>
      <trkpt lat="43.35692" lon="-0.56757">
        <ele>116.94</ele>
        <time>2017-01-21T07:50:07Z</time>
      </trkpt>
      <trkpt lat="43.35688" lon="-0.56761">
        <ele>116.46</ele>
        <time>2017-01-21T07:50:08Z</time>
      </trkpt>
      <trkpt lat="43.35628" lon="-0.568">
        <ele>115.01</ele>
        <time>2017-01-21T07:50:23Z</time>
      </trkpt>
      <trkpt lat="43.35595" lon="-0.5682">
        <ele>114.53</ele>
        <time>2017-01-21T07:50:31Z</time>
      </trkpt>
      <trkpt lat="43.35592" lon="-0.56823">
        <ele>114.53</ele>
        <time>2017-01-21T07:50:32Z</time>
      </trkpt>
      <trkpt lat="43.35588" lon="-0.56826">
        <ele>114.53</ele>
        <time>2017-01-21T07:50:33Z</time>
      </trkpt>
      <trkpt lat="43.35552" lon="-0.56849">
        <ele>114.53</ele>
        <time>2017-01-21T07:50:42Z</time>
      </trkpt>
      <trkpt lat="43.35527" lon="-0.56853">
        <ele>114.53</ele>
        <time>2017-01-21T07:50:48Z</time>
      </trkpt>
      <trkpt lat="43.35522" lon="-0.56853">
        <ele>114.53</ele>
        <time>2017-01-21T07:50:49Z</time>
      </trkpt>
      <trkpt lat="43.35518" lon="-0.56853">
        <ele>114.05</ele>
        <time>2017-01-21T07:50:50Z</time>
      </trkpt>
      <trkpt lat="43.35513" lon="-0.56855">
        <ele>114.05</ele>
        <time>2017-01-21T07:50:51Z</time>
      </trkpt>
      <trkpt lat="43.35509" lon="-0.56857">
        <ele>114.05</ele>
        <time>2017-01-21T07:50:52Z</time>
      </trkpt>
      <trkpt lat="43.35505" lon="-0.5686">
        <ele>114.05</ele>
        <time>2017-01-21T07:50:53Z</time>
      </trkpt>
      <trkpt lat="43.35501" lon="-0.56863">
        <ele>114.05</ele>
        <time>2017-01-21T07:50:54Z</time>
      </trkpt>
      <trkpt lat="43.35498" lon="-0.56867">
        <ele>114.53</ele>
        <time>2017-01-21T07:50:55Z</time>
      </trkpt>
      <trkpt lat="43.35494" lon="-0.56871">
        <ele>114.53</ele>
        <time>2017-01-21T07:50:56Z</time>
      </trkpt>
      <trkpt lat="43.35491" lon="-0.56874">
        <ele>114.53</ele>
        <time>2017-01-21T07:50:57Z</time>
      </trkpt>
      <trkpt lat="43.35485" lon="-0.56883">
        <ele>114.53</ele>
        <time>2017-01-21T07:50:59Z</time>
      </trkpt>
      <trkpt lat="43.35482" lon="-0.56886">
        <ele>114.53</ele>
        <time>2017-01-21T07:51:00Z</time>
      </trkpt>
      <trkpt lat="43.35478" lon="-0.56889">
        <ele>114.53</ele>
        <time>2017-01-21T07:51:01Z</time>
      </trkpt>
      <trkpt lat="43.35474" lon="-0.56892">
        <ele>114.53</ele>
        <time>2017-01-21T07:51:02Z</time>
      </trkpt>
      <trkpt lat="43.3547" lon="-0.56894">
        <ele>114.53</ele>
        <time>2017-01-21T07:51:03Z</time>
      </trkpt>
      <trkpt lat="43.35465" lon="-0.56897">
        <ele>114.53</ele>
        <time>2017-01-21T07:51:04Z</time>
      </trkpt>
      <trkpt lat="43.35461" lon="-0.56899">
        <ele>114.53</ele>
        <time>2017-01-21T07:51:05Z</time>
      </trkpt>
      <trkpt lat="43.35457" lon="-0.56902">
        <ele>114.53</ele>
        <time>2017-01-21T07:51:06Z</time>
      </trkpt>
      <trkpt lat="43.35453" lon="-0.56905">
        <ele>114.53</ele>
        <time>2017-01-21T07:51:07Z</time>
      </trkpt>
      <trkpt lat="43.35415" lon="-0.56925">
        <ele>115.01</ele>
        <time>2017-01-21T07:51:16Z</time>
      </trkpt>
      <trkpt lat="43.35379" lon="-0.56947">
        <ele>114.53</ele>
        <time>2017-01-21T07:51:25Z</time>
      </trkpt>
      <trkpt lat="43.35337" lon="-0.5697">
        <ele>115.5</ele>
        <time>2017-01-21T07:51:35Z</time>
      </trkpt>
      <trkpt lat="43.35333" lon="-0.56973">
        <ele>115.5</ele>
        <time>2017-01-21T07:51:36Z</time>
      </trkpt>
      <trkpt lat="43.35321" lon="-0.56979">
        <ele>115.5</ele>
        <time>2017-01-21T07:51:39Z</time>
      </trkpt>
      <trkpt lat="43.35313" lon="-0.56982">
        <ele>115.5</ele>
        <time>2017-01-21T07:51:41Z</time>
      </trkpt>
      <trkpt lat="43.35272" lon="-0.57005">
        <ele>115.98</ele>
        <time>2017-01-21T07:51:51Z</time>
      </trkpt>
      <trkpt lat="43.35253" lon="-0.57019">
        <ele>116.46</ele>
        <time>2017-01-21T07:51:56Z</time>
      </trkpt>
      <trkpt lat="43.35211" lon="-0.57043">
        <ele>117.42</ele>
        <time>2017-01-21T07:52:09Z</time>
      </trkpt>
      <trkpt lat="43.35177" lon="-0.5705">
        <ele>115.5</ele>
        <time>2017-01-21T07:52:19Z</time>
      </trkpt>
      <trkpt lat="43.35151" lon="-0.57037">
        <ele>116.94</ele>
        <time>2017-01-21T07:52:30Z</time>
      </trkpt>
      <trkpt lat="43.35129" lon="-0.56995">
        <ele>115.98</ele>
        <time>2017-01-21T07:52:43Z</time>
      </trkpt>
      <trkpt lat="43.351" lon="-0.56938">
        <ele>116.46</ele>
        <time>2017-01-21T07:52:59Z</time>
      </trkpt>
      <trkpt lat="43.35074" lon="-0.56919">
        <ele>116.46</ele>
        <time>2017-01-21T07:53:13Z</time>
      </trkpt>
      <trkpt lat="43.35046" lon="-0.569">
        <ele>115.01</ele>
        <time>2017-01-21T07:53:30Z</time>
      </trkpt>
      <trkpt lat="43.35021" lon="-0.56889">
        <ele>115.98</ele>
        <time>2017-01-21T07:53:42Z</time>
      </trkpt>
      <trkpt lat="43.34987" lon="-0.56873">
        <ele>117.42</ele>
        <time>2017-01-21T07:53:57Z</time>
      </trkpt>
      <trkpt lat="43.34985" lon="-0.56875">
        <ele>117.9</ele>
        <time>2017-01-21T07:54:02Z</time>
      </trkpt>
      <trkpt lat="43.34983" lon="-0.56876">
        <ele>117.9</ele>
        <time>2017-01-21T07:54:03Z</time>
      </trkpt>
      <trkpt lat="43.34982" lon="-0.56876">
        <ele>117.9</ele>
        <time>2017-01-21T07:54:04Z</time>
      </trkpt>
      <trkpt lat="43.34977" lon="-0.56876">
        <ele>119.82</ele>
        <time>2017-01-21T07:54:18Z</time>
      </trkpt>
      <trkpt lat="43.34975" lon="-0.56877">
        <ele>121.26</ele>
        <time>2017-01-21T07:54:39Z</time>
      </trkpt>
      <trkpt lat="43.34958" lon="-0.56896">
        <ele>121.74</ele>
        <time>2017-01-21T07:54:51Z</time>
      </trkpt>
      <trkpt lat="43.34951" lon="-0.56902">
        <ele>122.71</ele>
        <time>2017-01-21T07:54:56Z</time>
      </trkpt>
      <trkpt lat="43.34951" lon="-0.56904">
        <ele>122.71</ele>
        <time>2017-01-21T07:54:57Z</time>
      </trkpt>
      <trkpt lat="43.34951" lon="-0.56906">
        <ele>122.71</ele>
        <time>2017-01-21T07:54:58Z</time>
      </trkpt>
      <trkpt lat="43.34952" lon="-0.56908">
        <ele>122.71</ele>
        <time>2017-01-21T07:54:59Z</time>
      </trkpt>
      <trkpt lat="43.34954" lon="-0.56909">
        <ele>123.67</ele>
        <time>2017-01-21T07:55:01Z</time>
      </trkpt>
      <trkpt lat="43.34955" lon="-0.56909">
        <ele>124.15</ele>
        <time>2017-01-21T07:55:02Z</time>
      </trkpt>
      <trkpt lat="43.34957" lon="-0.56909">
        <ele>124.63</ele>
        <time>2017-01-21T07:55:03Z</time>
      </trkpt>
      <trkpt lat="43.34958" lon="-0.56908">
        <ele>124.63</ele>
        <time>2017-01-21T07:55:04Z</time>
      </trkpt>
      <trkpt lat="43.34959" lon="-0.56907">
        <ele>124.63</ele>
        <time>2017-01-21T07:55:05Z</time>
      </trkpt>
      <trkpt lat="43.34961" lon="-0.56906">
        <ele>124.63</ele>
        <time>2017-01-21T07:55:06Z</time>
      </trkpt>
      <trkpt lat="43.34962" lon="-0.56906">
        <ele>125.11</ele>
        <time>2017-01-21T07:55:07Z</time>
      </trkpt>
      <trkpt lat="43.34964" lon="-0.56905">
        <ele>125.11</ele>
        <time>2017-01-21T07:55:08Z</time>
      </trkpt>
      <trkpt lat="43.34965" lon="-0.56905">
        <ele>125.59</ele>
        <time>2017-01-21T07:55:09Z</time>
      </trkpt>
      <trkpt lat="43.34972" lon="-0.56906">
        <ele>127.03</ele>
        <time>2017-01-21T07:55:13Z</time>
      </trkpt>
      <trkpt lat="43.34973" lon="-0.56907">
        <ele>127.51</ele>
        <time>2017-01-21T07:55:14Z</time>
      </trkpt>
      <trkpt lat="43.34975" lon="-0.56908">
        <ele>127.99</ele>
        <time>2017-01-21T07:55:15Z</time>
      </trkpt>
      <trkpt lat="43.34987" lon="-0.56934">
        <ele>128.95</ele>
        <time>2017-01-21T07:55:30Z</time>
      </trkpt>
      <trkpt lat="43.34988" lon="-0.56969">
        <ele>132.8</ele>
        <time>2017-01-21T07:55:46Z</time>
      </trkpt>
      <trkpt lat="43.34979" lon="-0.56998">
        <ele>137.13</ele>
        <time>2017-01-21T07:56:01Z</time>
      </trkpt>
      <trkpt lat="43.3496" lon="-0.57013">
        <ele>140.49</ele>
        <time>2017-01-21T07:56:15Z</time>
      </trkpt>
      <trkpt lat="43.34951" lon="-0.57025">
        <ele>143.37</ele>
        <time>2017-01-21T07:56:24Z</time>
      </trkpt>
      <trkpt lat="43.3495" lon="-0.57029">
        <ele>143.85</ele>
        <time>2017-01-21T07:56:26Z</time>
      </trkpt>
      <trkpt lat="43.34949" lon="-0.57031">
        <ele>144.34</ele>
        <time>2017-01-21T07:56:27Z</time>
      </trkpt>
      <trkpt lat="43.34949" lon="-0.57032">
        <ele>144.34</ele>
        <time>2017-01-21T07:56:28Z</time>
      </trkpt>
      <trkpt lat="43.34948" lon="-0.57034">
        <ele>144.82</ele>
        <time>2017-01-21T07:56:29Z</time>
      </trkpt>
      <trkpt lat="43.34947" lon="-0.57036">
        <ele>144.82</ele>
        <time>2017-01-21T07:56:30Z</time>
      </trkpt>
      <trkpt lat="43.34947" lon="-0.57037">
        <ele>144.82</ele>
        <time>2017-01-21T07:56:31Z</time>
      </trkpt>
      <trkpt lat="43.34945" lon="-0.5704">
        <ele>144.82</ele>
        <time>2017-01-21T07:56:33Z</time>
      </trkpt>
      <trkpt lat="43.34945" lon="-0.57042">
        <ele>144.82</ele>
        <time>2017-01-21T07:56:34Z</time>
      </trkpt>
      <trkpt lat="43.34934" lon="-0.57073">
        <ele>146.26</ele>
        <time>2017-01-21T07:56:51Z</time>
      </trkpt>
      <trkpt lat="43.34927" lon="-0.5709">
        <ele>147.7</ele>
        <time>2017-01-21T07:57:03Z</time>
      </trkpt>
      <trkpt lat="43.34921" lon="-0.57115">
        <ele>153.95</ele>
        <time>2017-01-21T07:57:19Z</time>
      </trkpt>
      <trkpt lat="43.34913" lon="-0.57136">
        <ele>158.75</ele>
        <time>2017-01-21T07:57:33Z</time>
      </trkpt>
      <trkpt lat="43.34908" lon="-0.57148">
        <ele>164.52</ele>
        <time>2017-01-21T07:57:48Z</time>
      </trkpt>
      <trkpt lat="43.34904" lon="-0.57159">
        <ele>166.93</ele>
        <time>2017-01-21T07:58:10Z</time>
      </trkpt>
      <trkpt lat="43.34898" lon="-0.57185">
        <ele>170.77</ele>
        <time>2017-01-21T07:58:30Z</time>
      </trkpt>
      <trkpt lat="43.34896" lon="-0.57196">
        <ele>170.77</ele>
        <time>2017-01-21T07:58:47Z</time>
      </trkpt>
      <trkpt lat="43.34893" lon="-0.57212">
        <ele>172.21</ele>
        <time>2017-01-21T07:59:01Z</time>
      </trkpt>
      <trkpt lat="43.34889" lon="-0.57241">
        <ele>173.17</ele>
        <time>2017-01-21T07:59:15Z</time>
      </trkpt>
      <trkpt lat="43.34887" lon="-0.57251">
        <ele>173.66</ele>
        <time>2017-01-21T07:59:20Z</time>
      </trkpt>
      <trkpt lat="43.34886" lon="-0.57252">
        <ele>173.66</ele>
        <time>2017-01-21T07:59:21Z</time>
      </trkpt>
      <trkpt lat="43.34885" lon="-0.57254">
        <ele>173.66</ele>
        <time>2017-01-21T07:59:22Z</time>
      </trkpt>
      <trkpt lat="43.34885" lon="-0.57256">
        <ele>173.66</ele>
        <time>2017-01-21T07:59:23Z</time>
      </trkpt>
      <trkpt lat="43.34885" lon="-0.57258">
        <ele>173.66</ele>
        <time>2017-01-21T07:59:24Z</time>
      </trkpt>
      <trkpt lat="43.34884" lon="-0.5726">
        <ele>173.66</ele>
        <time>2017-01-21T07:59:25Z</time>
      </trkpt>
      <trkpt lat="43.34884" lon="-0.57262">
        <ele>173.17</ele>
        <time>2017-01-21T07:59:26Z</time>
      </trkpt>
      <trkpt lat="43.34884" lon="-0.57264">
        <ele>173.17</ele>
        <time>2017-01-21T07:59:27Z</time>
      </trkpt>
      <trkpt lat="43.34878" lon="-0.57275">
        <ele>174.62</ele>
        <time>2017-01-21T07:59:39Z</time>
      </trkpt>
      <trkpt lat="43.34875" lon="-0.57277">
        <ele>177.02</ele>
        <time>2017-01-21T07:59:47Z</time>
      </trkpt>
      <trkpt lat="43.34874" lon="-0.57277">
        <ele>177.02</ele>
        <time>2017-01-21T07:59:48Z</time>
      </trkpt>
      <trkpt lat="43.34858" lon="-0.57286">
        <ele>177.5</ele>
        <time>2017-01-21T08:00:01Z</time>
      </trkpt>
      <trkpt lat="43.34839" lon="-0.57294">
        <ele>180.87</ele>
        <time>2017-01-21T08:00:16Z</time>
      </trkpt>
      <trkpt lat="43.34824" lon="-0.57294">
        <ele>183.27</ele>
        <time>2017-01-21T08:00:28Z</time>
      </trkpt>
      <trkpt lat="43.3482" lon="-0.57295">
        <ele>183.27</ele>
        <time>2017-01-21T08:00:31Z</time>
      </trkpt>
      <trkpt lat="43.34815" lon="-0.57298">
        <ele>182.79</ele>
        <time>2017-01-21T08:00:35Z</time>
      </trkpt>
      <trkpt lat="43.3481" lon="-0.57305">
        <ele>183.75</ele>
        <time>2017-01-21T08:00:41Z</time>
      </trkpt>
      <trkpt lat="43.3479" lon="-0.57319">
        <ele>186.63</ele>
        <time>2017-01-21T08:00:59Z</time>
      </trkpt>
      <trkpt lat="43.34768" lon="-0.57329">
        <ele>192.88</ele>
        <time>2017-01-21T08:01:18Z</time>
      </trkpt>
      <trkpt lat="43.34765" lon="-0.57333">
        <ele>192.4</ele>
        <time>2017-01-21T08:01:22Z</time>
      </trkpt>
      <trkpt lat="43.34757" lon="-0.57341">
        <ele>193.84</ele>
        <time>2017-01-21T08:01:31Z</time>
      </trkpt>
      <trkpt lat="43.3475" lon="-0.57337">
        <ele>194.32</ele>
        <time>2017-01-21T08:01:37Z</time>
      </trkpt>
      <trkpt lat="43.34726" lon="-0.57315">
        <ele>195.77</ele>
        <time>2017-01-21T08:01:55Z</time>
      </trkpt>
      <trkpt lat="43.34699" lon="-0.57296">
        <ele>194.8</ele>
        <time>2017-01-21T08:02:13Z</time>
      </trkpt>
      <trkpt lat="43.34677" lon="-0.57266">
        <ele>195.77</ele>
        <time>2017-01-21T08:02:32Z</time>
      </trkpt>
      <trkpt lat="43.34656" lon="-0.57242">
        <ele>198.17</ele>
        <time>2017-01-21T08:02:50Z</time>
      </trkpt>
      <trkpt lat="43.34649" lon="-0.57231">
        <ele>198.17</ele>
        <time>2017-01-21T08:03:00Z</time>
      </trkpt>
      <trkpt lat="43.34648" lon="-0.57234">
        <ele>195.77</ele>
        <time>2017-01-21T08:03:10Z</time>
      </trkpt>
      <trkpt lat="43.34648" lon="-0.57235">
        <ele>196.73</ele>
        <time>2017-01-21T08:03:43Z</time>
      </trkpt>
      <trkpt lat="43.3465" lon="-0.57232">
        <ele>197.69</ele>
        <time>2017-01-21T08:04:07Z</time>
      </trkpt>
      <trkpt lat="43.34649" lon="-0.57235">
        <ele>195.28</ele>
        <time>2017-01-21T08:04:40Z</time>
      </trkpt>
      <trkpt lat="43.34648" lon="-0.57235">
        <ele>195.77</ele>
        <time>2017-01-21T08:05:07Z</time>
      </trkpt>
      <trkpt lat="43.34646" lon="-0.57235">
        <ele>196.25</ele>
        <time>2017-01-21T08:05:44Z</time>
      </trkpt>
      <trkpt lat="43.3465" lon="-0.57235">
        <ele>198.17</ele>
        <time>2017-01-21T08:06:21Z</time>
      </trkpt>
      <trkpt lat="43.34649" lon="-0.57232">
        <ele>201.05</ele>
        <time>2017-01-21T08:06:40Z</time>
      </trkpt>
      <trkpt lat="43.34647" lon="-0.5723">
        <ele>201.05</ele>
        <time>2017-01-21T08:06:46Z</time>
      </trkpt>
      <trkpt lat="43.34639" lon="-0.5722">
        <ele>201.05</ele>
        <time>2017-01-21T08:06:53Z</time>
      </trkpt>
      <trkpt lat="43.34613" lon="-0.57199">
        <ele>202.01</ele>
        <time>2017-01-21T08:07:11Z</time>
      </trkpt>
      <trkpt lat="43.34603" lon="-0.5719">
        <ele>202.01</ele>
        <time>2017-01-21T08:07:22Z</time>
      </trkpt>
      <trkpt lat="43.34575" lon="-0.57168">
        <ele>205.38</ele>
        <time>2017-01-21T08:07:42Z</time>
      </trkpt>
      <trkpt lat="43.34557" lon="-0.57157">
        <ele>208.26</ele>
        <time>2017-01-21T08:07:55Z</time>
      </trkpt>
      <trkpt lat="43.34534" lon="-0.57167">
        <ele>211.15</ele>
        <time>2017-01-21T08:08:11Z</time>
      </trkpt>
      <trkpt lat="43.34499" lon="-0.57182">
        <ele>210.19</ele>
        <time>2017-01-21T08:08:24Z</time>
      </trkpt>
      <trkpt lat="43.34471" lon="-0.57187">
        <ele>211.63</ele>
        <time>2017-01-21T08:08:37Z</time>
      </trkpt>
      <trkpt lat="43.34447" lon="-0.57187">
        <ele>218.36</ele>
        <time>2017-01-21T08:08:50Z</time>
      </trkpt>
      <trkpt lat="43.34416" lon="-0.57188">
        <ele>218.84</ele>
        <time>2017-01-21T08:09:05Z</time>
      </trkpt>
      <trkpt lat="43.34414" lon="-0.5719">
        <ele>218.36</ele>
        <time>2017-01-21T08:09:06Z</time>
      </trkpt>
      <trkpt lat="43.34387" lon="-0.57218">
        <ele>210.19</ele>
        <time>2017-01-21T08:09:17Z</time>
      </trkpt>
      <trkpt lat="43.34358" lon="-0.57213">
        <ele>204.42</ele>
        <time>2017-01-21T08:09:26Z</time>
      </trkpt>
      <trkpt lat="43.34333" lon="-0.57204">
        <ele>200.09</ele>
        <time>2017-01-21T08:09:34Z</time>
      </trkpt>
      <trkpt lat="43.34332" lon="-0.57207">
        <ele>199.61</ele>
        <time>2017-01-21T08:09:35Z</time>
      </trkpt>
      <trkpt lat="43.34331" lon="-0.5721">
        <ele>198.65</ele>
        <time>2017-01-21T08:09:36Z</time>
      </trkpt>
      <trkpt lat="43.3433" lon="-0.57213">
        <ele>198.17</ele>
        <time>2017-01-21T08:09:37Z</time>
      </trkpt>
      <trkpt lat="43.34331" lon="-0.57217">
        <ele>197.69</ele>
        <time>2017-01-21T08:09:38Z</time>
      </trkpt>
      <trkpt lat="43.34332" lon="-0.57227">
        <ele>196.73</ele>
        <time>2017-01-21T08:09:40Z</time>
      </trkpt>
      <trkpt lat="43.34332" lon="-0.57234">
        <ele>196.25</ele>
        <time>2017-01-21T08:09:41Z</time>
      </trkpt>
      <trkpt lat="43.34321" lon="-0.57289">
        <ele>191.44</ele>
        <time>2017-01-21T08:09:50Z</time>
      </trkpt>
      <trkpt lat="43.34317" lon="-0.57315">
        <ele>189.04</ele>
        <time>2017-01-21T08:09:57Z</time>
      </trkpt>
      <trkpt lat="43.34315" lon="-0.57316">
        <ele>189.04</ele>
        <time>2017-01-21T08:09:58Z</time>
      </trkpt>
      <trkpt lat="43.34312" lon="-0.57316">
        <ele>188.56</ele>
        <time>2017-01-21T08:09:59Z</time>
      </trkpt>
      <trkpt lat="43.34309" lon="-0.57314">
        <ele>188.56</ele>
        <time>2017-01-21T08:10:00Z</time>
      </trkpt>
      <trkpt lat="43.34308" lon="-0.5731">
        <ele>188.08</ele>
        <time>2017-01-21T08:10:01Z</time>
      </trkpt>
      <trkpt lat="43.34307" lon="-0.57305">
        <ele>187.59</ele>
        <time>2017-01-21T08:10:02Z</time>
      </trkpt>
      <trkpt lat="43.343" lon="-0.57275">
        <ele>182.79</ele>
        <time>2017-01-21T08:10:09Z</time>
      </trkpt>
      <trkpt lat="43.34298" lon="-0.57273">
        <ele>182.31</ele>
        <time>2017-01-21T08:10:10Z</time>
      </trkpt>
      <trkpt lat="43.34296" lon="-0.57271">
        <ele>181.35</ele>
        <time>2017-01-21T08:10:11Z</time>
      </trkpt>
      <trkpt lat="43.34294" lon="-0.57271">
        <ele>180.38</ele>
        <time>2017-01-21T08:10:12Z</time>
      </trkpt>
      <trkpt lat="43.34292" lon="-0.5727">
        <ele>179.9</ele>
        <time>2017-01-21T08:10:13Z</time>
      </trkpt>
      <trkpt lat="43.3429" lon="-0.57271">
        <ele>178.94</ele>
        <time>2017-01-21T08:10:14Z</time>
      </trkpt>
      <trkpt lat="43.34288" lon="-0.57273">
        <ele>178.46</ele>
        <time>2017-01-21T08:10:15Z</time>
      </trkpt>
      <trkpt lat="43.34286" lon="-0.57276">
        <ele>177.98</ele>
        <time>2017-01-21T08:10:16Z</time>
      </trkpt>
      <trkpt lat="43.34285" lon="-0.5728">
        <ele>177.5</ele>
        <time>2017-01-21T08:10:17Z</time>
      </trkpt>
      <trkpt lat="43.34284" lon="-0.57285">
        <ele>177.02</ele>
        <time>2017-01-21T08:10:18Z</time>
      </trkpt>
      <trkpt lat="43.34284" lon="-0.57291">
        <ele>176.54</ele>
        <time>2017-01-21T08:10:19Z</time>
      </trkpt>
      <trkpt lat="43.34284" lon="-0.57296">
        <ele>176.06</ele>
        <time>2017-01-21T08:10:20Z</time>
      </trkpt>
      <trkpt lat="43.34286" lon="-0.57301">
        <ele>176.06</ele>
        <time>2017-01-21T08:10:21Z</time>
      </trkpt>
      <trkpt lat="43.34288" lon="-0.57305">
        <ele>176.06</ele>
        <time>2017-01-21T08:10:22Z</time>
      </trkpt>
      <trkpt lat="43.3429" lon="-0.5731">
        <ele>176.06</ele>
        <time>2017-01-21T08:10:23Z</time>
      </trkpt>
      <trkpt lat="43.34305" lon="-0.57346">
        <ele>172.69</ele>
        <time>2017-01-21T08:10:31Z</time>
      </trkpt>
      <trkpt lat="43.34304" lon="-0.57349">
        <ele>172.21</ele>
        <time>2017-01-21T08:10:32Z</time>
      </trkpt>
      <trkpt lat="43.34302" lon="-0.5735">
        <ele>171.25</ele>
        <time>2017-01-21T08:10:33Z</time>
      </trkpt>
      <trkpt lat="43.343" lon="-0.57351">
        <ele>170.77</ele>
        <time>2017-01-21T08:10:34Z</time>
      </trkpt>
      <trkpt lat="43.34299" lon="-0.57349">
        <ele>170.29</ele>
        <time>2017-01-21T08:10:35Z</time>
      </trkpt>
      <trkpt lat="43.34298" lon="-0.57347">
        <ele>169.81</ele>
        <time>2017-01-21T08:10:36Z</time>
      </trkpt>
      <trkpt lat="43.34278" lon="-0.57317">
        <ele>165</ele>
        <time>2017-01-21T08:10:45Z</time>
      </trkpt>
      <trkpt lat="43.34274" lon="-0.57312">
        <ele>163.08</ele>
        <time>2017-01-21T08:10:49Z</time>
      </trkpt>
      <trkpt lat="43.34272" lon="-0.57312">
        <ele>163.08</ele>
        <time>2017-01-21T08:10:50Z</time>
      </trkpt>
      <trkpt lat="43.3427" lon="-0.57313">
        <ele>162.6</ele>
        <time>2017-01-21T08:10:51Z</time>
      </trkpt>
      <trkpt lat="43.34268" lon="-0.57315">
        <ele>162.12</ele>
        <time>2017-01-21T08:10:52Z</time>
      </trkpt>
      <trkpt lat="43.34267" lon="-0.57318">
        <ele>162.12</ele>
        <time>2017-01-21T08:10:53Z</time>
      </trkpt>
      <trkpt lat="43.34266" lon="-0.57323">
        <ele>161.16</ele>
        <time>2017-01-21T08:10:54Z</time>
      </trkpt>
      <trkpt lat="43.34265" lon="-0.5733">
        <ele>160.68</ele>
        <time>2017-01-21T08:10:55Z</time>
      </trkpt>
      <trkpt lat="43.34263" lon="-0.57338">
        <ele>159.72</ele>
        <time>2017-01-21T08:10:56Z</time>
      </trkpt>
      <trkpt lat="43.34262" lon="-0.57348">
        <ele>158.75</ele>
        <time>2017-01-21T08:10:57Z</time>
      </trkpt>
      <trkpt lat="43.34261" lon="-0.57357">
        <ele>157.79</ele>
        <time>2017-01-21T08:10:58Z</time>
      </trkpt>
      <trkpt lat="43.34261" lon="-0.57368">
        <ele>157.31</ele>
        <time>2017-01-21T08:10:59Z</time>
      </trkpt>
      <trkpt lat="43.34262" lon="-0.57377">
        <ele>157.31</ele>
        <time>2017-01-21T08:11:00Z</time>
      </trkpt>
      <trkpt lat="43.34264" lon="-0.57385">
        <ele>157.79</ele>
        <time>2017-01-21T08:11:01Z</time>
      </trkpt>
      <trkpt lat="43.34266" lon="-0.57393">
        <ele>157.79</ele>
        <time>2017-01-21T08:11:02Z</time>
      </trkpt>
      <trkpt lat="43.34268" lon="-0.574">
        <ele>157.79</ele>
        <time>2017-01-21T08:11:03Z</time>
      </trkpt>
      <trkpt lat="43.34273" lon="-0.57415">
        <ele>157.31</ele>
        <time>2017-01-21T08:11:05Z</time>
      </trkpt>
      <trkpt lat="43.34295" lon="-0.57483">
        <ele>146.26</ele>
        <time>2017-01-21T08:11:14Z</time>
      </trkpt>
      <trkpt lat="43.34297" lon="-0.57488">
        <ele>145.3</ele>
        <time>2017-01-21T08:11:15Z</time>
      </trkpt>
      <trkpt lat="43.343" lon="-0.57492">
        <ele>144.34</ele>
        <time>2017-01-21T08:11:16Z</time>
      </trkpt>
      <trkpt lat="43.34304" lon="-0.57496">
        <ele>143.37</ele>
        <time>2017-01-21T08:11:17Z</time>
      </trkpt>
      <trkpt lat="43.34309" lon="-0.57499">
        <ele>142.41</ele>
        <time>2017-01-21T08:11:18Z</time>
      </trkpt>
      <trkpt lat="43.34315" lon="-0.575">
        <ele>141.45</ele>
        <time>2017-01-21T08:11:19Z</time>
      </trkpt>
      <trkpt lat="43.34321" lon="-0.57501">
        <ele>140.49</ele>
        <time>2017-01-21T08:11:20Z</time>
      </trkpt>
      <trkpt lat="43.34332" lon="-0.57504">
        <ele>138.57</ele>
        <time>2017-01-21T08:11:22Z</time>
      </trkpt>
      <trkpt lat="43.34338" lon="-0.57507">
        <ele>137.61</ele>
        <time>2017-01-21T08:11:23Z</time>
      </trkpt>
      <trkpt lat="43.34343" lon="-0.57511">
        <ele>136.64</ele>
        <time>2017-01-21T08:11:24Z</time>
      </trkpt>
      <trkpt lat="43.34367" lon="-0.57539">
        <ele>131.36</ele>
        <time>2017-01-21T08:11:32Z</time>
      </trkpt>
      <trkpt lat="43.34367" lon="-0.57542">
        <ele>130.88</ele>
        <time>2017-01-21T08:11:33Z</time>
      </trkpt>
      <trkpt lat="43.34365" lon="-0.57546">
        <ele>130.4</ele>
        <time>2017-01-21T08:11:34Z</time>
      </trkpt>
      <trkpt lat="43.34362" lon="-0.57548">
        <ele>129.92</ele>
        <time>2017-01-21T08:11:35Z</time>
      </trkpt>
      <trkpt lat="43.34358" lon="-0.5755">
        <ele>129.43</ele>
        <time>2017-01-21T08:11:36Z</time>
      </trkpt>
      <trkpt lat="43.34354" lon="-0.57552">
        <ele>129.43</ele>
        <time>2017-01-21T08:11:37Z</time>
      </trkpt>
      <trkpt lat="43.34304" lon="-0.57572">
        <ele>124.15</ele>
        <time>2017-01-21T08:11:47Z</time>
      </trkpt>
      <trkpt lat="43.34288" lon="-0.57574">
        <ele>122.22</ele>
        <time>2017-01-21T08:11:51Z</time>
      </trkpt>
      <trkpt lat="43.34284" lon="-0.57576">
        <ele>121.74</ele>
        <time>2017-01-21T08:11:52Z</time>
      </trkpt>
      <trkpt lat="43.3428" lon="-0.5758">
        <ele>121.26</ele>
        <time>2017-01-21T08:11:53Z</time>
      </trkpt>
      <trkpt lat="43.34276" lon="-0.57586">
        <ele>120.78</ele>
        <time>2017-01-21T08:11:54Z</time>
      </trkpt>
      <trkpt lat="43.34272" lon="-0.57595">
        <ele>120.3</ele>
        <time>2017-01-21T08:11:55Z</time>
      </trkpt>
      <trkpt lat="43.3427" lon="-0.57602">
        <ele>119.82</ele>
        <time>2017-01-21T08:11:56Z</time>
      </trkpt>
      <trkpt lat="43.34268" lon="-0.57611">
        <ele>119.34</ele>
        <time>2017-01-21T08:11:57Z</time>
      </trkpt>
      <trkpt lat="43.34239" lon="-0.57729">
        <ele>116.94</ele>
        <time>2017-01-21T08:12:11Z</time>
      </trkpt>
      <trkpt lat="43.34237" lon="-0.57831">
        <ele>116.94</ele>
        <time>2017-01-21T08:12:27Z</time>
      </trkpt>
      <trkpt lat="43.34237" lon="-0.57876">
        <ele>117.42</ele>
        <time>2017-01-21T08:12:34Z</time>
      </trkpt>
      <trkpt lat="43.34238" lon="-0.57883">
        <ele>117.42</ele>
        <time>2017-01-21T08:12:35Z</time>
      </trkpt>
      <trkpt lat="43.34246" lon="-0.57908">
        <ele>117.9</ele>
        <time>2017-01-21T08:12:39Z</time>
      </trkpt>
      <trkpt lat="43.34283" lon="-0.57983">
        <ele>118.86</ele>
        <time>2017-01-21T08:12:53Z</time>
      </trkpt>
      <trkpt lat="43.34298" lon="-0.58009">
        <ele>118.86</ele>
        <time>2017-01-21T08:12:58Z</time>
      </trkpt>
      <trkpt lat="43.34302" lon="-0.58013">
        <ele>118.86</ele>
        <time>2017-01-21T08:12:59Z</time>
      </trkpt>
      <trkpt lat="43.34338" lon="-0.58063">
        <ele>118.38</ele>
        <time>2017-01-21T08:13:10Z</time>
      </trkpt>
      <trkpt lat="43.34342" lon="-0.58075">
        <ele>117.9</ele>
        <time>2017-01-21T08:13:12Z</time>
      </trkpt>
      <trkpt lat="43.34343" lon="-0.58082">
        <ele>117.9</ele>
        <time>2017-01-21T08:13:13Z</time>
      </trkpt>
      <trkpt lat="43.34344" lon="-0.58088">
        <ele>117.9</ele>
        <time>2017-01-21T08:13:14Z</time>
      </trkpt>
      <trkpt lat="43.34344" lon="-0.58095">
        <ele>117.9</ele>
        <time>2017-01-21T08:13:15Z</time>
      </trkpt>
      <trkpt lat="43.34344" lon="-0.58102">
        <ele>117.42</ele>
        <time>2017-01-21T08:13:16Z</time>
      </trkpt>
      <trkpt lat="43.34344" lon="-0.58109">
        <ele>116.94</ele>
        <time>2017-01-21T08:13:17Z</time>
      </trkpt>
      <trkpt lat="43.3434" lon="-0.58233">
        <ele>115.01</ele>
        <time>2017-01-21T08:13:35Z</time>
      </trkpt>
      <trkpt lat="43.34343" lon="-0.58288">
        <ele>115.98</ele>
        <time>2017-01-21T08:13:45Z</time>
      </trkpt>
      <trkpt lat="43.34346" lon="-0.5829">
        <ele>116.46</ele>
        <time>2017-01-21T08:13:46Z</time>
      </trkpt>
      <trkpt lat="43.34348" lon="-0.58292">
        <ele>116.46</ele>
        <time>2017-01-21T08:13:47Z</time>
      </trkpt>
      <trkpt lat="43.34351" lon="-0.58293">
        <ele>116.46</ele>
        <time>2017-01-21T08:13:48Z</time>
      </trkpt>
      <trkpt lat="43.34354" lon="-0.58293">
        <ele>116.46</ele>
        <time>2017-01-21T08:13:49Z</time>
      </trkpt>
      <trkpt lat="43.34358" lon="-0.58292">
        <ele>116.94</ele>
        <time>2017-01-21T08:13:50Z</time>
      </trkpt>
      <trkpt lat="43.34434" lon="-0.58289">
        <ele>117.42</ele>
        <time>2017-01-21T08:14:06Z</time>
      </trkpt>
      <trkpt lat="43.3454" lon="-0.58286">
        <ele>117.9</ele>
        <time>2017-01-21T08:14:25Z</time>
      </trkpt>
      <trkpt lat="43.34643" lon="-0.58282">
        <ele>116.94</ele>
        <time>2017-01-21T08:14:43Z</time>
      </trkpt>
      <trkpt lat="43.34742" lon="-0.58278">
        <ele>116.46</ele>
        <time>2017-01-21T08:15:00Z</time>
      </trkpt>
      <trkpt lat="43.34841" lon="-0.58272">
        <ele>116.94</ele>
        <time>2017-01-21T08:15:17Z</time>
      </trkpt>
      <trkpt lat="43.34948" lon="-0.58273">
        <ele>117.9</ele>
        <time>2017-01-21T08:15:35Z</time>
      </trkpt>
      <trkpt lat="43.35059" lon="-0.58271">
        <ele>117.42</ele>
        <time>2017-01-21T08:15:54Z</time>
      </trkpt>
      <trkpt lat="43.35167" lon="-0.58272">
        <ele>117.9</ele>
        <time>2017-01-21T08:16:13Z</time>
      </trkpt>
      <trkpt lat="43.35268" lon="-0.58274">
        <ele>115.98</ele>
        <time>2017-01-21T08:16:31Z</time>
      </trkpt>
      <trkpt lat="43.35341" lon="-0.58274">
        <ele>114.53</ele>
        <time>2017-01-21T08:16:47Z</time>
      </trkpt>
      <trkpt lat="43.35423" lon="-0.58274">
        <ele>113.57</ele>
        <time>2017-01-21T08:17:03Z</time>
      </trkpt>
      <trkpt lat="43.35512" lon="-0.58272">
        <ele>113.57</ele>
        <time>2017-01-21T08:17:21Z</time>
      </trkpt>
      <trkpt lat="43.35607" lon="-0.58272">
        <ele>114.53</ele>
        <time>2017-01-21T08:17:39Z</time>
      </trkpt>
      <trkpt lat="43.35644" lon="-0.58272">
        <ele>115.01</ele>
        <time>2017-01-21T08:17:46Z</time>
      </trkpt>
      <trkpt lat="43.35649" lon="-0.5827">
        <ele>115.01</ele>
        <time>2017-01-21T08:17:47Z</time>
      </trkpt>
      <trkpt lat="43.35653" lon="-0.58266">
        <ele>115.01</ele>
        <time>2017-01-21T08:17:48Z</time>
      </trkpt>
      <trkpt lat="43.35656" lon="-0.58259">
        <ele>115.5</ele>
        <time>2017-01-21T08:17:49Z</time>
      </trkpt>
      <trkpt lat="43.35657" lon="-0.58252">
        <ele>115.5</ele>
        <time>2017-01-21T08:17:50Z</time>
      </trkpt>
      <trkpt lat="43.35657" lon="-0.58246">
        <ele>115.5</ele>
        <time>2017-01-21T08:17:51Z</time>
      </trkpt>
      <trkpt lat="43.35656" lon="-0.58239">
        <ele>115.5</ele>
        <time>2017-01-21T08:17:52Z</time>
      </trkpt>
      <trkpt lat="43.35655" lon="-0.58233">
        <ele>115.5</ele>
        <time>2017-01-21T08:17:53Z</time>
      </trkpt>
      <trkpt lat="43.35652" lon="-0.58212">
        <ele>115.98</ele>
        <time>2017-01-21T08:17:56Z</time>
      </trkpt>
      <trkpt lat="43.35651" lon="-0.58198">
        <ele>116.46</ele>
        <time>2017-01-21T08:17:58Z</time>
      </trkpt>
      <trkpt lat="43.35653" lon="-0.58177">
        <ele>116.46</ele>
        <time>2017-01-21T08:18:01Z</time>
      </trkpt>
      <trkpt lat="43.35681" lon="-0.58071">
        <ele>115.01</ele>
        <time>2017-01-21T08:18:16Z</time>
      </trkpt>
      <trkpt lat="43.35721" lon="-0.57928">
        <ele>114.53</ele>
        <time>2017-01-21T08:18:36Z</time>
      </trkpt>
      <trkpt lat="43.35766" lon="-0.57766">
        <ele>114.53</ele>
        <time>2017-01-21T08:18:58Z</time>
      </trkpt>
      <trkpt lat="43.35805" lon="-0.57627">
        <ele>115.01</ele>
        <time>2017-01-21T08:19:18Z</time>
      </trkpt>
      <trkpt lat="43.35809" lon="-0.57615">
        <ele>114.53</ele>
        <time>2017-01-21T08:19:20Z</time>
      </trkpt>
      <trkpt lat="43.35809" lon="-0.5761">
        <ele>114.53</ele>
        <time>2017-01-21T08:19:21Z</time>
      </trkpt>
      <trkpt lat="43.35808" lon="-0.57603">
        <ele>114.05</ele>
        <time>2017-01-21T08:19:22Z</time>
      </trkpt>
      <trkpt lat="43.35807" lon="-0.57595">
        <ele>113.57</ele>
        <time>2017-01-21T08:19:23Z</time>
      </trkpt>
      <trkpt lat="43.35806" lon="-0.57588">
        <ele>113.57</ele>
        <time>2017-01-21T08:19:24Z</time>
      </trkpt>
      <trkpt lat="43.35806" lon="-0.57582">
        <ele>113.09</ele>
        <time>2017-01-21T08:19:25Z</time>
      </trkpt>
      <trkpt lat="43.35806" lon="-0.57568">
        <ele>113.09</ele>
        <time>2017-01-21T08:19:27Z</time>
      </trkpt>
      <trkpt lat="43.35805" lon="-0.57561">
        <ele>113.09</ele>
        <time>2017-01-21T08:19:28Z</time>
      </trkpt>
      <trkpt lat="43.35795" lon="-0.57513">
        <ele>113.57</ele>
        <time>2017-01-21T08:19:35Z</time>
      </trkpt>
      <trkpt lat="43.35781" lon="-0.57481">
        <ele>114.05</ele>
        <time>2017-01-21T08:19:40Z</time>
      </trkpt>
      <trkpt lat="43.35752" lon="-0.57377">
        <ele>113.57</ele>
        <time>2017-01-21T08:19:56Z</time>
      </trkpt>
      <trkpt lat="43.35745" lon="-0.57337">
        <ele>113.57</ele>
        <time>2017-01-21T08:20:02Z</time>
      </trkpt>
      <trkpt lat="43.35736" lon="-0.57305">
        <ele>114.05</ele>
        <time>2017-01-21T08:20:07Z</time>
      </trkpt>
      <trkpt lat="43.35733" lon="-0.573">
        <ele>113.57</ele>
        <time>2017-01-21T08:20:08Z</time>
      </trkpt>
      <trkpt lat="43.35699" lon="-0.57218">
        <ele>113.57</ele>
        <time>2017-01-21T08:20:22Z</time>
      </trkpt>
      <trkpt lat="43.35669" lon="-0.5711">
        <ele>114.05</ele>
        <time>2017-01-21T08:20:38Z</time>
      </trkpt>
      <trkpt lat="43.35666" lon="-0.5709">
        <ele>114.05</ele>
        <time>2017-01-21T08:20:41Z</time>
      </trkpt>
      <trkpt lat="43.35667" lon="-0.57053">
        <ele>114.05</ele>
        <time>2017-01-21T08:20:46Z</time>
      </trkpt>
      <trkpt lat="43.35667" lon="-0.57046">
        <ele>114.05</ele>
        <time>2017-01-21T08:20:47Z</time>
      </trkpt>
      <trkpt lat="43.35682" lon="-0.56922">
        <ele>114.05</ele>
        <time>2017-01-21T08:21:04Z</time>
      </trkpt>
      <trkpt lat="43.35706" lon="-0.56807">
        <ele>115.5</ele>
        <time>2017-01-21T08:21:21Z</time>
      </trkpt>
      <trkpt lat="43.35717" lon="-0.56755">
        <ele>116.46</ele>
        <time>2017-01-21T08:21:30Z</time>
      </trkpt>
      <trkpt lat="43.35716" lon="-0.5675">
        <ele>116.94</ele>
        <time>2017-01-21T08:21:31Z</time>
      </trkpt>
      <trkpt lat="43.35713" lon="-0.56747">
        <ele>116.46</ele>
        <time>2017-01-21T08:21:32Z</time>
      </trkpt>
      <trkpt lat="43.3571" lon="-0.56747">
        <ele>116.46</ele>
        <time>2017-01-21T08:21:33Z</time>
      </trkpt>
      <trkpt lat="43.35707" lon="-0.56748">
        <ele>116.46</ele>
        <time>2017-01-21T08:21:34Z</time>
      </trkpt>
      <trkpt lat="43.35703" lon="-0.56749">
        <ele>116.46</ele>
        <time>2017-01-21T08:21:35Z</time>
      </trkpt>
      <trkpt lat="43.357" lon="-0.56752">
        <ele>116.46</ele>
        <time>2017-01-21T08:21:36Z</time>
      </trkpt>
      <trkpt lat="43.35648" lon="-0.56787">
        <ele>116.46</ele>
        <time>2017-01-21T08:21:51Z</time>
      </trkpt>
      <trkpt lat="43.35587" lon="-0.56828">
        <ele>115.98</ele>
        <time>2017-01-21T08:22:09Z</time>
      </trkpt>
      <trkpt lat="43.35527" lon="-0.56854">
        <ele>115.5</ele>
        <time>2017-01-21T08:22:27Z</time>
      </trkpt>
      <trkpt lat="43.35525" lon="-0.5685">
        <ele>115.5</ele>
        <time>2017-01-21T08:22:28Z</time>
      </trkpt>
      <trkpt lat="43.35524" lon="-0.56847">
        <ele>115.5</ele>
        <time>2017-01-21T08:22:29Z</time>
      </trkpt>
      <trkpt lat="43.35523" lon="-0.56843">
        <ele>115.5</ele>
        <time>2017-01-21T08:22:30Z</time>
      </trkpt>
      <trkpt lat="43.35523" lon="-0.56838">
        <ele>115.5</ele>
        <time>2017-01-21T08:22:31Z</time>
      </trkpt>
      <trkpt lat="43.35523" lon="-0.56834">
        <ele>115.5</ele>
        <time>2017-01-21T08:22:32Z</time>
      </trkpt>
      <trkpt lat="43.35517" lon="-0.56753">
        <ele>116.94</ele>
        <time>2017-01-21T08:22:48Z</time>
      </trkpt>
      <trkpt lat="43.35507" lon="-0.56661">
        <ele>116.46</ele>
        <time>2017-01-21T08:23:06Z</time>
      </trkpt>
      <trkpt lat="43.35482" lon="-0.566">
        <ele>116.46</ele>
        <time>2017-01-21T08:23:19Z</time>
      </trkpt>
      <trkpt lat="43.3547" lon="-0.56543">
        <ele>115.5</ele>
        <time>2017-01-21T08:23:31Z</time>
      </trkpt>
      <trkpt lat="43.35463" lon="-0.56491">
        <ele>116.46</ele>
        <time>2017-01-21T08:23:42Z</time>
      </trkpt>
      <trkpt lat="43.35426" lon="-0.56486">
        <ele>116.94</ele>
        <time>2017-01-21T08:23:52Z</time>
      </trkpt>
      <trkpt lat="43.35345" lon="-0.56482">
        <ele>116.94</ele>
        <time>2017-01-21T08:24:09Z</time>
      </trkpt>
      <trkpt lat="43.35264" lon="-0.56484">
        <ele>116.94</ele>
        <time>2017-01-21T08:24:25Z</time>
      </trkpt>
      <trkpt lat="43.35239" lon="-0.56483">
        <ele>116.46</ele>
        <time>2017-01-21T08:24:30Z</time>
      </trkpt>
      <trkpt lat="43.35157" lon="-0.56459">
        <ele>117.9</ele>
        <time>2017-01-21T08:24:47Z</time>
      </trkpt>
      <trkpt lat="43.35141" lon="-0.56448">
        <ele>118.86</ele>
        <time>2017-01-21T08:24:52Z</time>
      </trkpt>
      <trkpt lat="43.35139" lon="-0.56443">
        <ele>118.38</ele>
        <time>2017-01-21T08:24:53Z</time>
      </trkpt>
      <trkpt lat="43.35139" lon="-0.56439">
        <ele>118.38</ele>
        <time>2017-01-21T08:24:54Z</time>
      </trkpt>
      <trkpt lat="43.35138" lon="-0.56434">
        <ele>117.9</ele>
        <time>2017-01-21T08:24:55Z</time>
      </trkpt>
      <trkpt lat="43.35137" lon="-0.5643">
        <ele>117.9</ele>
        <time>2017-01-21T08:24:56Z</time>
      </trkpt>
      <trkpt lat="43.35117" lon="-0.5638">
        <ele>118.38</ele>
        <time>2017-01-21T08:25:07Z</time>
      </trkpt>
      <trkpt lat="43.3512" lon="-0.56263">
        <ele>118.38</ele>
        <time>2017-01-21T08:25:24Z</time>
      </trkpt>
      <trkpt lat="43.35121" lon="-0.56121">
        <ele>118.38</ele>
        <time>2017-01-21T08:25:43Z</time>
      </trkpt>
      <trkpt lat="43.35119" lon="-0.56114">
        <ele>118.38</ele>
        <time>2017-01-21T08:25:44Z</time>
      </trkpt>
      <trkpt lat="43.35084" lon="-0.56009">
        <ele>118.86</ele>
        <time>2017-01-21T08:26:00Z</time>
      </trkpt>
      <trkpt lat="43.35045" lon="-0.55895">
        <ele>119.34</ele>
        <time>2017-01-21T08:26:17Z</time>
      </trkpt>
      <trkpt lat="43.35004" lon="-0.55771">
        <ele>119.82</ele>
        <time>2017-01-21T08:26:35Z</time>
      </trkpt>
      <trkpt lat="43.34968" lon="-0.55667">
        <ele>120.3</ele>
        <time>2017-01-21T08:26:51Z</time>
      </trkpt>
      <trkpt lat="43.34967" lon="-0.55661">
        <ele>120.3</ele>
        <time>2017-01-21T08:26:52Z</time>
      </trkpt>
      <trkpt lat="43.34966" lon="-0.55655">
        <ele>120.3</ele>
        <time>2017-01-21T08:26:53Z</time>
      </trkpt>
      <trkpt lat="43.34967" lon="-0.55648">
        <ele>120.3</ele>
        <time>2017-01-21T08:26:54Z</time>
      </trkpt>
      <trkpt lat="43.34969" lon="-0.55643">
        <ele>120.3</ele>
        <time>2017-01-21T08:26:55Z</time>
      </trkpt>
      <trkpt lat="43.34972" lon="-0.55638">
        <ele>120.3</ele>
        <time>2017-01-21T08:26:56Z</time>
      </trkpt>
      <trkpt lat="43.34975" lon="-0.55633">
        <ele>120.3</ele>
        <time>2017-01-21T08:26:57Z</time>
      </trkpt>
      <trkpt lat="43.34979" lon="-0.55628">
        <ele>120.3</ele>
        <time>2017-01-21T08:26:58Z</time>
      </trkpt>
      <trkpt lat="43.34997" lon="-0.55596">
        <ele>120.3</ele>
        <time>2017-01-21T08:27:04Z</time>
      </trkpt>
      <trkpt lat="43.35" lon="-0.5559">
        <ele>119.82</ele>
        <time>2017-01-21T08:27:05Z</time>
      </trkpt>
      <trkpt lat="43.35002" lon="-0.55584">
        <ele>119.82</ele>
        <time>2017-01-21T08:27:06Z</time>
      </trkpt>
      <trkpt lat="43.35003" lon="-0.55577">
        <ele>119.82</ele>
        <time>2017-01-21T08:27:07Z</time>
      </trkpt>
      <trkpt lat="43.35004" lon="-0.55569">
        <ele>119.82</ele>
        <time>2017-01-21T08:27:08Z</time>
      </trkpt>
      <trkpt lat="43.35003" lon="-0.55562">
        <ele>119.82</ele>
        <time>2017-01-21T08:27:09Z</time>
      </trkpt>
      <trkpt lat="43.35002" lon="-0.55555">
        <ele>119.34</ele>
        <time>2017-01-21T08:27:10Z</time>
      </trkpt>
      <trkpt lat="43.35" lon="-0.55548">
        <ele>119.34</ele>
        <time>2017-01-21T08:27:11Z</time>
      </trkpt>
      <trkpt lat="43.34999" lon="-0.55541">
        <ele>119.34</ele>
        <time>2017-01-21T08:27:12Z</time>
      </trkpt>
      <trkpt lat="43.34979" lon="-0.55468">
        <ele>119.82</ele>
        <time>2017-01-21T08:27:24Z</time>
      </trkpt>
      <trkpt lat="43.34978" lon="-0.55462">
        <ele>119.82</ele>
        <time>2017-01-21T08:27:25Z</time>
      </trkpt>
      <trkpt lat="43.34982" lon="-0.5545">
        <ele>119.82</ele>
        <time>2017-01-21T08:27:27Z</time>
      </trkpt>
      <trkpt lat="43.3502" lon="-0.55351">
        <ele>118.38</ele>
        <time>2017-01-21T08:27:46Z</time>
      </trkpt>
      <trkpt lat="43.35047" lon="-0.55283">
        <ele>118.38</ele>
        <time>2017-01-21T08:28:00Z</time>
      </trkpt>
      <trkpt lat="43.35055" lon="-0.55272">
        <ele>118.86</ele>
        <time>2017-01-21T08:28:03Z</time>
      </trkpt>
      <trkpt lat="43.35059" lon="-0.55272">
        <ele>118.86</ele>
        <time>2017-01-21T08:28:04Z</time>
      </trkpt>
      <trkpt lat="43.35062" lon="-0.55273">
        <ele>118.38</ele>
        <time>2017-01-21T08:28:05Z</time>
      </trkpt>
      <trkpt lat="43.35065" lon="-0.55275">
        <ele>118.38</ele>
        <time>2017-01-21T08:28:06Z</time>
      </trkpt>
      <trkpt lat="43.35068" lon="-0.55278">
        <ele>117.9</ele>
        <time>2017-01-21T08:28:07Z</time>
      </trkpt>
      <trkpt lat="43.35072" lon="-0.55282">
        <ele>117.9</ele>
        <time>2017-01-21T08:28:08Z</time>
      </trkpt>
      <trkpt lat="43.35123" lon="-0.55331">
        <ele>117.42</ele>
        <time>2017-01-21T08:28:23Z</time>
      </trkpt>
      <trkpt lat="43.35173" lon="-0.55379">
        <ele>118.86</ele>
        <time>2017-01-21T08:28:38Z</time>
      </trkpt>
      <trkpt lat="43.35181" lon="-0.55384">
        <ele>118.86</ele>
        <time>2017-01-21T08:28:40Z</time>
      </trkpt>
      <trkpt lat="43.35184" lon="-0.55385">
        <ele>118.86</ele>
        <time>2017-01-21T08:28:41Z</time>
      </trkpt>
      <trkpt lat="43.35188" lon="-0.55386">
        <ele>118.86</ele>
        <time>2017-01-21T08:28:42Z</time>
      </trkpt>
      <trkpt lat="43.35225" lon="-0.55368">
        <ele>119.34</ele>
        <time>2017-01-21T08:28:54Z</time>
      </trkpt>
      <trkpt lat="43.35222" lon="-0.55323">
        <ele>121.26</ele>
        <time>2017-01-21T08:29:04Z</time>
      </trkpt>
      <trkpt lat="43.35222" lon="-0.55271">
        <ele>124.63</ele>
        <time>2017-01-21T08:29:18Z</time>
      </trkpt>
      <trkpt lat="43.35223" lon="-0.55266">
        <ele>125.11</ele>
        <time>2017-01-21T08:29:20Z</time>
      </trkpt>
      <trkpt lat="43.35224" lon="-0.55264">
        <ele>125.11</ele>
        <time>2017-01-21T08:29:21Z</time>
      </trkpt>
      <trkpt lat="43.35241" lon="-0.55236">
        <ele>127.51</ele>
        <time>2017-01-21T08:29:38Z</time>
      </trkpt>
      <trkpt lat="43.35259" lon="-0.5521">
        <ele>130.4</ele>
        <time>2017-01-21T08:29:55Z</time>
      </trkpt>
      <trkpt lat="43.35272" lon="-0.552">
        <ele>133.28</ele>
        <time>2017-01-21T08:30:06Z</time>
      </trkpt>
      <trkpt lat="43.35273" lon="-0.55199">
        <ele>133.76</ele>
        <time>2017-01-21T08:30:07Z</time>
      </trkpt>
      <trkpt lat="43.35274" lon="-0.55197">
        <ele>133.76</ele>
        <time>2017-01-21T08:30:08Z</time>
      </trkpt>
      <trkpt lat="43.35275" lon="-0.55195">
        <ele>134.24</ele>
        <time>2017-01-21T08:30:09Z</time>
      </trkpt>
      <trkpt lat="43.35276" lon="-0.55193">
        <ele>134.24</ele>
        <time>2017-01-21T08:30:10Z</time>
      </trkpt>
      <trkpt lat="43.35276" lon="-0.55192">
        <ele>134.72</ele>
        <time>2017-01-21T08:30:11Z</time>
      </trkpt>
      <trkpt lat="43.35277" lon="-0.5519">
        <ele>135.2</ele>
        <time>2017-01-21T08:30:12Z</time>
      </trkpt>
      <trkpt lat="43.35277" lon="-0.55188">
        <ele>135.2</ele>
        <time>2017-01-21T08:30:13Z</time>
      </trkpt>
      <trkpt lat="43.3529" lon="-0.55166">
        <ele>139.05</ele>
        <time>2017-01-21T08:30:28Z</time>
      </trkpt>
      <trkpt lat="43.35306" lon="-0.55146">
        <ele>142.41</ele>
        <time>2017-01-21T08:30:44Z</time>
      </trkpt>
      <trkpt lat="43.35321" lon="-0.55125">
        <ele>145.78</ele>
        <time>2017-01-21T08:31:01Z</time>
      </trkpt>
      <trkpt lat="43.35322" lon="-0.55122">
        <ele>146.26</ele>
        <time>2017-01-21T08:31:03Z</time>
      </trkpt>
      <trkpt lat="43.35322" lon="-0.55092">
        <ele>151.06</ele>
        <time>2017-01-21T08:31:22Z</time>
      </trkpt>
      <trkpt lat="43.3532" lon="-0.55067">
        <ele>153.95</ele>
        <time>2017-01-21T08:31:39Z</time>
      </trkpt>
      <trkpt lat="43.35319" lon="-0.55057">
        <ele>156.35</ele>
        <time>2017-01-21T08:32:08Z</time>
      </trkpt>
      <trkpt lat="43.35317" lon="-0.55033">
        <ele>161.16</ele>
        <time>2017-01-21T08:32:25Z</time>
      </trkpt>
      <trkpt lat="43.35317" lon="-0.55032">
        <ele>161.64</ele>
        <time>2017-01-21T08:32:26Z</time>
      </trkpt>
      <trkpt lat="43.35316" lon="-0.55023">
        <ele>163.08</ele>
        <time>2017-01-21T08:32:39Z</time>
      </trkpt>
      <trkpt lat="43.35314" lon="-0.55008">
        <ele>164.52</ele>
        <time>2017-01-21T08:32:57Z</time>
      </trkpt>
      <trkpt lat="43.35313" lon="-0.54996">
        <ele>165.48</ele>
        <time>2017-01-21T08:33:12Z</time>
      </trkpt>
      <trkpt lat="43.35311" lon="-0.54989">
        <ele>165.96</ele>
        <time>2017-01-21T08:33:31Z</time>
      </trkpt>
      <trkpt lat="43.3531" lon="-0.54972">
        <ele>169.33</ele>
        <time>2017-01-21T08:33:46Z</time>
      </trkpt>
      <trkpt lat="43.35309" lon="-0.54961">
        <ele>171.25</ele>
        <time>2017-01-21T08:33:58Z</time>
      </trkpt>
      <trkpt lat="43.35307" lon="-0.54941">
        <ele>173.17</ele>
        <time>2017-01-21T08:34:15Z</time>
      </trkpt>
      <trkpt lat="43.35307" lon="-0.54941">
        <ele>173.66</ele>
        <time>2017-01-21T08:34:24Z</time>
      </trkpt>
      <trkpt lat="43.3531" lon="-0.54906">
        <ele>178.46</ele>
        <time>2017-01-21T08:34:43Z</time>
      </trkpt>
      <trkpt lat="43.3531" lon="-0.54899">
        <ele>179.42</ele>
        <time>2017-01-21T08:34:47Z</time>
      </trkpt>
      <trkpt lat="43.35314" lon="-0.54875">
        <ele>184.71</ele>
        <time>2017-01-21T08:35:03Z</time>
      </trkpt>
      <trkpt lat="43.35317" lon="-0.54863">
        <ele>189.04</ele>
        <time>2017-01-21T08:35:20Z</time>
      </trkpt>
      <trkpt lat="43.35318" lon="-0.54858">
        <ele>190</ele>
        <time>2017-01-21T08:35:36Z</time>
      </trkpt>
      <trkpt lat="43.35319" lon="-0.54851">
        <ele>191.44</ele>
        <time>2017-01-21T08:35:45Z</time>
      </trkpt>
      <trkpt lat="43.35322" lon="-0.54839">
        <ele>194.8</ele>
        <time>2017-01-21T08:35:58Z</time>
      </trkpt>
      <trkpt lat="43.35325" lon="-0.54827">
        <ele>199.13</ele>
        <time>2017-01-21T08:36:15Z</time>
      </trkpt>
      <trkpt lat="43.35325" lon="-0.54819">
        <ele>201.05</ele>
        <time>2017-01-21T08:36:33Z</time>
      </trkpt>
      <trkpt lat="43.35328" lon="-0.54804">
        <ele>204.42</ele>
        <time>2017-01-21T08:36:53Z</time>
      </trkpt>
      <trkpt lat="43.35332" lon="-0.5479">
        <ele>208.74</ele>
        <time>2017-01-21T08:37:09Z</time>
      </trkpt>
      <trkpt lat="43.3534" lon="-0.5478">
        <ele>208.26</ele>
        <time>2017-01-21T08:37:25Z</time>
      </trkpt>
      <trkpt lat="43.35343" lon="-0.54761">
        <ele>212.11</ele>
        <time>2017-01-21T08:37:39Z</time>
      </trkpt>
      <trkpt lat="43.35339" lon="-0.54757">
        <ele>211.15</ele>
        <time>2017-01-21T08:37:44Z</time>
      </trkpt>
      <trkpt lat="43.3533" lon="-0.54746">
        <ele>207.78</ele>
        <time>2017-01-21T08:37:58Z</time>
      </trkpt>
      <trkpt lat="43.35332" lon="-0.54749">
        <ele>203.94</ele>
        <time>2017-01-21T08:38:27Z</time>
      </trkpt>
      <trkpt lat="43.35332" lon="-0.54753">
        <ele>202.01</ele>
        <time>2017-01-21T08:38:59Z</time>
      </trkpt>
      <trkpt lat="43.35333" lon="-0.54752">
        <ele>201.05</ele>
        <time>2017-01-21T08:39:27Z</time>
      </trkpt>
      <trkpt lat="43.35332" lon="-0.54751">
        <ele>201.05</ele>
        <time>2017-01-21T08:39:42Z</time>
      </trkpt>
      <trkpt lat="43.35324" lon="-0.54743">
        <ele>201.53</ele>
        <time>2017-01-21T08:39:48Z</time>
      </trkpt>
      <trkpt lat="43.35322" lon="-0.54741">
        <ele>202.01</ele>
        <time>2017-01-21T08:39:49Z</time>
      </trkpt>
      <trkpt lat="43.35297" lon="-0.54697">
        <ele>201.05</ele>
        <time>2017-01-21T08:40:01Z</time>
      </trkpt>
      <trkpt lat="43.35291" lon="-0.5464">
        <ele>202.49</ele>
        <time>2017-01-21T08:40:15Z</time>
      </trkpt>
      <trkpt lat="43.35296" lon="-0.54588">
        <ele>202.01</ele>
        <time>2017-01-21T08:40:27Z</time>
      </trkpt>
      <trkpt lat="43.35297" lon="-0.5456">
        <ele>200.09</ele>
        <time>2017-01-21T08:40:32Z</time>
      </trkpt>
      <trkpt lat="43.35297" lon="-0.54544">
        <ele>199.61</ele>
        <time>2017-01-21T08:40:34Z</time>
      </trkpt>
      <trkpt lat="43.35297" lon="-0.54537">
        <ele>200.09</ele>
        <time>2017-01-21T08:40:35Z</time>
      </trkpt>
      <trkpt lat="43.35298" lon="-0.54531">
        <ele>200.09</ele>
        <time>2017-01-21T08:40:36Z</time>
      </trkpt>
      <trkpt lat="43.35297" lon="-0.54456">
        <ele>199.61</ele>
        <time>2017-01-21T08:40:50Z</time>
      </trkpt>
      <trkpt lat="43.35297" lon="-0.54448">
        <ele>201.05</ele>
        <time>2017-01-21T08:41:00Z</time>
      </trkpt>
      <trkpt lat="43.35296" lon="-0.5444">
        <ele>203.46</ele>
        <time>2017-01-21T08:41:36Z</time>
      </trkpt>
      <trkpt lat="43.35296" lon="-0.54441">
        <ele>201.05</ele>
        <time>2017-01-21T08:42:10Z</time>
      </trkpt>
      <trkpt lat="43.35294" lon="-0.54437">
        <ele>202.49</ele>
        <time>2017-01-21T08:42:40Z</time>
      </trkpt>
      <trkpt lat="43.35294" lon="-0.54432">
        <ele>204.42</ele>
        <time>2017-01-21T08:43:01Z</time>
      </trkpt>
      <trkpt lat="43.35299" lon="-0.54368">
        <ele>205.38</ele>
        <time>2017-01-21T08:43:17Z</time>
      </trkpt>
      <trkpt lat="43.353" lon="-0.54331">
        <ele>203.94</ele>
        <time>2017-01-21T08:43:23Z</time>
      </trkpt>
      <trkpt lat="43.35288" lon="-0.54252">
        <ele>201.05</ele>
        <time>2017-01-21T08:43:35Z</time>
      </trkpt>
      <trkpt lat="43.35268" lon="-0.54169">
        <ele>199.13</ele>
        <time>2017-01-21T08:43:50Z</time>
      </trkpt>
      <trkpt lat="43.35247" lon="-0.54115">
        <ele>199.61</ele>
        <time>2017-01-21T08:44:03Z</time>
      </trkpt>
      <trkpt lat="43.35244" lon="-0.54105">
        <ele>201.05</ele>
        <time>2017-01-21T08:44:31Z</time>
      </trkpt>
      <trkpt lat="43.35244" lon="-0.54103">
        <ele>201.53</ele>
        <time>2017-01-21T08:44:32Z</time>
      </trkpt>
      <trkpt lat="43.35244" lon="-0.54101">
        <ele>202.01</ele>
        <time>2017-01-21T08:44:34Z</time>
      </trkpt>
      <trkpt lat="43.35243" lon="-0.54099">
        <ele>202.49</ele>
        <time>2017-01-21T08:44:35Z</time>
      </trkpt>
      <trkpt lat="43.35243" lon="-0.54097">
        <ele>202.98</ele>
        <time>2017-01-21T08:44:36Z</time>
      </trkpt>
      <trkpt lat="43.35242" lon="-0.54096">
        <ele>203.46</ele>
        <time>2017-01-21T08:44:37Z</time>
      </trkpt>
      <trkpt lat="43.35242" lon="-0.54094">
        <ele>203.46</ele>
        <time>2017-01-21T08:44:38Z</time>
      </trkpt>
      <trkpt lat="43.35235" lon="-0.54069">
        <ele>206.82</ele>
        <time>2017-01-21T08:44:51Z</time>
      </trkpt>
      <trkpt lat="43.35235" lon="-0.54067">
        <ele>207.3</ele>
        <time>2017-01-21T08:44:52Z</time>
      </trkpt>
      <trkpt lat="43.35235" lon="-0.54065">
        <ele>207.3</ele>
        <time>2017-01-21T08:44:53Z</time>
      </trkpt>
      <trkpt lat="43.35235" lon="-0.54057">
        <ele>208.74</ele>
        <time>2017-01-21T08:44:57Z</time>
      </trkpt>
      <trkpt lat="43.35234" lon="-0.54055">
        <ele>208.74</ele>
        <time>2017-01-21T08:44:58Z</time>
      </trkpt>
      <trkpt lat="43.35234" lon="-0.54052">
        <ele>209.22</ele>
        <time>2017-01-21T08:45:00Z</time>
      </trkpt>
      <trkpt lat="43.35235" lon="-0.5405">
        <ele>209.7</ele>
        <time>2017-01-21T08:45:01Z</time>
      </trkpt>
      <trkpt lat="43.35233" lon="-0.54029">
        <ele>212.59</ele>
        <time>2017-01-21T08:45:12Z</time>
      </trkpt>
      <trkpt lat="43.35233" lon="-0.54027">
        <ele>213.07</ele>
        <time>2017-01-21T08:45:13Z</time>
      </trkpt>
      <trkpt lat="43.35231" lon="-0.54015">
        <ele>215.47</ele>
        <time>2017-01-21T08:45:26Z</time>
      </trkpt>
      <trkpt lat="43.3523" lon="-0.54017">
        <ele>214.51</ele>
        <time>2017-01-21T08:45:32Z</time>
      </trkpt>
      <trkpt lat="43.35231" lon="-0.5402">
        <ele>214.51</ele>
        <time>2017-01-21T08:45:33Z</time>
      </trkpt>
      <trkpt lat="43.35231" lon="-0.54022">
        <ele>214.03</ele>
        <time>2017-01-21T08:45:34Z</time>
      </trkpt>
      <trkpt lat="43.35232" lon="-0.54039">
        <ele>211.15</ele>
        <time>2017-01-21T08:45:39Z</time>
      </trkpt>
      <trkpt lat="43.35232" lon="-0.54043">
        <ele>210.19</ele>
        <time>2017-01-21T08:45:40Z</time>
      </trkpt>
      <trkpt lat="43.35233" lon="-0.54048">
        <ele>209.7</ele>
        <time>2017-01-21T08:45:41Z</time>
      </trkpt>
      <trkpt lat="43.35233" lon="-0.54052">
        <ele>209.22</ele>
        <time>2017-01-21T08:45:42Z</time>
      </trkpt>
      <trkpt lat="43.35233" lon="-0.54055">
        <ele>208.74</ele>
        <time>2017-01-21T08:45:43Z</time>
      </trkpt>
      <trkpt lat="43.35232" lon="-0.54061">
        <ele>207.3</ele>
        <time>2017-01-21T08:45:45Z</time>
      </trkpt>
      <trkpt lat="43.35231" lon="-0.54063">
        <ele>206.82</ele>
        <time>2017-01-21T08:45:46Z</time>
      </trkpt>
      <trkpt lat="43.35229" lon="-0.54065">
        <ele>206.34</ele>
        <time>2017-01-21T08:45:47Z</time>
      </trkpt>
      <trkpt lat="43.35227" lon="-0.54066">
        <ele>205.86</ele>
        <time>2017-01-21T08:45:48Z</time>
      </trkpt>
      <trkpt lat="43.35225" lon="-0.54067">
        <ele>205.38</ele>
        <time>2017-01-21T08:45:49Z</time>
      </trkpt>
      <trkpt lat="43.35223" lon="-0.54067">
        <ele>204.42</ele>
        <time>2017-01-21T08:45:50Z</time>
      </trkpt>
      <trkpt lat="43.3522" lon="-0.54067">
        <ele>203.94</ele>
        <time>2017-01-21T08:45:51Z</time>
      </trkpt>
      <trkpt lat="43.35217" lon="-0.54066">
        <ele>202.98</ele>
        <time>2017-01-21T08:45:52Z</time>
      </trkpt>
      <trkpt lat="43.35194" lon="-0.54062">
        <ele>198.65</ele>
        <time>2017-01-21T08:46:00Z</time>
      </trkpt>
      <trkpt lat="43.35161" lon="-0.54045">
        <ele>199.13</ele>
        <time>2017-01-21T08:46:13Z</time>
      </trkpt>
      <trkpt lat="43.35133" lon="-0.54034">
        <ele>202.49</ele>
        <time>2017-01-21T08:46:25Z</time>
      </trkpt>
      <trkpt lat="43.35099" lon="-0.54011">
        <ele>202.98</ele>
        <time>2017-01-21T08:46:37Z</time>
      </trkpt>
      <trkpt lat="43.35084" lon="-0.53976">
        <ele>202.98</ele>
        <time>2017-01-21T08:46:45Z</time>
      </trkpt>
      <trkpt lat="43.35077" lon="-0.53956">
        <ele>202.01</ele>
        <time>2017-01-21T08:46:48Z</time>
      </trkpt>
      <trkpt lat="43.35076" lon="-0.53948">
        <ele>201.53</ele>
        <time>2017-01-21T08:46:49Z</time>
      </trkpt>
      <trkpt lat="43.35075" lon="-0.53941">
        <ele>201.53</ele>
        <time>2017-01-21T08:46:50Z</time>
      </trkpt>
      <trkpt lat="43.35074" lon="-0.53892">
        <ele>198.65</ele>
        <time>2017-01-21T08:46:58Z</time>
      </trkpt>
      <trkpt lat="43.35064" lon="-0.53821">
        <ele>197.69</ele>
        <time>2017-01-21T08:47:10Z</time>
      </trkpt>
      <trkpt lat="43.3506" lon="-0.53805">
        <ele>196.73</ele>
        <time>2017-01-21T08:47:12Z</time>
      </trkpt>
      <trkpt lat="43.35037" lon="-0.53712">
        <ele>190.96</ele>
        <time>2017-01-21T08:47:21Z</time>
      </trkpt>
      <trkpt lat="43.35012" lon="-0.53644">
        <ele>192.4</ele>
        <time>2017-01-21T08:47:31Z</time>
      </trkpt>
      <trkpt lat="43.35002" lon="-0.53562">
        <ele>194.8</ele>
        <time>2017-01-21T08:47:48Z</time>
      </trkpt>
      <trkpt lat="43.35004" lon="-0.53479">
        <ele>196.73</ele>
        <time>2017-01-21T08:48:04Z</time>
      </trkpt>
      <trkpt lat="43.34999" lon="-0.53399">
        <ele>198.17</ele>
        <time>2017-01-21T08:48:20Z</time>
      </trkpt>
      <trkpt lat="43.34991" lon="-0.5335">
        <ele>198.17</ele>
        <time>2017-01-21T08:48:32Z</time>
      </trkpt>
      <trkpt lat="43.34989" lon="-0.53347">
        <ele>197.69</ele>
        <time>2017-01-21T08:48:33Z</time>
      </trkpt>
      <trkpt lat="43.34974" lon="-0.53312">
        <ele>199.13</ele>
        <time>2017-01-21T08:48:43Z</time>
      </trkpt>
      <trkpt lat="43.34968" lon="-0.53263">
        <ele>202.49</ele>
        <time>2017-01-21T08:49:00Z</time>
      </trkpt>
      <trkpt lat="43.34949" lon="-0.53217">
        <ele>201.53</ele>
        <time>2017-01-21T08:49:12Z</time>
      </trkpt>
      <trkpt lat="43.34945" lon="-0.53212">
        <ele>201.05</ele>
        <time>2017-01-21T08:49:13Z</time>
      </trkpt>
      <trkpt lat="43.34942" lon="-0.53207">
        <ele>201.05</ele>
        <time>2017-01-21T08:49:14Z</time>
      </trkpt>
      <trkpt lat="43.34933" lon="-0.53193">
        <ele>200.09</ele>
        <time>2017-01-21T08:49:17Z</time>
      </trkpt>
      <trkpt lat="43.3493" lon="-0.53188">
        <ele>199.61</ele>
        <time>2017-01-21T08:49:18Z</time>
      </trkpt>
      <trkpt lat="43.34923" lon="-0.53177">
        <ele>199.13</ele>
        <time>2017-01-21T08:49:20Z</time>
      </trkpt>
      <trkpt lat="43.34918" lon="-0.53175">
        <ele>198.65</ele>
        <time>2017-01-21T08:49:21Z</time>
      </trkpt>
      <trkpt lat="43.34913" lon="-0.53174">
        <ele>198.65</ele>
        <time>2017-01-21T08:49:22Z</time>
      </trkpt>
      <trkpt lat="43.34908" lon="-0.53174">
        <ele>198.17</ele>
        <time>2017-01-21T08:49:23Z</time>
      </trkpt>
      <trkpt lat="43.34902" lon="-0.53174">
        <ele>197.69</ele>
        <time>2017-01-21T08:49:24Z</time>
      </trkpt>
      <trkpt lat="43.34895" lon="-0.53173">
        <ele>196.73</ele>
        <time>2017-01-21T08:49:25Z</time>
      </trkpt>
      <trkpt lat="43.34818" lon="-0.53169">
        <ele>194.32</ele>
        <time>2017-01-21T08:49:36Z</time>
      </trkpt>
      <trkpt lat="43.34787" lon="-0.53182">
        <ele>195.77</ele>
        <time>2017-01-21T08:49:45Z</time>
      </trkpt>
      <trkpt lat="43.34785" lon="-0.53185">
        <ele>195.77</ele>
        <time>2017-01-21T08:49:53Z</time>
      </trkpt>
      <trkpt lat="43.34805" lon="-0.53169">
        <ele>194.8</ele>
        <time>2017-01-21T08:50:04Z</time>
      </trkpt>
      <trkpt lat="43.34805" lon="-0.53167">
        <ele>194.8</ele>
        <time>2017-01-21T08:50:05Z</time>
      </trkpt>
      <trkpt lat="43.34805" lon="-0.53165">
        <ele>195.28</ele>
        <time>2017-01-21T08:50:06Z</time>
      </trkpt>
      <trkpt lat="43.34804" lon="-0.53163">
        <ele>195.77</ele>
        <time>2017-01-21T08:50:07Z</time>
      </trkpt>
      <trkpt lat="43.34802" lon="-0.53161">
        <ele>195.77</ele>
        <time>2017-01-21T08:50:08Z</time>
      </trkpt>
      <trkpt lat="43.34801" lon="-0.53161">
        <ele>196.25</ele>
        <time>2017-01-21T08:50:09Z</time>
      </trkpt>
      <trkpt lat="43.34799" lon="-0.53161">
        <ele>196.25</ele>
        <time>2017-01-21T08:50:10Z</time>
      </trkpt>
      <trkpt lat="43.34797" lon="-0.5316">
        <ele>196.73</ele>
        <time>2017-01-21T08:50:11Z</time>
      </trkpt>
      <trkpt lat="43.34796" lon="-0.5316">
        <ele>196.73</ele>
        <time>2017-01-21T08:50:12Z</time>
      </trkpt>
      <trkpt lat="43.34794" lon="-0.53159">
        <ele>196.73</ele>
        <time>2017-01-21T08:50:13Z</time>
      </trkpt>
      <trkpt lat="43.34793" lon="-0.53159">
        <ele>196.73</ele>
        <time>2017-01-21T08:50:14Z</time>
      </trkpt>
      <trkpt lat="43.34789" lon="-0.53158">
        <ele>197.21</ele>
        <time>2017-01-21T08:50:16Z</time>
      </trkpt>
      <trkpt lat="43.34788" lon="-0.53158">
        <ele>197.69</ele>
        <time>2017-01-21T08:50:17Z</time>
      </trkpt>
      <trkpt lat="43.34786" lon="-0.53157">
        <ele>197.69</ele>
        <time>2017-01-21T08:50:18Z</time>
      </trkpt>
      <trkpt lat="43.34762" lon="-0.53144">
        <ele>201.05</ele>
        <time>2017-01-21T08:50:34Z</time>
      </trkpt>
      <trkpt lat="43.34762" lon="-0.53142">
        <ele>201.05</ele>
        <time>2017-01-21T08:50:35Z</time>
      </trkpt>
      <trkpt lat="43.34762" lon="-0.5314">
        <ele>201.05</ele>
        <time>2017-01-21T08:50:36Z</time>
      </trkpt>
      <trkpt lat="43.34745" lon="-0.53111">
        <ele>200.09</ele>
        <time>2017-01-21T08:50:51Z</time>
      </trkpt>
      <trkpt lat="43.34738" lon="-0.531">
        <ele>202.49</ele>
        <time>2017-01-21T08:50:58Z</time>
      </trkpt>
      <trkpt lat="43.34737" lon="-0.53099">
        <ele>202.98</ele>
        <time>2017-01-21T08:50:59Z</time>
      </trkpt>
      <trkpt lat="43.34717" lon="-0.53074">
        <ele>205.86</ele>
        <time>2017-01-21T08:51:14Z</time>
      </trkpt>
      <trkpt lat="43.34702" lon="-0.53066">
        <ele>205.86</ele>
        <time>2017-01-21T08:51:22Z</time>
      </trkpt>
      <trkpt lat="43.34701" lon="-0.53064">
        <ele>205.86</ele>
        <time>2017-01-21T08:51:23Z</time>
      </trkpt>
      <trkpt lat="43.34699" lon="-0.53063">
        <ele>205.86</ele>
        <time>2017-01-21T08:51:24Z</time>
      </trkpt>
      <trkpt lat="43.34698" lon="-0.53062">
        <ele>205.86</ele>
        <time>2017-01-21T08:51:25Z</time>
      </trkpt>
      <trkpt lat="43.34696" lon="-0.53061">
        <ele>206.34</ele>
        <time>2017-01-21T08:51:26Z</time>
      </trkpt>
      <trkpt lat="43.34679" lon="-0.53041">
        <ele>209.22</ele>
        <time>2017-01-21T08:51:39Z</time>
      </trkpt>
      <trkpt lat="43.3466" lon="-0.53025">
        <ele>212.59</ele>
        <time>2017-01-21T08:51:53Z</time>
      </trkpt>
      <trkpt lat="43.34646" lon="-0.53015">
        <ele>212.11</ele>
        <time>2017-01-21T08:52:03Z</time>
      </trkpt>
      <trkpt lat="43.34623" lon="-0.52987">
        <ele>213.07</ele>
        <time>2017-01-21T08:52:18Z</time>
      </trkpt>
      <trkpt lat="43.34608" lon="-0.52969">
        <ele>215.95</ele>
        <time>2017-01-21T08:52:30Z</time>
      </trkpt>
      <trkpt lat="43.34587" lon="-0.52957">
        <ele>217.4</ele>
        <time>2017-01-21T08:52:43Z</time>
      </trkpt>
      <trkpt lat="43.3457" lon="-0.52937">
        <ele>219.32</ele>
        <time>2017-01-21T08:52:55Z</time>
      </trkpt>
      <trkpt lat="43.34556" lon="-0.52927">
        <ele>220.28</ele>
        <time>2017-01-21T08:53:03Z</time>
      </trkpt>
      <trkpt lat="43.34554" lon="-0.52925">
        <ele>220.28</ele>
        <time>2017-01-21T08:53:04Z</time>
      </trkpt>
      <trkpt lat="43.34553" lon="-0.52923">
        <ele>220.76</ele>
        <time>2017-01-21T08:53:05Z</time>
      </trkpt>
      <trkpt lat="43.3455" lon="-0.52922">
        <ele>220.76</ele>
        <time>2017-01-21T08:53:06Z</time>
      </trkpt>
      <trkpt lat="43.34548" lon="-0.5292">
        <ele>220.28</ele>
        <time>2017-01-21T08:53:07Z</time>
      </trkpt>
      <trkpt lat="43.34545" lon="-0.52918">
        <ele>220.28</ele>
        <time>2017-01-21T08:53:08Z</time>
      </trkpt>
      <trkpt lat="43.34543" lon="-0.52914">
        <ele>219.8</ele>
        <time>2017-01-21T08:53:09Z</time>
      </trkpt>
      <trkpt lat="43.3454" lon="-0.52909">
        <ele>219.32</ele>
        <time>2017-01-21T08:53:10Z</time>
      </trkpt>
      <trkpt lat="43.34537" lon="-0.52904">
        <ele>218.84</ele>
        <time>2017-01-21T08:53:11Z</time>
      </trkpt>
      <trkpt lat="43.34534" lon="-0.52899">
        <ele>218.36</ele>
        <time>2017-01-21T08:53:12Z</time>
      </trkpt>
      <trkpt lat="43.34531" lon="-0.52894">
        <ele>218.36</ele>
        <time>2017-01-21T08:53:13Z</time>
      </trkpt>
      <trkpt lat="43.34528" lon="-0.5289">
        <ele>217.88</ele>
        <time>2017-01-21T08:53:14Z</time>
      </trkpt>
      <trkpt lat="43.34521" lon="-0.5288">
        <ele>217.4</ele>
        <time>2017-01-21T08:53:16Z</time>
      </trkpt>
      <trkpt lat="43.34518" lon="-0.52876">
        <ele>217.4</ele>
        <time>2017-01-21T08:53:17Z</time>
      </trkpt>
      <trkpt lat="43.34499" lon="-0.52855">
        <ele>219.32</ele>
        <time>2017-01-21T08:53:27Z</time>
      </trkpt>
      <trkpt lat="43.34484" lon="-0.52836">
        <ele>222.2</ele>
        <time>2017-01-21T08:53:41Z</time>
      </trkpt>
      <trkpt lat="43.34472" lon="-0.5281">
        <ele>225.09</ele>
        <time>2017-01-21T08:53:54Z</time>
      </trkpt>
      <trkpt lat="43.34468" lon="-0.52766">
        <ele>224.12</ele>
        <time>2017-01-21T08:54:02Z</time>
      </trkpt>
      <trkpt lat="43.34461" lon="-0.52722">
        <ele>224.61</ele>
        <time>2017-01-21T08:54:13Z</time>
      </trkpt>
      <trkpt lat="43.34452" lon="-0.52708">
        <ele>222.68</ele>
        <time>2017-01-21T08:54:18Z</time>
      </trkpt>
      <trkpt lat="43.34443" lon="-0.52699">
        <ele>221.24</ele>
        <time>2017-01-21T08:54:23Z</time>
      </trkpt>
      <trkpt lat="43.34441" lon="-0.52695">
        <ele>220.76</ele>
        <time>2017-01-21T08:54:24Z</time>
      </trkpt>
      <trkpt lat="43.3444" lon="-0.52689">
        <ele>220.28</ele>
        <time>2017-01-21T08:54:25Z</time>
      </trkpt>
      <trkpt lat="43.34438" lon="-0.52677">
        <ele>219.32</ele>
        <time>2017-01-21T08:54:28Z</time>
      </trkpt>
      <trkpt lat="43.34437" lon="-0.52675">
        <ele>219.32</ele>
        <time>2017-01-21T08:54:29Z</time>
      </trkpt>
      <trkpt lat="43.34435" lon="-0.52674">
        <ele>219.32</ele>
        <time>2017-01-21T08:54:30Z</time>
      </trkpt>
      <trkpt lat="43.34425" lon="-0.52659">
        <ele>218.36</ele>
        <time>2017-01-21T08:54:38Z</time>
      </trkpt>
      <trkpt lat="43.34425" lon="-0.52655">
        <ele>217.88</ele>
        <time>2017-01-21T08:54:39Z</time>
      </trkpt>
      <trkpt lat="43.34424" lon="-0.52652">
        <ele>217.4</ele>
        <time>2017-01-21T08:54:40Z</time>
      </trkpt>
      <trkpt lat="43.34422" lon="-0.52649">
        <ele>217.4</ele>
        <time>2017-01-21T08:54:41Z</time>
      </trkpt>
      <trkpt lat="43.34421" lon="-0.52646">
        <ele>216.91</ele>
        <time>2017-01-21T08:54:42Z</time>
      </trkpt>
      <trkpt lat="43.3442" lon="-0.52644">
        <ele>216.91</ele>
        <time>2017-01-21T08:54:43Z</time>
      </trkpt>
      <trkpt lat="43.3442" lon="-0.52642">
        <ele>216.91</ele>
        <time>2017-01-21T08:54:44Z</time>
      </trkpt>
      <trkpt lat="43.34419" lon="-0.5264">
        <ele>216.91</ele>
        <time>2017-01-21T08:54:45Z</time>
      </trkpt>
      <trkpt lat="43.34418" lon="-0.52638">
        <ele>216.91</ele>
        <time>2017-01-21T08:54:46Z</time>
      </trkpt>
      <trkpt lat="43.34418" lon="-0.52636">
        <ele>217.4</ele>
        <time>2017-01-21T08:54:47Z</time>
      </trkpt>
      <trkpt lat="43.34418" lon="-0.52634">
        <ele>217.4</ele>
        <time>2017-01-21T08:54:48Z</time>
      </trkpt>
      <trkpt lat="43.34418" lon="-0.52632">
        <ele>217.88</ele>
        <time>2017-01-21T08:54:49Z</time>
      </trkpt>
      <trkpt lat="43.34418" lon="-0.5263">
        <ele>217.88</ele>
        <time>2017-01-21T08:54:50Z</time>
      </trkpt>
      <trkpt lat="43.34418" lon="-0.52627">
        <ele>218.36</ele>
        <time>2017-01-21T08:54:51Z</time>
      </trkpt>
      <trkpt lat="43.34417" lon="-0.52617">
        <ele>218.84</ele>
        <time>2017-01-21T08:54:55Z</time>
      </trkpt>
      <trkpt lat="43.34415" lon="-0.52615">
        <ele>218.36</ele>
        <time>2017-01-21T08:54:56Z</time>
      </trkpt>
      <trkpt lat="43.34401" lon="-0.52604">
        <ele>214.51</ele>
        <time>2017-01-21T08:55:05Z</time>
      </trkpt>
      <trkpt lat="43.34396" lon="-0.52599">
        <ele>213.55</ele>
        <time>2017-01-21T08:55:14Z</time>
      </trkpt>
      <trkpt lat="43.34383" lon="-0.52583">
        <ele>213.07</ele>
        <time>2017-01-21T08:55:24Z</time>
      </trkpt>
      <trkpt lat="43.34379" lon="-0.5258">
        <ele>212.59</ele>
        <time>2017-01-21T08:55:25Z</time>
      </trkpt>
      <trkpt lat="43.34376" lon="-0.52576">
        <ele>212.11</ele>
        <time>2017-01-21T08:55:26Z</time>
      </trkpt>
      <trkpt lat="43.34374" lon="-0.52571">
        <ele>212.11</ele>
        <time>2017-01-21T08:55:27Z</time>
      </trkpt>
      <trkpt lat="43.34371" lon="-0.52566">
        <ele>211.63</ele>
        <time>2017-01-21T08:55:28Z</time>
      </trkpt>
      <trkpt lat="43.34369" lon="-0.52562">
        <ele>211.63</ele>
        <time>2017-01-21T08:55:29Z</time>
      </trkpt>
      <trkpt lat="43.34365" lon="-0.52546">
        <ele>211.63</ele>
        <time>2017-01-21T08:55:33Z</time>
      </trkpt>
      <trkpt lat="43.34365" lon="-0.52543">
        <ele>211.63</ele>
        <time>2017-01-21T08:55:34Z</time>
      </trkpt>
      <trkpt lat="43.34364" lon="-0.5254">
        <ele>211.63</ele>
        <time>2017-01-21T08:55:35Z</time>
      </trkpt>
      <trkpt lat="43.34361" lon="-0.52526">
        <ele>210.67</ele>
        <time>2017-01-21T08:55:40Z</time>
      </trkpt>
      <trkpt lat="43.34342" lon="-0.52494">
        <ele>210.67</ele>
        <time>2017-01-21T08:55:51Z</time>
      </trkpt>
      <trkpt lat="43.34339" lon="-0.52489">
        <ele>210.67</ele>
        <time>2017-01-21T08:55:52Z</time>
      </trkpt>
      <trkpt lat="43.34333" lon="-0.5248">
        <ele>210.19</ele>
        <time>2017-01-21T08:55:54Z</time>
      </trkpt>
      <trkpt lat="43.34329" lon="-0.52475">
        <ele>209.7</ele>
        <time>2017-01-21T08:55:55Z</time>
      </trkpt>
      <trkpt lat="43.34324" lon="-0.5247">
        <ele>209.22</ele>
        <time>2017-01-21T08:55:56Z</time>
      </trkpt>
      <trkpt lat="43.34308" lon="-0.5245">
        <ele>208.74</ele>
        <time>2017-01-21T08:56:00Z</time>
      </trkpt>
      <trkpt lat="43.34305" lon="-0.52445">
        <ele>208.74</ele>
        <time>2017-01-21T08:56:01Z</time>
      </trkpt>
      <trkpt lat="43.34302" lon="-0.5244">
        <ele>208.26</ele>
        <time>2017-01-21T08:56:02Z</time>
      </trkpt>
      <trkpt lat="43.343" lon="-0.52436">
        <ele>208.26</ele>
        <time>2017-01-21T08:56:03Z</time>
      </trkpt>
      <trkpt lat="43.34298" lon="-0.52431">
        <ele>208.74</ele>
        <time>2017-01-21T08:56:04Z</time>
      </trkpt>
      <trkpt lat="43.34286" lon="-0.52398">
        <ele>213.07</ele>
        <time>2017-01-21T08:56:15Z</time>
      </trkpt>
      <trkpt lat="43.34285" lon="-0.52389">
        <ele>215.47</ele>
        <time>2017-01-21T08:56:20Z</time>
      </trkpt>
      <trkpt lat="43.34284" lon="-0.52386">
        <ele>216.43</ele>
        <time>2017-01-21T08:56:21Z</time>
      </trkpt>
      <trkpt lat="43.34284" lon="-0.52383">
        <ele>216.91</ele>
        <time>2017-01-21T08:56:22Z</time>
      </trkpt>
      <trkpt lat="43.3427" lon="-0.52351">
        <ele>219.32</ele>
        <time>2017-01-21T08:56:35Z</time>
      </trkpt>
      <trkpt lat="43.34242" lon="-0.5233">
        <ele>216.91</ele>
        <time>2017-01-21T08:56:48Z</time>
      </trkpt>
      <trkpt lat="43.34211" lon="-0.5232">
        <ele>219.32</ele>
        <time>2017-01-21T08:57:00Z</time>
      </trkpt>
      <trkpt lat="43.34183" lon="-0.52297">
        <ele>220.76</ele>
        <time>2017-01-21T08:57:14Z</time>
      </trkpt>
      <trkpt lat="43.34162" lon="-0.52277">
        <ele>222.2</ele>
        <time>2017-01-21T08:57:29Z</time>
      </trkpt>
      <trkpt lat="43.34135" lon="-0.52264">
        <ele>221.72</ele>
        <time>2017-01-21T08:57:42Z</time>
      </trkpt>
      <trkpt lat="43.34121" lon="-0.52256">
        <ele>221.72</ele>
        <time>2017-01-21T08:57:47Z</time>
      </trkpt>
      <trkpt lat="43.34117" lon="-0.52251">
        <ele>221.72</ele>
        <time>2017-01-21T08:57:48Z</time>
      </trkpt>
      <trkpt lat="43.34109" lon="-0.5224">
        <ele>221.24</ele>
        <time>2017-01-21T08:57:50Z</time>
      </trkpt>
      <trkpt lat="43.3409" lon="-0.52218">
        <ele>219.32</ele>
        <time>2017-01-21T08:57:54Z</time>
      </trkpt>
      <trkpt lat="43.34084" lon="-0.52214">
        <ele>218.84</ele>
        <time>2017-01-21T08:57:55Z</time>
      </trkpt>
      <trkpt lat="43.34079" lon="-0.52211">
        <ele>218.84</ele>
        <time>2017-01-21T08:57:56Z</time>
      </trkpt>
      <trkpt lat="43.34073" lon="-0.52209">
        <ele>218.36</ele>
        <time>2017-01-21T08:57:57Z</time>
      </trkpt>
      <trkpt lat="43.34067" lon="-0.52207">
        <ele>218.36</ele>
        <time>2017-01-21T08:57:58Z</time>
      </trkpt>
      <trkpt lat="43.34062" lon="-0.52204">
        <ele>218.36</ele>
        <time>2017-01-21T08:57:59Z</time>
      </trkpt>
      <trkpt lat="43.34057" lon="-0.522">
        <ele>218.36</ele>
        <time>2017-01-21T08:58:00Z</time>
      </trkpt>
      <trkpt lat="43.34054" lon="-0.52197">
        <ele>218.84</ele>
        <time>2017-01-21T08:58:01Z</time>
      </trkpt>
      <trkpt lat="43.34052" lon="-0.52195">
        <ele>218.84</ele>
        <time>2017-01-21T08:58:02Z</time>
      </trkpt>
      <trkpt lat="43.34049" lon="-0.52193">
        <ele>218.84</ele>
        <time>2017-01-21T08:58:03Z</time>
      </trkpt>
      <trkpt lat="43.34046" lon="-0.52191">
        <ele>218.84</ele>
        <time>2017-01-21T08:58:04Z</time>
      </trkpt>
      <trkpt lat="43.3402" lon="-0.5218">
        <ele>217.88</ele>
        <time>2017-01-21T08:58:12Z</time>
      </trkpt>
      <trkpt lat="43.3399" lon="-0.52163">
        <ele>218.84</ele>
        <time>2017-01-21T08:58:24Z</time>
      </trkpt>
      <trkpt lat="43.33973" lon="-0.52158">
        <ele>219.32</ele>
        <time>2017-01-21T08:58:33Z</time>
      </trkpt>
      <trkpt lat="43.33972" lon="-0.52158">
        <ele>219.32</ele>
        <time>2017-01-21T08:58:34Z</time>
      </trkpt>
      <trkpt lat="43.3397" lon="-0.52157">
        <ele>219.32</ele>
        <time>2017-01-21T08:58:35Z</time>
      </trkpt>
      <trkpt lat="43.33968" lon="-0.52157">
        <ele>219.32</ele>
        <time>2017-01-21T08:58:36Z</time>
      </trkpt>
      <trkpt lat="43.33967" lon="-0.52157">
        <ele>219.32</ele>
        <time>2017-01-21T08:58:37Z</time>
      </trkpt>
      <trkpt lat="43.33944" lon="-0.52153">
        <ele>218.84</ele>
        <time>2017-01-21T08:58:53Z</time>
      </trkpt>
      <trkpt lat="43.33915" lon="-0.52141">
        <ele>220.28</ele>
        <time>2017-01-21T08:59:11Z</time>
      </trkpt>
      <trkpt lat="43.33881" lon="-0.52104">
        <ele>217.4</ele>
        <time>2017-01-21T08:59:25Z</time>
      </trkpt>
      <trkpt lat="43.33867" lon="-0.52085">
        <ele>215.95</ele>
        <time>2017-01-21T08:59:29Z</time>
      </trkpt>
      <trkpt lat="43.33859" lon="-0.52077">
        <ele>214.99</ele>
        <time>2017-01-21T08:59:31Z</time>
      </trkpt>
      <trkpt lat="43.33851" lon="-0.52068">
        <ele>214.51</ele>
        <time>2017-01-21T08:59:33Z</time>
      </trkpt>
      <trkpt lat="43.33847" lon="-0.52064">
        <ele>214.03</ele>
        <time>2017-01-21T08:59:34Z</time>
      </trkpt>
      <trkpt lat="43.33843" lon="-0.52059">
        <ele>214.03</ele>
        <time>2017-01-21T08:59:35Z</time>
      </trkpt>
      <trkpt lat="43.3382" lon="-0.52007">
        <ele>215.47</ele>
        <time>2017-01-21T08:59:47Z</time>
      </trkpt>
      <trkpt lat="43.33817" lon="-0.51953">
        <ele>214.03</ele>
        <time>2017-01-21T08:59:58Z</time>
      </trkpt>
      <trkpt lat="43.33814" lon="-0.51941">
        <ele>214.03</ele>
        <time>2017-01-21T09:00:00Z</time>
      </trkpt>
      <trkpt lat="43.33805" lon="-0.51907">
        <ele>213.55</ele>
        <time>2017-01-21T09:00:11Z</time>
      </trkpt>
      <trkpt lat="43.33797" lon="-0.51893">
        <ele>213.07</ele>
        <time>2017-01-21T09:00:30Z</time>
      </trkpt>
      <trkpt lat="43.33778" lon="-0.51853">
        <ele>212.59</ele>
        <time>2017-01-21T09:00:43Z</time>
      </trkpt>
      <trkpt lat="43.33777" lon="-0.51847">
        <ele>212.59</ele>
        <time>2017-01-21T09:00:51Z</time>
      </trkpt>
      <trkpt lat="43.33776" lon="-0.51841">
        <ele>212.11</ele>
        <time>2017-01-21T09:01:03Z</time>
      </trkpt>
      <trkpt lat="43.33775" lon="-0.51842">
        <ele>212.11</ele>
        <time>2017-01-21T09:01:04Z</time>
      </trkpt>
      <trkpt lat="43.33774" lon="-0.51848">
        <ele>211.63</ele>
        <time>2017-01-21T09:01:06Z</time>
      </trkpt>
      <trkpt lat="43.33774" lon="-0.51851">
        <ele>211.63</ele>
        <time>2017-01-21T09:01:07Z</time>
      </trkpt>
      <trkpt lat="43.33779" lon="-0.51881">
        <ele>209.7</ele>
        <time>2017-01-21T09:01:13Z</time>
      </trkpt>
      <trkpt lat="43.33792" lon="-0.51918">
        <ele>206.82</ele>
        <time>2017-01-21T09:01:19Z</time>
      </trkpt>
      <trkpt lat="43.33793" lon="-0.51926">
        <ele>206.34</ele>
        <time>2017-01-21T09:01:20Z</time>
      </trkpt>
      <trkpt lat="43.33794" lon="-0.51934">
        <ele>205.86</ele>
        <time>2017-01-21T09:01:21Z</time>
      </trkpt>
      <trkpt lat="43.33795" lon="-0.51962">
        <ele>203.94</ele>
        <time>2017-01-21T09:01:24Z</time>
      </trkpt>
      <trkpt lat="43.33792" lon="-0.52081">
        <ele>196.73</ele>
        <time>2017-01-21T09:01:35Z</time>
      </trkpt>
      <trkpt lat="43.33792" lon="-0.52089">
        <ele>195.77</ele>
        <time>2017-01-21T09:01:36Z</time>
      </trkpt>
      <trkpt lat="43.33793" lon="-0.52096">
        <ele>194.8</ele>
        <time>2017-01-21T09:01:37Z</time>
      </trkpt>
      <trkpt lat="43.33821" lon="-0.52202">
        <ele>187.11</ele>
        <time>2017-01-21T09:01:49Z</time>
      </trkpt>
      <trkpt lat="43.33852" lon="-0.52282">
        <ele>181.83</ele>
        <time>2017-01-21T09:01:56Z</time>
      </trkpt>
      <trkpt lat="43.33856" lon="-0.52294">
        <ele>181.35</ele>
        <time>2017-01-21T09:01:57Z</time>
      </trkpt>
      <trkpt lat="43.33864" lon="-0.52324">
        <ele>179.42</ele>
        <time>2017-01-21T09:02:00Z</time>
      </trkpt>
      <trkpt lat="43.33868" lon="-0.52332">
        <ele>178.94</ele>
        <time>2017-01-21T09:02:01Z</time>
      </trkpt>
      <trkpt lat="43.33873" lon="-0.52338">
        <ele>177.98</ele>
        <time>2017-01-21T09:02:02Z</time>
      </trkpt>
      <trkpt lat="43.33879" lon="-0.52344">
        <ele>177.02</ele>
        <time>2017-01-21T09:02:03Z</time>
      </trkpt>
      <trkpt lat="43.33886" lon="-0.52349">
        <ele>176.54</ele>
        <time>2017-01-21T09:02:04Z</time>
      </trkpt>
      <trkpt lat="43.33894" lon="-0.52354">
        <ele>176.54</ele>
        <time>2017-01-21T09:02:05Z</time>
      </trkpt>
      <trkpt lat="43.33916" lon="-0.52369">
        <ele>175.58</ele>
        <time>2017-01-21T09:02:08Z</time>
      </trkpt>
      <trkpt lat="43.33922" lon="-0.52378">
        <ele>175.1</ele>
        <time>2017-01-21T09:02:09Z</time>
      </trkpt>
      <trkpt lat="43.33927" lon="-0.52388">
        <ele>174.62</ele>
        <time>2017-01-21T09:02:10Z</time>
      </trkpt>
      <trkpt lat="43.33931" lon="-0.52398">
        <ele>174.14</ele>
        <time>2017-01-21T09:02:11Z</time>
      </trkpt>
      <trkpt lat="43.33934" lon="-0.52411">
        <ele>173.17</ele>
        <time>2017-01-21T09:02:12Z</time>
      </trkpt>
      <trkpt lat="43.33937" lon="-0.52423">
        <ele>172.69</ele>
        <time>2017-01-21T09:02:13Z</time>
      </trkpt>
      <trkpt lat="43.33945" lon="-0.52474">
        <ele>168.37</ele>
        <time>2017-01-21T09:02:20Z</time>
      </trkpt>
      <trkpt lat="43.33945" lon="-0.5248">
        <ele>167.89</ele>
        <time>2017-01-21T09:02:21Z</time>
      </trkpt>
      <trkpt lat="43.33943" lon="-0.52486">
        <ele>167.41</ele>
        <time>2017-01-21T09:02:22Z</time>
      </trkpt>
      <trkpt lat="43.33941" lon="-0.52491">
        <ele>166.93</ele>
        <time>2017-01-21T09:02:23Z</time>
      </trkpt>
      <trkpt lat="43.33937" lon="-0.52496">
        <ele>166.93</ele>
        <time>2017-01-21T09:02:24Z</time>
      </trkpt>
      <trkpt lat="43.33933" lon="-0.525">
        <ele>166.45</ele>
        <time>2017-01-21T09:02:25Z</time>
      </trkpt>
      <trkpt lat="43.33928" lon="-0.52502">
        <ele>165.96</ele>
        <time>2017-01-21T09:02:26Z</time>
      </trkpt>
      <trkpt lat="43.33921" lon="-0.52503">
        <ele>165.48</ele>
        <time>2017-01-21T09:02:27Z</time>
      </trkpt>
      <trkpt lat="43.33916" lon="-0.52504">
        <ele>165.48</ele>
        <time>2017-01-21T09:02:28Z</time>
      </trkpt>
      <trkpt lat="43.33886" lon="-0.5251">
        <ele>165</ele>
        <time>2017-01-21T09:02:36Z</time>
      </trkpt>
      <trkpt lat="43.33872" lon="-0.52515">
        <ele>165.48</ele>
        <time>2017-01-21T09:02:39Z</time>
      </trkpt>
      <trkpt lat="43.33812" lon="-0.52561">
        <ele>159.72</ele>
        <time>2017-01-21T09:02:49Z</time>
      </trkpt>
      <trkpt lat="43.33784" lon="-0.52575">
        <ele>157.31</ele>
        <time>2017-01-21T09:02:53Z</time>
      </trkpt>
      <trkpt lat="43.33777" lon="-0.52581">
        <ele>156.35</ele>
        <time>2017-01-21T09:02:54Z</time>
      </trkpt>
      <trkpt lat="43.33771" lon="-0.52588">
        <ele>155.87</ele>
        <time>2017-01-21T09:02:55Z</time>
      </trkpt>
      <trkpt lat="43.33765" lon="-0.52597">
        <ele>154.91</ele>
        <time>2017-01-21T09:02:56Z</time>
      </trkpt>
      <trkpt lat="43.3376" lon="-0.52607">
        <ele>154.43</ele>
        <time>2017-01-21T09:02:57Z</time>
      </trkpt>
      <trkpt lat="43.33756" lon="-0.52617">
        <ele>153.95</ele>
        <time>2017-01-21T09:02:58Z</time>
      </trkpt>
      <trkpt lat="43.33752" lon="-0.52627">
        <ele>153.47</ele>
        <time>2017-01-21T09:02:59Z</time>
      </trkpt>
      <trkpt lat="43.33694" lon="-0.52808">
        <ele>147.22</ele>
        <time>2017-01-21T09:03:15Z</time>
      </trkpt>
      <trkpt lat="43.33648" lon="-0.52961">
        <ele>141.93</ele>
        <time>2017-01-21T09:03:29Z</time>
      </trkpt>
      <trkpt lat="43.33603" lon="-0.53053">
        <ele>139.05</ele>
        <time>2017-01-21T09:03:41Z</time>
      </trkpt>
      <trkpt lat="43.33534" lon="-0.53139">
        <ele>136.16</ele>
        <time>2017-01-21T09:03:55Z</time>
      </trkpt>
      <trkpt lat="43.33479" lon="-0.53199">
        <ele>133.76</ele>
        <time>2017-01-21T09:04:09Z</time>
      </trkpt>
      <trkpt lat="43.33476" lon="-0.53196">
        <ele>133.76</ele>
        <time>2017-01-21T09:04:17Z</time>
      </trkpt>
      <trkpt lat="43.33477" lon="-0.53198">
        <ele>132.8</ele>
        <time>2017-01-21T09:04:47Z</time>
      </trkpt>
      <trkpt lat="43.33477" lon="-0.53202">
        <ele>133.76</ele>
        <time>2017-01-21T09:05:02Z</time>
      </trkpt>
      <trkpt lat="43.33477" lon="-0.53204">
        <ele>133.76</ele>
        <time>2017-01-21T09:05:03Z</time>
      </trkpt>
      <trkpt lat="43.33477" lon="-0.53209">
        <ele>133.76</ele>
        <time>2017-01-21T09:05:05Z</time>
      </trkpt>
      <trkpt lat="43.33476" lon="-0.53211">
        <ele>133.76</ele>
        <time>2017-01-21T09:05:06Z</time>
      </trkpt>
      <trkpt lat="43.33461" lon="-0.5324">
        <ele>133.28</ele>
        <time>2017-01-21T09:05:15Z</time>
      </trkpt>
      <trkpt lat="43.33461" lon="-0.53243">
        <ele>133.28</ele>
        <time>2017-01-21T09:05:16Z</time>
      </trkpt>
      <trkpt lat="43.33462" lon="-0.53245">
        <ele>133.28</ele>
        <time>2017-01-21T09:05:17Z</time>
      </trkpt>
      <trkpt lat="43.33462" lon="-0.53246">
        <ele>133.28</ele>
        <time>2017-01-21T09:05:18Z</time>
      </trkpt>
      <trkpt lat="43.33463" lon="-0.53248">
        <ele>133.76</ele>
        <time>2017-01-21T09:05:19Z</time>
      </trkpt>
      <trkpt lat="43.33463" lon="-0.5325">
        <ele>133.76</ele>
        <time>2017-01-21T09:05:20Z</time>
      </trkpt>
      <trkpt lat="43.33463" lon="-0.53251">
        <ele>133.76</ele>
        <time>2017-01-21T09:05:21Z</time>
      </trkpt>
      <trkpt lat="43.33463" lon="-0.53253">
        <ele>134.24</ele>
        <time>2017-01-21T09:05:22Z</time>
      </trkpt>
      <trkpt lat="43.33464" lon="-0.53254">
        <ele>134.24</ele>
        <time>2017-01-21T09:05:23Z</time>
      </trkpt>
      <trkpt lat="43.33464" lon="-0.53256">
        <ele>134.24</ele>
        <time>2017-01-21T09:05:24Z</time>
      </trkpt>
      <trkpt lat="43.33464" lon="-0.53258">
        <ele>134.24</ele>
        <time>2017-01-21T09:05:25Z</time>
      </trkpt>
      <trkpt lat="43.33465" lon="-0.53259">
        <ele>134.72</ele>
        <time>2017-01-21T09:05:26Z</time>
      </trkpt>
      <trkpt lat="43.33469" lon="-0.53267">
        <ele>135.2</ele>
        <time>2017-01-21T09:05:38Z</time>
      </trkpt>
      <trkpt lat="43.33466" lon="-0.53258">
        <ele>134.24</ele>
        <time>2017-01-21T09:05:42Z</time>
      </trkpt>
      <trkpt lat="43.33465" lon="-0.53255">
        <ele>133.76</ele>
        <time>2017-01-21T09:05:43Z</time>
      </trkpt>
      <trkpt lat="43.33465" lon="-0.53252">
        <ele>133.76</ele>
        <time>2017-01-21T09:05:44Z</time>
      </trkpt>
      <trkpt lat="43.33466" lon="-0.53249">
        <ele>134.24</ele>
        <time>2017-01-21T09:05:57Z</time>
      </trkpt>
      <trkpt lat="43.33465" lon="-0.5325">
        <ele>136.64</ele>
        <time>2017-01-21T09:06:25Z</time>
      </trkpt>
      <trkpt lat="43.33465" lon="-0.53248">
        <ele>136.16</ele>
        <time>2017-01-21T09:06:51Z</time>
      </trkpt>
      <trkpt lat="43.33469" lon="-0.53247">
        <ele>135.2</ele>
        <time>2017-01-21T09:07:13Z</time>
      </trkpt>
      <trkpt lat="43.3347" lon="-0.53247">
        <ele>135.2</ele>
        <time>2017-01-21T09:07:14Z</time>
      </trkpt>
      <trkpt lat="43.33474" lon="-0.53244">
        <ele>135.68</ele>
        <time>2017-01-21T09:07:17Z</time>
      </trkpt>
      <trkpt lat="43.33475" lon="-0.53243">
        <ele>135.68</ele>
        <time>2017-01-21T09:07:18Z</time>
      </trkpt>
      <trkpt lat="43.33476" lon="-0.53241">
        <ele>136.16</ele>
        <time>2017-01-21T09:07:19Z</time>
      </trkpt>
      <trkpt lat="43.33477" lon="-0.5324">
        <ele>136.64</ele>
        <time>2017-01-21T09:07:20Z</time>
      </trkpt>
      <trkpt lat="43.33478" lon="-0.53239">
        <ele>137.13</ele>
        <time>2017-01-21T09:07:21Z</time>
      </trkpt>
      <trkpt lat="43.33499" lon="-0.53229">
        <ele>141.45</ele>
        <time>2017-01-21T09:07:36Z</time>
      </trkpt>
      <trkpt lat="43.33525" lon="-0.53235">
        <ele>144.34</ele>
        <time>2017-01-21T09:07:53Z</time>
      </trkpt>
      <trkpt lat="43.33529" lon="-0.53234">
        <ele>145.78</ele>
        <time>2017-01-21T09:07:56Z</time>
      </trkpt>
      <trkpt lat="43.33531" lon="-0.53235">
        <ele>146.26</ele>
        <time>2017-01-21T09:07:57Z</time>
      </trkpt>
      <trkpt lat="43.33532" lon="-0.53235">
        <ele>146.74</ele>
        <time>2017-01-21T09:07:58Z</time>
      </trkpt>
      <trkpt lat="43.33534" lon="-0.53235">
        <ele>146.74</ele>
        <time>2017-01-21T09:07:59Z</time>
      </trkpt>
      <trkpt lat="43.33535" lon="-0.53235">
        <ele>146.74</ele>
        <time>2017-01-21T09:08:00Z</time>
      </trkpt>
      <trkpt lat="43.33537" lon="-0.53235">
        <ele>147.22</ele>
        <time>2017-01-21T09:08:01Z</time>
      </trkpt>
      <trkpt lat="43.33557" lon="-0.53237">
        <ele>147.7</ele>
        <time>2017-01-21T09:08:15Z</time>
      </trkpt>
      <trkpt lat="43.33578" lon="-0.53242">
        <ele>150.58</ele>
        <time>2017-01-21T09:08:29Z</time>
      </trkpt>
      <trkpt lat="43.33593" lon="-0.53241">
        <ele>152.99</ele>
        <time>2017-01-21T09:08:39Z</time>
      </trkpt>
      <trkpt lat="43.33608" lon="-0.53246">
        <ele>157.31</ele>
        <time>2017-01-21T09:08:51Z</time>
      </trkpt>
      <trkpt lat="43.33613" lon="-0.53248">
        <ele>157.31</ele>
        <time>2017-01-21T09:08:55Z</time>
      </trkpt>
      <trkpt lat="43.33621" lon="-0.53249">
        <ele>158.27</ele>
        <time>2017-01-21T09:09:02Z</time>
      </trkpt>
      <trkpt lat="43.33622" lon="-0.53249">
        <ele>158.27</ele>
        <time>2017-01-21T09:09:03Z</time>
      </trkpt>
      <trkpt lat="43.33624" lon="-0.5325">
        <ele>158.75</ele>
        <time>2017-01-21T09:09:04Z</time>
      </trkpt>
      <trkpt lat="43.33644" lon="-0.53258">
        <ele>160.68</ele>
        <time>2017-01-21T09:09:19Z</time>
      </trkpt>
      <trkpt lat="43.33667" lon="-0.53276">
        <ele>161.16</ele>
        <time>2017-01-21T09:09:35Z</time>
      </trkpt>
      <trkpt lat="43.33691" lon="-0.53302">
        <ele>161.16</ele>
        <time>2017-01-21T09:09:54Z</time>
      </trkpt>
      <trkpt lat="43.33716" lon="-0.53314">
        <ele>161.16</ele>
        <time>2017-01-21T09:10:11Z</time>
      </trkpt>
      <trkpt lat="43.33735" lon="-0.53309">
        <ele>164.52</ele>
        <time>2017-01-21T09:10:25Z</time>
      </trkpt>
      <trkpt lat="43.3374" lon="-0.53308">
        <ele>165.48</ele>
        <time>2017-01-21T09:10:29Z</time>
      </trkpt>
      <trkpt lat="43.33741" lon="-0.53308">
        <ele>165.96</ele>
        <time>2017-01-21T09:10:30Z</time>
      </trkpt>
      <trkpt lat="43.33743" lon="-0.53307">
        <ele>166.93</ele>
        <time>2017-01-21T09:10:31Z</time>
      </trkpt>
      <trkpt lat="43.33744" lon="-0.53307">
        <ele>166.93</ele>
        <time>2017-01-21T09:10:32Z</time>
      </trkpt>
      <trkpt lat="43.33745" lon="-0.53308">
        <ele>166.93</ele>
        <time>2017-01-21T09:10:33Z</time>
      </trkpt>
      <trkpt lat="43.33747" lon="-0.53308">
        <ele>167.41</ele>
        <time>2017-01-21T09:10:34Z</time>
      </trkpt>
      <trkpt lat="43.33764" lon="-0.53309">
        <ele>169.81</ele>
        <time>2017-01-21T09:10:46Z</time>
      </trkpt>
      <trkpt lat="43.33782" lon="-0.53311">
        <ele>171.73</ele>
        <time>2017-01-21T09:10:59Z</time>
      </trkpt>
      <trkpt lat="43.33802" lon="-0.5331">
        <ele>174.62</ele>
        <time>2017-01-21T09:11:13Z</time>
      </trkpt>
      <trkpt lat="43.33815" lon="-0.53309">
        <ele>177.02</ele>
        <time>2017-01-21T09:11:24Z</time>
      </trkpt>
      <trkpt lat="43.33833" lon="-0.53309">
        <ele>180.38</ele>
        <time>2017-01-21T09:11:37Z</time>
      </trkpt>
      <trkpt lat="43.33853" lon="-0.53309">
        <ele>185.19</ele>
        <time>2017-01-21T09:11:52Z</time>
      </trkpt>
      <trkpt lat="43.33877" lon="-0.53311">
        <ele>184.71</ele>
        <time>2017-01-21T09:12:07Z</time>
      </trkpt>
      <trkpt lat="43.33894" lon="-0.53311">
        <ele>185.67</ele>
        <time>2017-01-21T09:12:19Z</time>
      </trkpt>
      <trkpt lat="43.33895" lon="-0.53311">
        <ele>185.67</ele>
        <time>2017-01-21T09:12:20Z</time>
      </trkpt>
      <trkpt lat="43.33897" lon="-0.53312">
        <ele>186.15</ele>
        <time>2017-01-21T09:12:21Z</time>
      </trkpt>
      <trkpt lat="43.33898" lon="-0.53313">
        <ele>186.15</ele>
        <time>2017-01-21T09:12:22Z</time>
      </trkpt>
      <trkpt lat="43.33917" lon="-0.53319">
        <ele>185.67</ele>
        <time>2017-01-21T09:12:35Z</time>
      </trkpt>
      <trkpt lat="43.33943" lon="-0.53321">
        <ele>187.11</ele>
        <time>2017-01-21T09:12:51Z</time>
      </trkpt>
      <trkpt lat="43.33949" lon="-0.53318">
        <ele>188.08</ele>
        <time>2017-01-21T09:12:56Z</time>
      </trkpt>
      <trkpt lat="43.33963" lon="-0.53313">
        <ele>189.52</ele>
        <time>2017-01-21T09:13:07Z</time>
      </trkpt>
      <trkpt lat="43.33965" lon="-0.53313">
        <ele>189.52</ele>
        <time>2017-01-21T09:13:08Z</time>
      </trkpt>
      <trkpt lat="43.33966" lon="-0.53313">
        <ele>190</ele>
        <time>2017-01-21T09:13:09Z</time>
      </trkpt>
      <trkpt lat="43.33987" lon="-0.53318">
        <ele>195.28</ele>
        <time>2017-01-21T09:13:23Z</time>
      </trkpt>
      <trkpt lat="43.3399" lon="-0.53319">
        <ele>196.25</ele>
        <time>2017-01-21T09:13:25Z</time>
      </trkpt>
      <trkpt lat="43.33992" lon="-0.5332">
        <ele>196.25</ele>
        <time>2017-01-21T09:13:26Z</time>
      </trkpt>
      <trkpt lat="43.33993" lon="-0.5332">
        <ele>196.73</ele>
        <time>2017-01-21T09:13:27Z</time>
      </trkpt>
      <trkpt lat="43.33995" lon="-0.5332">
        <ele>196.73</ele>
        <time>2017-01-21T09:13:28Z</time>
      </trkpt>
      <trkpt lat="43.33996" lon="-0.5332">
        <ele>196.25</ele>
        <time>2017-01-21T09:13:29Z</time>
      </trkpt>
      <trkpt lat="43.34013" lon="-0.5332">
        <ele>200.09</ele>
        <time>2017-01-21T09:13:41Z</time>
      </trkpt>
      <trkpt lat="43.34035" lon="-0.53317">
        <ele>205.86</ele>
        <time>2017-01-21T09:13:56Z</time>
      </trkpt>
      <trkpt lat="43.34053" lon="-0.53304">
        <ele>211.15</ele>
        <time>2017-01-21T09:14:10Z</time>
      </trkpt>
      <trkpt lat="43.3407" lon="-0.53288">
        <ele>216.43</ele>
        <time>2017-01-21T09:14:24Z</time>
      </trkpt>
      <trkpt lat="43.34089" lon="-0.53277">
        <ele>219.32</ele>
        <time>2017-01-21T09:14:39Z</time>
      </trkpt>
      <trkpt lat="43.34097" lon="-0.53269">
        <ele>219.32</ele>
        <time>2017-01-21T09:14:46Z</time>
      </trkpt>
      <trkpt lat="43.34097" lon="-0.53268">
        <ele>219.32</ele>
        <time>2017-01-21T09:14:47Z</time>
      </trkpt>
      <trkpt lat="43.34112" lon="-0.53255">
        <ele>221.24</ele>
        <time>2017-01-21T09:15:00Z</time>
      </trkpt>
      <trkpt lat="43.34113" lon="-0.53254">
        <ele>221.24</ele>
        <time>2017-01-21T09:15:01Z</time>
      </trkpt>
      <trkpt lat="43.34127" lon="-0.5323">
        <ele>218.84</ele>
        <time>2017-01-21T09:15:16Z</time>
      </trkpt>
      <trkpt lat="43.34136" lon="-0.53208">
        <ele>218.84</ele>
        <time>2017-01-21T09:15:30Z</time>
      </trkpt>
      <trkpt lat="43.3414" lon="-0.5319">
        <ele>218.84</ele>
        <time>2017-01-21T09:15:40Z</time>
      </trkpt>
      <trkpt lat="43.34141" lon="-0.53187">
        <ele>218.84</ele>
        <time>2017-01-21T09:15:42Z</time>
      </trkpt>
      <trkpt lat="43.34143" lon="-0.53187">
        <ele>218.84</ele>
        <time>2017-01-21T09:15:43Z</time>
      </trkpt>
      <trkpt lat="43.34144" lon="-0.53186">
        <ele>218.84</ele>
        <time>2017-01-21T09:15:44Z</time>
      </trkpt>
      <trkpt lat="43.3415" lon="-0.53185">
        <ele>218.84</ele>
        <time>2017-01-21T09:15:49Z</time>
      </trkpt>
      <trkpt lat="43.34151" lon="-0.53185">
        <ele>218.36</ele>
        <time>2017-01-21T09:15:50Z</time>
      </trkpt>
      <trkpt lat="43.34152" lon="-0.53185">
        <ele>218.36</ele>
        <time>2017-01-21T09:15:51Z</time>
      </trkpt>
      <trkpt lat="43.34153" lon="-0.53185">
        <ele>218.36</ele>
        <time>2017-01-21T09:15:52Z</time>
      </trkpt>
      <trkpt lat="43.34154" lon="-0.53185">
        <ele>218.36</ele>
        <time>2017-01-21T09:15:53Z</time>
      </trkpt>
      <trkpt lat="43.34173" lon="-0.53182">
        <ele>219.32</ele>
        <time>2017-01-21T09:16:08Z</time>
      </trkpt>
      <trkpt lat="43.34194" lon="-0.53162">
        <ele>220.28</ele>
        <time>2017-01-21T09:16:21Z</time>
      </trkpt>
      <trkpt lat="43.34221" lon="-0.53129">
        <ele>220.76</ele>
        <time>2017-01-21T09:16:32Z</time>
      </trkpt>
      <trkpt lat="43.34228" lon="-0.53123">
        <ele>221.24</ele>
        <time>2017-01-21T09:16:41Z</time>
      </trkpt>
      <trkpt lat="43.34232" lon="-0.53117">
        <ele>215.95</ele>
        <time>2017-01-21T09:17:09Z</time>
      </trkpt>
      <trkpt lat="43.34233" lon="-0.53117">
        <ele>214.99</ele>
        <time>2017-01-21T09:17:29Z</time>
      </trkpt>
      <trkpt lat="43.34228" lon="-0.53116">
        <ele>220.28</ele>
        <time>2017-01-21T09:18:03Z</time>
      </trkpt>
      <trkpt lat="43.34228" lon="-0.53118">
        <ele>221.72</ele>
        <time>2017-01-21T09:18:42Z</time>
      </trkpt>
      <trkpt lat="43.34227" lon="-0.53117">
        <ele>221.72</ele>
        <time>2017-01-21T09:19:19Z</time>
      </trkpt>
      <trkpt lat="43.34223" lon="-0.53112">
        <ele>228.93</ele>
        <time>2017-01-21T09:19:58Z</time>
      </trkpt>
      <trkpt lat="43.34226" lon="-0.53114">
        <ele>231.33</ele>
        <time>2017-01-21T09:20:37Z</time>
      </trkpt>
      <trkpt lat="43.34228" lon="-0.53116">
        <ele>229.41</ele>
        <time>2017-01-21T09:21:09Z</time>
      </trkpt>
      <trkpt lat="43.34222" lon="-0.53117">
        <ele>236.62</ele>
        <time>2017-01-21T09:21:42Z</time>
      </trkpt>
      <trkpt lat="43.34217" lon="-0.5311">
        <ele>233.74</ele>
        <time>2017-01-21T09:22:19Z</time>
      </trkpt>
      <trkpt lat="43.34222" lon="-0.53116">
        <ele>238.54</ele>
        <time>2017-01-21T09:22:49Z</time>
      </trkpt>
      <trkpt lat="43.34225" lon="-0.53115">
        <ele>234.22</ele>
        <time>2017-01-21T09:23:24Z</time>
      </trkpt>
      <trkpt lat="43.34226" lon="-0.53112">
        <ele>230.37</ele>
        <time>2017-01-21T09:24:07Z</time>
      </trkpt>
      <trkpt lat="43.34235" lon="-0.53117">
        <ele>228.93</ele>
        <time>2017-01-21T09:24:34Z</time>
      </trkpt>
      <trkpt lat="43.3424" lon="-0.53111">
        <ele>228.93</ele>
        <time>2017-01-21T09:24:38Z</time>
      </trkpt>
      <trkpt lat="43.34242" lon="-0.53109">
        <ele>228.93</ele>
        <time>2017-01-21T09:24:39Z</time>
      </trkpt>
      <trkpt lat="43.34244" lon="-0.53107">
        <ele>228.93</ele>
        <time>2017-01-21T09:24:40Z</time>
      </trkpt>
      <trkpt lat="43.34245" lon="-0.53105">
        <ele>228.45</ele>
        <time>2017-01-21T09:24:41Z</time>
      </trkpt>
      <trkpt lat="43.34247" lon="-0.53103">
        <ele>228.45</ele>
        <time>2017-01-21T09:24:42Z</time>
      </trkpt>
      <trkpt lat="43.34249" lon="-0.531">
        <ele>228.45</ele>
        <time>2017-01-21T09:24:43Z</time>
      </trkpt>
      <trkpt lat="43.34267" lon="-0.53062">
        <ele>226.53</ele>
        <time>2017-01-21T09:24:55Z</time>
      </trkpt>
      <trkpt lat="43.34287" lon="-0.53035">
        <ele>224.12</ele>
        <time>2017-01-21T09:25:08Z</time>
      </trkpt>
      <trkpt lat="43.34311" lon="-0.53014">
        <ele>223.16</ele>
        <time>2017-01-21T09:25:17Z</time>
      </trkpt>
      <trkpt lat="43.34316" lon="-0.53012">
        <ele>223.16</ele>
        <time>2017-01-21T09:25:18Z</time>
      </trkpt>
      <trkpt lat="43.34321" lon="-0.53009">
        <ele>222.68</ele>
        <time>2017-01-21T09:25:19Z</time>
      </trkpt>
      <trkpt lat="43.34339" lon="-0.53002">
        <ele>224.12</ele>
        <time>2017-01-21T09:25:23Z</time>
      </trkpt>
      <trkpt lat="43.34365" lon="-0.52997">
        <ele>226.05</ele>
        <time>2017-01-21T09:25:28Z</time>
      </trkpt>
      <trkpt lat="43.3437" lon="-0.52999">
        <ele>226.53</ele>
        <time>2017-01-21T09:25:29Z</time>
      </trkpt>
      <trkpt lat="43.34375" lon="-0.53001">
        <ele>226.53</ele>
        <time>2017-01-21T09:25:30Z</time>
      </trkpt>
      <trkpt lat="43.3438" lon="-0.53005">
        <ele>226.53</ele>
        <time>2017-01-21T09:25:31Z</time>
      </trkpt>
      <trkpt lat="43.34383" lon="-0.53008">
        <ele>226.53</ele>
        <time>2017-01-21T09:25:32Z</time>
      </trkpt>
      <trkpt lat="43.34386" lon="-0.53011">
        <ele>227.01</ele>
        <time>2017-01-21T09:25:33Z</time>
      </trkpt>
      <trkpt lat="43.34406" lon="-0.53038">
        <ele>229.89</ele>
        <time>2017-01-21T09:25:45Z</time>
      </trkpt>
      <trkpt lat="43.34421" lon="-0.5308">
        <ele>227.49</ele>
        <time>2017-01-21T09:26:00Z</time>
      </trkpt>
      <trkpt lat="43.34424" lon="-0.53121">
        <ele>224.61</ele>
        <time>2017-01-21T09:26:12Z</time>
      </trkpt>
      <trkpt lat="43.34424" lon="-0.5314">
        <ele>224.61</ele>
        <time>2017-01-21T09:26:16Z</time>
      </trkpt>
      <trkpt lat="43.34424" lon="-0.53147">
        <ele>224.61</ele>
        <time>2017-01-21T09:26:17Z</time>
      </trkpt>
      <trkpt lat="43.34428" lon="-0.5318">
        <ele>223.64</ele>
        <time>2017-01-21T09:26:21Z</time>
      </trkpt>
      <trkpt lat="43.34448" lon="-0.53241">
        <ele>222.68</ele>
        <time>2017-01-21T09:26:31Z</time>
      </trkpt>
      <trkpt lat="43.3447" lon="-0.5329">
        <ele>220.76</ele>
        <time>2017-01-21T09:26:41Z</time>
      </trkpt>
      <trkpt lat="43.3449" lon="-0.53346">
        <ele>217.88</ele>
        <time>2017-01-21T09:26:54Z</time>
      </trkpt>
      <trkpt lat="43.34492" lon="-0.53376">
        <ele>214.99</ele>
        <time>2017-01-21T09:26:58Z</time>
      </trkpt>
      <trkpt lat="43.34494" lon="-0.53384">
        <ele>214.03</ele>
        <time>2017-01-21T09:26:59Z</time>
      </trkpt>
      <trkpt lat="43.34496" lon="-0.53392">
        <ele>213.55</ele>
        <time>2017-01-21T09:27:00Z</time>
      </trkpt>
      <trkpt lat="43.34512" lon="-0.53437">
        <ele>210.19</ele>
        <time>2017-01-21T09:27:06Z</time>
      </trkpt>
      <trkpt lat="43.34529" lon="-0.53487">
        <ele>209.22</ele>
        <time>2017-01-21T09:27:15Z</time>
      </trkpt>
      <trkpt lat="43.34531" lon="-0.5354">
        <ele>210.67</ele>
        <time>2017-01-21T09:27:25Z</time>
      </trkpt>
      <trkpt lat="43.34532" lon="-0.536">
        <ele>213.55</ele>
        <time>2017-01-21T09:27:37Z</time>
      </trkpt>
      <trkpt lat="43.34532" lon="-0.53661">
        <ele>213.07</ele>
        <time>2017-01-21T09:27:48Z</time>
      </trkpt>
      <trkpt lat="43.34529" lon="-0.53684">
        <ele>212.59</ele>
        <time>2017-01-21T09:27:51Z</time>
      </trkpt>
      <trkpt lat="43.34527" lon="-0.53715">
        <ele>211.15</ele>
        <time>2017-01-21T09:27:55Z</time>
      </trkpt>
      <trkpt lat="43.34526" lon="-0.53732">
        <ele>210.19</ele>
        <time>2017-01-21T09:27:57Z</time>
      </trkpt>
      <trkpt lat="43.34525" lon="-0.5377">
        <ele>208.26</ele>
        <time>2017-01-21T09:28:01Z</time>
      </trkpt>
      <trkpt lat="43.34523" lon="-0.5378">
        <ele>207.78</ele>
        <time>2017-01-21T09:28:02Z</time>
      </trkpt>
      <trkpt lat="43.3451" lon="-0.53844">
        <ele>206.34</ele>
        <time>2017-01-21T09:28:09Z</time>
      </trkpt>
      <trkpt lat="43.3451" lon="-0.53852">
        <ele>205.86</ele>
        <time>2017-01-21T09:28:10Z</time>
      </trkpt>
      <trkpt lat="43.34511" lon="-0.53859">
        <ele>205.86</ele>
        <time>2017-01-21T09:28:11Z</time>
      </trkpt>
      <trkpt lat="43.34515" lon="-0.5388">
        <ele>205.86</ele>
        <time>2017-01-21T09:28:14Z</time>
      </trkpt>
      <trkpt lat="43.34526" lon="-0.53946">
        <ele>201.53</ele>
        <time>2017-01-21T09:28:21Z</time>
      </trkpt>
      <trkpt lat="43.34527" lon="-0.53954">
        <ele>201.05</ele>
        <time>2017-01-21T09:28:22Z</time>
      </trkpt>
      <trkpt lat="43.34527" lon="-0.53961">
        <ele>200.09</ele>
        <time>2017-01-21T09:28:23Z</time>
      </trkpt>
      <trkpt lat="43.34528" lon="-0.53968">
        <ele>199.61</ele>
        <time>2017-01-21T09:28:24Z</time>
      </trkpt>
      <trkpt lat="43.34528" lon="-0.53975">
        <ele>199.13</ele>
        <time>2017-01-21T09:28:25Z</time>
      </trkpt>
      <trkpt lat="43.34527" lon="-0.53983">
        <ele>198.65</ele>
        <time>2017-01-21T09:28:26Z</time>
      </trkpt>
      <trkpt lat="43.34525" lon="-0.53991">
        <ele>198.17</ele>
        <time>2017-01-21T09:28:27Z</time>
      </trkpt>
      <trkpt lat="43.34523" lon="-0.53998">
        <ele>197.69</ele>
        <time>2017-01-21T09:28:28Z</time>
      </trkpt>
      <trkpt lat="43.3452" lon="-0.54006">
        <ele>197.21</ele>
        <time>2017-01-21T09:28:29Z</time>
      </trkpt>
      <trkpt lat="43.34516" lon="-0.54013">
        <ele>196.25</ele>
        <time>2017-01-21T09:28:30Z</time>
      </trkpt>
      <trkpt lat="43.34509" lon="-0.54027">
        <ele>194.32</ele>
        <time>2017-01-21T09:28:32Z</time>
      </trkpt>
      <trkpt lat="43.34505" lon="-0.54033">
        <ele>193.36</ele>
        <time>2017-01-21T09:28:33Z</time>
      </trkpt>
      <trkpt lat="43.34499" lon="-0.54039">
        <ele>192.4</ele>
        <time>2017-01-21T09:28:34Z</time>
      </trkpt>
      <trkpt lat="43.34464" lon="-0.54063">
        <ele>187.11</ele>
        <time>2017-01-21T09:28:40Z</time>
      </trkpt>
      <trkpt lat="43.3446" lon="-0.54064">
        <ele>186.63</ele>
        <time>2017-01-21T09:28:41Z</time>
      </trkpt>
      <trkpt lat="43.34457" lon="-0.54065">
        <ele>185.67</ele>
        <time>2017-01-21T09:28:42Z</time>
      </trkpt>
      <trkpt lat="43.34455" lon="-0.54069">
        <ele>185.19</ele>
        <time>2017-01-21T09:28:43Z</time>
      </trkpt>
      <trkpt lat="43.34455" lon="-0.54073">
        <ele>184.71</ele>
        <time>2017-01-21T09:28:44Z</time>
      </trkpt>
      <trkpt lat="43.34457" lon="-0.54077">
        <ele>183.75</ele>
        <time>2017-01-21T09:28:45Z</time>
      </trkpt>
      <trkpt lat="43.3446" lon="-0.54081">
        <ele>182.79</ele>
        <time>2017-01-21T09:28:46Z</time>
      </trkpt>
      <trkpt lat="43.34464" lon="-0.54086">
        <ele>181.83</ele>
        <time>2017-01-21T09:28:47Z</time>
      </trkpt>
      <trkpt lat="43.34468" lon="-0.5409">
        <ele>181.35</ele>
        <time>2017-01-21T09:28:48Z</time>
      </trkpt>
      <trkpt lat="43.3449" lon="-0.54109">
        <ele>177.98</ele>
        <time>2017-01-21T09:28:52Z</time>
      </trkpt>
      <trkpt lat="43.34496" lon="-0.54112">
        <ele>177.5</ele>
        <time>2017-01-21T09:28:53Z</time>
      </trkpt>
      <trkpt lat="43.34503" lon="-0.54115">
        <ele>177.02</ele>
        <time>2017-01-21T09:28:54Z</time>
      </trkpt>
      <trkpt lat="43.34509" lon="-0.54118">
        <ele>176.54</ele>
        <time>2017-01-21T09:28:55Z</time>
      </trkpt>
      <trkpt lat="43.34516" lon="-0.54121">
        <ele>176.06</ele>
        <time>2017-01-21T09:28:56Z</time>
      </trkpt>
      <trkpt lat="43.34522" lon="-0.54123">
        <ele>176.06</ele>
        <time>2017-01-21T09:28:57Z</time>
      </trkpt>
      <trkpt lat="43.3454" lon="-0.54133">
        <ele>174.62</ele>
        <time>2017-01-21T09:29:00Z</time>
      </trkpt>
      <trkpt lat="43.34547" lon="-0.54138">
        <ele>174.14</ele>
        <time>2017-01-21T09:29:01Z</time>
      </trkpt>
      <trkpt lat="43.34574" lon="-0.54165">
        <ele>172.21</ele>
        <time>2017-01-21T09:29:06Z</time>
      </trkpt>
      <trkpt lat="43.34577" lon="-0.54169">
        <ele>171.73</ele>
        <time>2017-01-21T09:29:07Z</time>
      </trkpt>
      <trkpt lat="43.34578" lon="-0.54173">
        <ele>171.73</ele>
        <time>2017-01-21T09:29:08Z</time>
      </trkpt>
      <trkpt lat="43.34578" lon="-0.54178">
        <ele>171.25</ele>
        <time>2017-01-21T09:29:09Z</time>
      </trkpt>
      <trkpt lat="43.34577" lon="-0.54183">
        <ele>171.25</ele>
        <time>2017-01-21T09:29:10Z</time>
      </trkpt>
      <trkpt lat="43.34574" lon="-0.54187">
        <ele>170.77</ele>
        <time>2017-01-21T09:29:11Z</time>
      </trkpt>
      <trkpt lat="43.34572" lon="-0.54191">
        <ele>170.29</ele>
        <time>2017-01-21T09:29:12Z</time>
      </trkpt>
      <trkpt lat="43.34568" lon="-0.54195">
        <ele>169.81</ele>
        <time>2017-01-21T09:29:13Z</time>
      </trkpt>
      <trkpt lat="43.34558" lon="-0.54211">
        <ele>168.37</ele>
        <time>2017-01-21T09:29:16Z</time>
      </trkpt>
      <trkpt lat="43.34557" lon="-0.54215">
        <ele>167.89</ele>
        <time>2017-01-21T09:29:17Z</time>
      </trkpt>
      <trkpt lat="43.34555" lon="-0.5422">
        <ele>167.89</ele>
        <time>2017-01-21T09:29:18Z</time>
      </trkpt>
      <trkpt lat="43.34552" lon="-0.54231">
        <ele>166.93</ele>
        <time>2017-01-21T09:29:28Z</time>
      </trkpt>
      <trkpt lat="43.34552" lon="-0.54232">
        <ele>168.85</ele>
        <time>2017-01-21T09:29:43Z</time>
      </trkpt>
      <trkpt lat="43.34552" lon="-0.54234">
        <ele>168.85</ele>
        <time>2017-01-21T09:29:44Z</time>
      </trkpt>
      <trkpt lat="43.34552" lon="-0.54237">
        <ele>168.85</ele>
        <time>2017-01-21T09:29:45Z</time>
      </trkpt>
      <trkpt lat="43.34553" lon="-0.5424">
        <ele>168.37</ele>
        <time>2017-01-21T09:29:46Z</time>
      </trkpt>
      <trkpt lat="43.34554" lon="-0.54243">
        <ele>168.37</ele>
        <time>2017-01-21T09:29:47Z</time>
      </trkpt>
      <trkpt lat="43.34556" lon="-0.54247">
        <ele>168.37</ele>
        <time>2017-01-21T09:29:48Z</time>
      </trkpt>
      <trkpt lat="43.34558" lon="-0.54249">
        <ele>167.89</ele>
        <time>2017-01-21T09:29:49Z</time>
      </trkpt>
      <trkpt lat="43.34561" lon="-0.54252">
        <ele>167.89</ele>
        <time>2017-01-21T09:29:50Z</time>
      </trkpt>
      <trkpt lat="43.34565" lon="-0.54254">
        <ele>166.93</ele>
        <time>2017-01-21T09:29:51Z</time>
      </trkpt>
      <trkpt lat="43.3457" lon="-0.54256">
        <ele>166.45</ele>
        <time>2017-01-21T09:29:52Z</time>
      </trkpt>
      <trkpt lat="43.34585" lon="-0.54261">
        <ele>164.52</ele>
        <time>2017-01-21T09:29:55Z</time>
      </trkpt>
      <trkpt lat="43.34591" lon="-0.54261">
        <ele>164.04</ele>
        <time>2017-01-21T09:29:56Z</time>
      </trkpt>
      <trkpt lat="43.34597" lon="-0.54259">
        <ele>163.56</ele>
        <time>2017-01-21T09:29:57Z</time>
      </trkpt>
      <trkpt lat="43.34674" lon="-0.54227">
        <ele>157.31</ele>
        <time>2017-01-21T09:30:08Z</time>
      </trkpt>
      <trkpt lat="43.34698" lon="-0.54214">
        <ele>153.47</ele>
        <time>2017-01-21T09:30:13Z</time>
      </trkpt>
      <trkpt lat="43.34701" lon="-0.54215">
        <ele>152.99</ele>
        <time>2017-01-21T09:30:14Z</time>
      </trkpt>
      <trkpt lat="43.34703" lon="-0.54218">
        <ele>152.51</ele>
        <time>2017-01-21T09:30:15Z</time>
      </trkpt>
      <trkpt lat="43.34705" lon="-0.54222">
        <ele>152.51</ele>
        <time>2017-01-21T09:30:16Z</time>
      </trkpt>
      <trkpt lat="43.34706" lon="-0.54227">
        <ele>152.03</ele>
        <time>2017-01-21T09:30:17Z</time>
      </trkpt>
      <trkpt lat="43.34706" lon="-0.54232">
        <ele>151.54</ele>
        <time>2017-01-21T09:30:18Z</time>
      </trkpt>
      <trkpt lat="43.34705" lon="-0.54237">
        <ele>151.06</ele>
        <time>2017-01-21T09:30:19Z</time>
      </trkpt>
      <trkpt lat="43.34705" lon="-0.54243">
        <ele>150.58</ele>
        <time>2017-01-21T09:30:20Z</time>
      </trkpt>
      <trkpt lat="43.34703" lon="-0.5425">
        <ele>150.1</ele>
        <time>2017-01-21T09:30:21Z</time>
      </trkpt>
      <trkpt lat="43.34702" lon="-0.54258">
        <ele>149.62</ele>
        <time>2017-01-21T09:30:22Z</time>
      </trkpt>
      <trkpt lat="43.3469" lon="-0.54321">
        <ele>143.37</ele>
        <time>2017-01-21T09:30:28Z</time>
      </trkpt>
      <trkpt lat="43.34671" lon="-0.54384">
        <ele>134.24</ele>
        <time>2017-01-21T09:30:36Z</time>
      </trkpt>
      <trkpt lat="43.34672" lon="-0.54389">
        <ele>133.28</ele>
        <time>2017-01-21T09:30:37Z</time>
      </trkpt>
      <trkpt lat="43.34673" lon="-0.54395">
        <ele>132.32</ele>
        <time>2017-01-21T09:30:38Z</time>
      </trkpt>
      <trkpt lat="43.34675" lon="-0.54401">
        <ele>131.84</ele>
        <time>2017-01-21T09:30:39Z</time>
      </trkpt>
      <trkpt lat="43.34676" lon="-0.54406">
        <ele>131.84</ele>
        <time>2017-01-21T09:30:40Z</time>
      </trkpt>
      <trkpt lat="43.34676" lon="-0.54411">
        <ele>131.36</ele>
        <time>2017-01-21T09:30:41Z</time>
      </trkpt>
      <trkpt lat="43.34675" lon="-0.54417">
        <ele>130.88</ele>
        <time>2017-01-21T09:30:42Z</time>
      </trkpt>
      <trkpt lat="43.34673" lon="-0.54421">
        <ele>130.4</ele>
        <time>2017-01-21T09:30:43Z</time>
      </trkpt>
      <trkpt lat="43.34672" lon="-0.54426">
        <ele>130.4</ele>
        <time>2017-01-21T09:30:44Z</time>
      </trkpt>
      <trkpt lat="43.34671" lon="-0.54431">
        <ele>130.4</ele>
        <time>2017-01-21T09:30:45Z</time>
      </trkpt>
      <trkpt lat="43.34662" lon="-0.54495">
        <ele>133.76</ele>
        <time>2017-01-21T09:30:58Z</time>
      </trkpt>
      <trkpt lat="43.34656" lon="-0.54557">
        <ele>134.24</ele>
        <time>2017-01-21T09:31:10Z</time>
      </trkpt>
      <trkpt lat="43.34649" lon="-0.54617">
        <ele>133.76</ele>
        <time>2017-01-21T09:31:22Z</time>
      </trkpt>
      <trkpt lat="43.34652" lon="-0.54665">
        <ele>132.32</ele>
        <time>2017-01-21T09:31:32Z</time>
      </trkpt>
      <trkpt lat="43.34661" lon="-0.54676">
        <ele>129.92</ele>
        <time>2017-01-21T09:31:36Z</time>
      </trkpt>
      <trkpt lat="43.3467" lon="-0.54683">
        <ele>128.47</ele>
        <time>2017-01-21T09:31:38Z</time>
      </trkpt>
      <trkpt lat="43.34674" lon="-0.54687">
        <ele>128.47</ele>
        <time>2017-01-21T09:31:39Z</time>
      </trkpt>
      <trkpt lat="43.34737" lon="-0.54738">
        <ele>127.99</ele>
        <time>2017-01-21T09:31:54Z</time>
      </trkpt>
      <trkpt lat="43.34783" lon="-0.54798">
        <ele>124.63</ele>
        <time>2017-01-21T09:32:06Z</time>
      </trkpt>
      <trkpt lat="43.34825" lon="-0.54852">
        <ele>122.71</ele>
        <time>2017-01-21T09:32:14Z</time>
      </trkpt>
      <trkpt lat="43.34861" lon="-0.54892">
        <ele>126.07</ele>
        <time>2017-01-21T09:32:25Z</time>
      </trkpt>
      <trkpt lat="43.34865" lon="-0.54892">
        <ele>126.07</ele>
        <time>2017-01-21T09:32:26Z</time>
      </trkpt>
      <trkpt lat="43.34917" lon="-0.5491">
        <ele>127.99</ele>
        <time>2017-01-21T09:32:40Z</time>
      </trkpt>
      <trkpt lat="43.34945" lon="-0.54935">
        <ele>127.99</ele>
        <time>2017-01-21T09:32:49Z</time>
      </trkpt>
      <trkpt lat="43.34984" lon="-0.55006">
        <ele>125.59</ele>
        <time>2017-01-21T09:33:00Z</time>
      </trkpt>
      <trkpt lat="43.35036" lon="-0.5507">
        <ele>126.07</ele>
        <time>2017-01-21T09:33:15Z</time>
      </trkpt>
      <trkpt lat="43.3506" lon="-0.55086">
        <ele>126.07</ele>
        <time>2017-01-21T09:33:21Z</time>
      </trkpt>
      <trkpt lat="43.35065" lon="-0.55088">
        <ele>126.07</ele>
        <time>2017-01-21T09:33:22Z</time>
      </trkpt>
      <trkpt lat="43.35101" lon="-0.55106">
        <ele>125.11</ele>
        <time>2017-01-21T09:33:31Z</time>
      </trkpt>
      <trkpt lat="43.35113" lon="-0.55111">
        <ele>125.59</ele>
        <time>2017-01-21T09:33:34Z</time>
      </trkpt>
      <trkpt lat="43.35117" lon="-0.55113">
        <ele>125.59</ele>
        <time>2017-01-21T09:33:35Z</time>
      </trkpt>
      <trkpt lat="43.35121" lon="-0.55115">
        <ele>126.07</ele>
        <time>2017-01-21T09:33:36Z</time>
      </trkpt>
      <trkpt lat="43.35125" lon="-0.55117">
        <ele>126.07</ele>
        <time>2017-01-21T09:33:37Z</time>
      </trkpt>
      <trkpt lat="43.35129" lon="-0.55119">
        <ele>126.07</ele>
        <time>2017-01-21T09:33:38Z</time>
      </trkpt>
      <trkpt lat="43.35133" lon="-0.5512">
        <ele>126.07</ele>
        <time>2017-01-21T09:33:39Z</time>
      </trkpt>
      <trkpt lat="43.35138" lon="-0.55123">
        <ele>126.07</ele>
        <time>2017-01-21T09:33:40Z</time>
      </trkpt>
      <trkpt lat="43.35159" lon="-0.55136">
        <ele>126.07</ele>
        <time>2017-01-21T09:33:45Z</time>
      </trkpt>
      <trkpt lat="43.35162" lon="-0.5514">
        <ele>126.07</ele>
        <time>2017-01-21T09:33:46Z</time>
      </trkpt>
      <trkpt lat="43.3519" lon="-0.55186">
        <ele>125.11</ele>
        <time>2017-01-21T09:33:57Z</time>
      </trkpt>
      <trkpt lat="43.3522" lon="-0.55254">
        <ele>122.71</ele>
        <time>2017-01-21T09:34:09Z</time>
      </trkpt>
      <trkpt lat="43.3522" lon="-0.5526">
        <ele>122.71</ele>
        <time>2017-01-21T09:34:10Z</time>
      </trkpt>
      <trkpt lat="43.35221" lon="-0.55266">
        <ele>122.71</ele>
        <time>2017-01-21T09:34:11Z</time>
      </trkpt>
      <trkpt lat="43.35221" lon="-0.55277">
        <ele>122.71</ele>
        <time>2017-01-21T09:34:13Z</time>
      </trkpt>
      <trkpt lat="43.35221" lon="-0.55295">
        <ele>121.74</ele>
        <time>2017-01-21T09:34:16Z</time>
      </trkpt>
      <trkpt lat="43.35223" lon="-0.5533">
        <ele>120.3</ele>
        <time>2017-01-21T09:34:21Z</time>
      </trkpt>
      <trkpt lat="43.35225" lon="-0.55338">
        <ele>120.3</ele>
        <time>2017-01-21T09:34:22Z</time>
      </trkpt>
      <trkpt lat="43.35229" lon="-0.55359">
        <ele>119.82</ele>
        <time>2017-01-21T09:34:25Z</time>
      </trkpt>
      <trkpt lat="43.35229" lon="-0.55365">
        <ele>119.82</ele>
        <time>2017-01-21T09:34:26Z</time>
      </trkpt>
      <trkpt lat="43.35227" lon="-0.5537">
        <ele>119.34</ele>
        <time>2017-01-21T09:34:27Z</time>
      </trkpt>
      <trkpt lat="43.35224" lon="-0.55375">
        <ele>118.86</ele>
        <time>2017-01-21T09:34:28Z</time>
      </trkpt>
      <trkpt lat="43.35221" lon="-0.55379">
        <ele>118.86</ele>
        <time>2017-01-21T09:34:29Z</time>
      </trkpt>
      <trkpt lat="43.35218" lon="-0.55381">
        <ele>118.86</ele>
        <time>2017-01-21T09:34:30Z</time>
      </trkpt>
      <trkpt lat="43.35214" lon="-0.55382">
        <ele>118.86</ele>
        <time>2017-01-21T09:34:31Z</time>
      </trkpt>
      <trkpt lat="43.35209" lon="-0.55384">
        <ele>118.86</ele>
        <time>2017-01-21T09:34:32Z</time>
      </trkpt>
      <trkpt lat="43.35195" lon="-0.55387">
        <ele>118.86</ele>
        <time>2017-01-21T09:34:35Z</time>
      </trkpt>
      <trkpt lat="43.35192" lon="-0.55386">
        <ele>119.34</ele>
        <time>2017-01-21T09:34:36Z</time>
      </trkpt>
      <trkpt lat="43.35187" lon="-0.55386">
        <ele>119.34</ele>
        <time>2017-01-21T09:34:37Z</time>
      </trkpt>
      <trkpt lat="43.35184" lon="-0.55384">
        <ele>119.34</ele>
        <time>2017-01-21T09:34:38Z</time>
      </trkpt>
      <trkpt lat="43.3518" lon="-0.55382">
        <ele>119.34</ele>
        <time>2017-01-21T09:34:39Z</time>
      </trkpt>
      <trkpt lat="43.35176" lon="-0.55379">
        <ele>119.34</ele>
        <time>2017-01-21T09:34:40Z</time>
      </trkpt>
      <trkpt lat="43.35154" lon="-0.55361">
        <ele>119.34</ele>
        <time>2017-01-21T09:34:52Z</time>
      </trkpt>
      <trkpt lat="43.35152" lon="-0.55359">
        <ele>120.78</ele>
        <time>2017-01-21T09:35:14Z</time>
      </trkpt>
      <trkpt lat="43.35151" lon="-0.55358">
        <ele>120.78</ele>
        <time>2017-01-21T09:35:15Z</time>
      </trkpt>
      <trkpt lat="43.35115" lon="-0.55324">
        <ele>119.82</ele>
        <time>2017-01-21T09:35:28Z</time>
      </trkpt>
      <trkpt lat="43.35064" lon="-0.55276">
        <ele>119.82</ele>
        <time>2017-01-21T09:35:43Z</time>
      </trkpt>
      <trkpt lat="43.3506" lon="-0.55274">
        <ele>119.82</ele>
        <time>2017-01-21T09:35:44Z</time>
      </trkpt>
      <trkpt lat="43.35056" lon="-0.55273">
        <ele>119.82</ele>
        <time>2017-01-21T09:35:45Z</time>
      </trkpt>
      <trkpt lat="43.35053" lon="-0.55273">
        <ele>119.82</ele>
        <time>2017-01-21T09:35:46Z</time>
      </trkpt>
      <trkpt lat="43.35046" lon="-0.55283">
        <ele>118.86</ele>
        <time>2017-01-21T09:35:49Z</time>
      </trkpt>
      <trkpt lat="43.35038" lon="-0.55304">
        <ele>118.38</ele>
        <time>2017-01-21T09:35:53Z</time>
      </trkpt>
      <trkpt lat="43.35028" lon="-0.55331">
        <ele>117.9</ele>
        <time>2017-01-21T09:35:58Z</time>
      </trkpt>
      <trkpt lat="43.35003" lon="-0.55397">
        <ele>116.94</ele>
        <time>2017-01-21T09:36:09Z</time>
      </trkpt>
      <trkpt lat="43.34997" lon="-0.55409">
        <ele>116.46</ele>
        <time>2017-01-21T09:36:11Z</time>
      </trkpt>
      <trkpt lat="43.34981" lon="-0.55452">
        <ele>115.98</ele>
        <time>2017-01-21T09:36:18Z</time>
      </trkpt>
      <trkpt lat="43.34977" lon="-0.55467">
        <ele>115.98</ele>
        <time>2017-01-21T09:36:20Z</time>
      </trkpt>
      <trkpt lat="43.34978" lon="-0.55474">
        <ele>115.98</ele>
        <time>2017-01-21T09:36:21Z</time>
      </trkpt>
      <trkpt lat="43.34979" lon="-0.55479">
        <ele>115.98</ele>
        <time>2017-01-21T09:36:22Z</time>
      </trkpt>
      <trkpt lat="43.34981" lon="-0.55485">
        <ele>116.46</ele>
        <time>2017-01-21T09:36:23Z</time>
      </trkpt>
      <trkpt lat="43.34984" lon="-0.55492">
        <ele>116.46</ele>
        <time>2017-01-21T09:36:24Z</time>
      </trkpt>
      <trkpt lat="43.34986" lon="-0.55499">
        <ele>116.46</ele>
        <time>2017-01-21T09:36:25Z</time>
      </trkpt>
      <trkpt lat="43.35003" lon="-0.55567">
        <ele>116.94</ele>
        <time>2017-01-21T09:36:34Z</time>
      </trkpt>
      <trkpt lat="43.35003" lon="-0.55574">
        <ele>116.94</ele>
        <time>2017-01-21T09:36:35Z</time>
      </trkpt>
      <trkpt lat="43.35003" lon="-0.55582">
        <ele>116.94</ele>
        <time>2017-01-21T09:36:36Z</time>
      </trkpt>
      <trkpt lat="43.35" lon="-0.55589">
        <ele>116.94</ele>
        <time>2017-01-21T09:36:37Z</time>
      </trkpt>
      <trkpt lat="43.34997" lon="-0.55595">
        <ele>116.94</ele>
        <time>2017-01-21T09:36:38Z</time>
      </trkpt>
      <trkpt lat="43.34994" lon="-0.55601">
        <ele>116.94</ele>
        <time>2017-01-21T09:36:39Z</time>
      </trkpt>
      <trkpt lat="43.3499" lon="-0.55606">
        <ele>116.94</ele>
        <time>2017-01-21T09:36:40Z</time>
      </trkpt>
      <trkpt lat="43.34966" lon="-0.55646">
        <ele>116.94</ele>
        <time>2017-01-21T09:36:47Z</time>
      </trkpt>
      <trkpt lat="43.34964" lon="-0.55653">
        <ele>116.94</ele>
        <time>2017-01-21T09:36:48Z</time>
      </trkpt>
      <trkpt lat="43.34964" lon="-0.5566">
        <ele>116.94</ele>
        <time>2017-01-21T09:36:49Z</time>
      </trkpt>
      <trkpt lat="43.34966" lon="-0.55667">
        <ele>116.94</ele>
        <time>2017-01-21T09:36:50Z</time>
      </trkpt>
      <trkpt lat="43.34968" lon="-0.55673">
        <ele>116.94</ele>
        <time>2017-01-21T09:36:51Z</time>
      </trkpt>
      <trkpt lat="43.3497" lon="-0.5568">
        <ele>116.94</ele>
        <time>2017-01-21T09:36:52Z</time>
      </trkpt>
      <trkpt lat="43.34973" lon="-0.55686">
        <ele>116.94</ele>
        <time>2017-01-21T09:36:53Z</time>
      </trkpt>
      <trkpt lat="43.34975" lon="-0.55693">
        <ele>116.94</ele>
        <time>2017-01-21T09:36:54Z</time>
      </trkpt>
      <trkpt lat="43.34996" lon="-0.55757">
        <ele>117.42</ele>
        <time>2017-01-21T09:37:03Z</time>
      </trkpt>
      <trkpt lat="43.3503" lon="-0.55858">
        <ele>117.9</ele>
        <time>2017-01-21T09:37:17Z</time>
      </trkpt>
      <trkpt lat="43.35073" lon="-0.55984">
        <ele>118.38</ele>
        <time>2017-01-21T09:37:36Z</time>
      </trkpt>
      <trkpt lat="43.35117" lon="-0.56114">
        <ele>118.86</ele>
        <time>2017-01-21T09:37:55Z</time>
      </trkpt>
      <trkpt lat="43.35121" lon="-0.56135">
        <ele>118.86</ele>
        <time>2017-01-21T09:37:58Z</time>
      </trkpt>
      <trkpt lat="43.35122" lon="-0.56142">
        <ele>118.86</ele>
        <time>2017-01-21T09:37:59Z</time>
      </trkpt>
      <trkpt lat="43.35118" lon="-0.56297">
        <ele>117.9</ele>
        <time>2017-01-21T09:38:19Z</time>
      </trkpt>
      <trkpt lat="43.35115" lon="-0.56364">
        <ele>117.42</ele>
        <time>2017-01-21T09:38:28Z</time>
      </trkpt>
      <trkpt lat="43.35114" lon="-0.56384">
        <ele>117.9</ele>
        <time>2017-01-21T09:38:31Z</time>
      </trkpt>
      <trkpt lat="43.35114" lon="-0.56389">
        <ele>117.9</ele>
        <time>2017-01-21T09:38:32Z</time>
      </trkpt>
      <trkpt lat="43.35116" lon="-0.56394">
        <ele>117.9</ele>
        <time>2017-01-21T09:38:33Z</time>
      </trkpt>
      <trkpt lat="43.35118" lon="-0.56398">
        <ele>117.9</ele>
        <time>2017-01-21T09:38:34Z</time>
      </trkpt>
      <trkpt lat="43.35121" lon="-0.56402">
        <ele>118.38</ele>
        <time>2017-01-21T09:38:35Z</time>
      </trkpt>
      <trkpt lat="43.35127" lon="-0.5641">
        <ele>118.38</ele>
        <time>2017-01-21T09:38:37Z</time>
      </trkpt>
      <trkpt lat="43.35129" lon="-0.56415">
        <ele>118.38</ele>
        <time>2017-01-21T09:38:38Z</time>
      </trkpt>
      <trkpt lat="43.35131" lon="-0.56421">
        <ele>118.38</ele>
        <time>2017-01-21T09:38:39Z</time>
      </trkpt>
      <trkpt lat="43.35133" lon="-0.56426">
        <ele>118.38</ele>
        <time>2017-01-21T09:38:40Z</time>
      </trkpt>
      <trkpt lat="43.35134" lon="-0.56431">
        <ele>118.86</ele>
        <time>2017-01-21T09:38:41Z</time>
      </trkpt>
      <trkpt lat="43.35135" lon="-0.56436">
        <ele>118.86</ele>
        <time>2017-01-21T09:38:42Z</time>
      </trkpt>
      <trkpt lat="43.35162" lon="-0.56459">
        <ele>118.86</ele>
        <time>2017-01-21T09:38:51Z</time>
      </trkpt>
      <trkpt lat="43.35166" lon="-0.5646">
        <ele>118.86</ele>
        <time>2017-01-21T09:38:52Z</time>
      </trkpt>
      <trkpt lat="43.35258" lon="-0.56483">
        <ele>119.34</ele>
        <time>2017-01-21T09:39:09Z</time>
      </trkpt>
      <trkpt lat="43.35364" lon="-0.5648">
        <ele>118.38</ele>
        <time>2017-01-21T09:39:27Z</time>
      </trkpt>
      <trkpt lat="43.35455" lon="-0.56486">
        <ele>117.42</ele>
        <time>2017-01-21T09:39:43Z</time>
      </trkpt>
      <trkpt lat="43.3546" lon="-0.56488">
        <ele>117.42</ele>
        <time>2017-01-21T09:39:44Z</time>
      </trkpt>
      <trkpt lat="43.35463" lon="-0.56492">
        <ele>117.42</ele>
        <time>2017-01-21T09:39:45Z</time>
      </trkpt>
      <trkpt lat="43.35465" lon="-0.56497">
        <ele>117.42</ele>
        <time>2017-01-21T09:39:46Z</time>
      </trkpt>
      <trkpt lat="43.35467" lon="-0.56503">
        <ele>117.42</ele>
        <time>2017-01-21T09:39:47Z</time>
      </trkpt>
      <trkpt lat="43.35468" lon="-0.56509">
        <ele>116.94</ele>
        <time>2017-01-21T09:39:48Z</time>
      </trkpt>
      <trkpt lat="43.35469" lon="-0.56515">
        <ele>116.94</ele>
        <time>2017-01-21T09:39:49Z</time>
      </trkpt>
      <trkpt lat="43.3547" lon="-0.56522">
        <ele>116.94</ele>
        <time>2017-01-21T09:39:50Z</time>
      </trkpt>
      <trkpt lat="43.35473" lon="-0.5657">
        <ele>116.46</ele>
        <time>2017-01-21T09:39:57Z</time>
      </trkpt>
      <trkpt lat="43.35479" lon="-0.56591">
        <ele>116.46</ele>
        <time>2017-01-21T09:40:00Z</time>
      </trkpt>
      <trkpt lat="43.35481" lon="-0.56597">
        <ele>116.46</ele>
        <time>2017-01-21T09:40:01Z</time>
      </trkpt>
      <trkpt lat="43.35495" lon="-0.56638">
        <ele>116.46</ele>
        <time>2017-01-21T09:40:07Z</time>
      </trkpt>
      <trkpt lat="43.35504" lon="-0.56657">
        <ele>116.46</ele>
        <time>2017-01-21T09:40:10Z</time>
      </trkpt>
      <trkpt lat="43.35508" lon="-0.56672">
        <ele>116.46</ele>
        <time>2017-01-21T09:40:12Z</time>
      </trkpt>
      <trkpt lat="43.3551" lon="-0.56679">
        <ele>116.46</ele>
        <time>2017-01-21T09:40:13Z</time>
      </trkpt>
      <trkpt lat="43.35522" lon="-0.56806">
        <ele>116.94</ele>
        <time>2017-01-21T09:40:30Z</time>
      </trkpt>
      <trkpt lat="43.35523" lon="-0.56828">
        <ele>116.94</ele>
        <time>2017-01-21T09:40:33Z</time>
      </trkpt>
      <trkpt lat="43.35524" lon="-0.56854">
        <ele>116.46</ele>
        <time>2017-01-21T09:40:38Z</time>
      </trkpt>
      <trkpt lat="43.35527" lon="-0.56857">
        <ele>116.46</ele>
        <time>2017-01-21T09:40:39Z</time>
      </trkpt>
      <trkpt lat="43.3553" lon="-0.56858">
        <ele>116.46</ele>
        <time>2017-01-21T09:40:40Z</time>
      </trkpt>
      <trkpt lat="43.35534" lon="-0.56858">
        <ele>116.46</ele>
        <time>2017-01-21T09:40:41Z</time>
      </trkpt>
      <trkpt lat="43.35538" lon="-0.56858">
        <ele>116.46</ele>
        <time>2017-01-21T09:40:42Z</time>
      </trkpt>
      <trkpt lat="43.35542" lon="-0.56857">
        <ele>116.46</ele>
        <time>2017-01-21T09:40:43Z</time>
      </trkpt>
      <trkpt lat="43.35554" lon="-0.56853">
        <ele>115.98</ele>
        <time>2017-01-21T09:40:46Z</time>
      </trkpt>
      <trkpt lat="43.35618" lon="-0.56807">
        <ele>115.5</ele>
        <time>2017-01-21T09:41:00Z</time>
      </trkpt>
      <trkpt lat="43.35623" lon="-0.56804">
        <ele>115.98</ele>
        <time>2017-01-21T09:41:01Z</time>
      </trkpt>
      <trkpt lat="43.35628" lon="-0.56802">
        <ele>115.5</ele>
        <time>2017-01-21T09:41:02Z</time>
      </trkpt>
      <trkpt lat="43.35633" lon="-0.56799">
        <ele>115.5</ele>
        <time>2017-01-21T09:41:03Z</time>
      </trkpt>
      <trkpt lat="43.35637" lon="-0.56795">
        <ele>115.5</ele>
        <time>2017-01-21T09:41:04Z</time>
      </trkpt>
      <trkpt lat="43.35652" lon="-0.56786">
        <ele>115.5</ele>
        <time>2017-01-21T09:41:07Z</time>
      </trkpt>
      <trkpt lat="43.35657" lon="-0.56782">
        <ele>115.5</ele>
        <time>2017-01-21T09:41:08Z</time>
      </trkpt>
      <trkpt lat="43.35698" lon="-0.56754">
        <ele>115.5</ele>
        <time>2017-01-21T09:41:17Z</time>
      </trkpt>
      <trkpt lat="43.35702" lon="-0.56751">
        <ele>115.5</ele>
        <time>2017-01-21T09:41:18Z</time>
      </trkpt>
      <trkpt lat="43.35706" lon="-0.56748">
        <ele>115.5</ele>
        <time>2017-01-21T09:41:19Z</time>
      </trkpt>
      <trkpt lat="43.3571" lon="-0.56745">
        <ele>115.5</ele>
        <time>2017-01-21T09:41:20Z</time>
      </trkpt>
      <trkpt lat="43.35713" lon="-0.56745">
        <ele>115.5</ele>
        <time>2017-01-21T09:41:21Z</time>
      </trkpt>
      <trkpt lat="43.35715" lon="-0.56746">
        <ele>115.5</ele>
        <time>2017-01-21T09:41:22Z</time>
      </trkpt>
      <trkpt lat="43.35716" lon="-0.5675">
        <ele>115.5</ele>
        <time>2017-01-21T09:41:23Z</time>
      </trkpt>
      <trkpt lat="43.35716" lon="-0.56754">
        <ele>115.01</ele>
        <time>2017-01-21T09:41:24Z</time>
      </trkpt>
      <trkpt lat="43.35715" lon="-0.56757">
        <ele>115.01</ele>
        <time>2017-01-21T09:41:25Z</time>
      </trkpt>
      <trkpt lat="43.35714" lon="-0.56762">
        <ele>115.01</ele>
        <time>2017-01-21T09:41:26Z</time>
      </trkpt>
      <trkpt lat="43.35713" lon="-0.56767">
        <ele>115.01</ele>
        <time>2017-01-21T09:41:27Z</time>
      </trkpt>
      <trkpt lat="43.35694" lon="-0.5686">
        <ele>116.46</ele>
        <time>2017-01-21T09:41:43Z</time>
      </trkpt>
      <trkpt lat="43.35675" lon="-0.5696">
        <ele>115.5</ele>
        <time>2017-01-21T09:41:58Z</time>
      </trkpt>
      <trkpt lat="43.35665" lon="-0.57078">
        <ele>115.5</ele>
        <time>2017-01-21T09:42:13Z</time>
      </trkpt>
      <trkpt lat="43.35666" lon="-0.57087">
        <ele>115.5</ele>
        <time>2017-01-21T09:42:14Z</time>
      </trkpt>
      <trkpt lat="43.35666" lon="-0.57095">
        <ele>115.5</ele>
        <time>2017-01-21T09:42:15Z</time>
      </trkpt>
      <trkpt lat="43.35667" lon="-0.57104">
        <ele>115.5</ele>
        <time>2017-01-21T09:42:16Z</time>
      </trkpt>
      <trkpt lat="43.35669" lon="-0.57112">
        <ele>115.5</ele>
        <time>2017-01-21T09:42:17Z</time>
      </trkpt>
      <trkpt lat="43.35704" lon="-0.57232">
        <ele>115.5</ele>
        <time>2017-01-21T09:42:33Z</time>
      </trkpt>
      <trkpt lat="43.35739" lon="-0.57316">
        <ele>115.01</ele>
        <time>2017-01-21T09:42:46Z</time>
      </trkpt>
      <trkpt lat="43.35741" lon="-0.57323">
        <ele>115.01</ele>
        <time>2017-01-21T09:42:47Z</time>
      </trkpt>
      <trkpt lat="43.35744" lon="-0.57331">
        <ele>115.01</ele>
        <time>2017-01-21T09:42:48Z</time>
      </trkpt>
      <trkpt lat="43.35754" lon="-0.57402">
        <ele>115.01</ele>
        <time>2017-01-21T09:42:57Z</time>
      </trkpt>
      <trkpt lat="43.35768" lon="-0.57456">
        <ele>115.01</ele>
        <time>2017-01-21T09:43:04Z</time>
      </trkpt>
      <trkpt lat="43.35772" lon="-0.57462">
        <ele>115.01</ele>
        <time>2017-01-21T09:43:05Z</time>
      </trkpt>
      <trkpt lat="43.35803" lon="-0.57547">
        <ele>115.01</ele>
        <time>2017-01-21T09:43:17Z</time>
      </trkpt>
      <trkpt lat="43.35804" lon="-0.57553">
        <ele>115.01</ele>
        <time>2017-01-21T09:43:18Z</time>
      </trkpt>
      <trkpt lat="43.35805" lon="-0.57575">
        <ele>115.01</ele>
        <time>2017-01-21T09:43:21Z</time>
      </trkpt>
      <trkpt lat="43.35805" lon="-0.57595">
        <ele>115.01</ele>
        <time>2017-01-21T09:43:24Z</time>
      </trkpt>
      <trkpt lat="43.35806" lon="-0.576">
        <ele>115.01</ele>
        <time>2017-01-21T09:43:25Z</time>
      </trkpt>
      <trkpt lat="43.35807" lon="-0.57603">
        <ele>115.5</ele>
        <time>2017-01-21T09:43:26Z</time>
      </trkpt>
      <trkpt lat="43.35808" lon="-0.57605">
        <ele>115.98</ele>
        <time>2017-01-21T09:43:27Z</time>
      </trkpt>
      <trkpt lat="43.35809" lon="-0.57607">
        <ele>115.98</ele>
        <time>2017-01-21T09:43:28Z</time>
      </trkpt>
      <trkpt lat="43.3581" lon="-0.57609">
        <ele>115.98</ele>
        <time>2017-01-21T09:43:29Z</time>
      </trkpt>
      <trkpt lat="43.35811" lon="-0.57612">
        <ele>115.98</ele>
        <time>2017-01-21T09:43:30Z</time>
      </trkpt>
      <trkpt lat="43.3581" lon="-0.57616">
        <ele>115.5</ele>
        <time>2017-01-21T09:43:31Z</time>
      </trkpt>
      <trkpt lat="43.3581" lon="-0.5762">
        <ele>115.5</ele>
        <time>2017-01-21T09:43:32Z</time>
      </trkpt>
      <trkpt lat="43.35809" lon="-0.57624">
        <ele>115.5</ele>
        <time>2017-01-21T09:43:33Z</time>
      </trkpt>
      <trkpt lat="43.35807" lon="-0.5763">
        <ele>115.5</ele>
        <time>2017-01-21T09:43:34Z</time>
      </trkpt>
      <trkpt lat="43.35779" lon="-0.57725">
        <ele>115.5</ele>
        <time>2017-01-21T09:43:49Z</time>
      </trkpt>
      <trkpt lat="43.35738" lon="-0.5787">
        <ele>115.5</ele>
        <time>2017-01-21T09:44:09Z</time>
      </trkpt>
      <trkpt lat="43.35701" lon="-0.58009">
        <ele>115.5</ele>
        <time>2017-01-21T09:44:27Z</time>
      </trkpt>
      <trkpt lat="43.35661" lon="-0.58153">
        <ele>116.46</ele>
        <time>2017-01-21T09:44:46Z</time>
      </trkpt>
      <trkpt lat="43.35655" lon="-0.5818">
        <ele>115.98</ele>
        <time>2017-01-21T09:44:50Z</time>
      </trkpt>
      <trkpt lat="43.35654" lon="-0.58202">
        <ele>115.98</ele>
        <time>2017-01-21T09:44:53Z</time>
      </trkpt>
      <trkpt lat="43.35655" lon="-0.5821">
        <ele>115.98</ele>
        <time>2017-01-21T09:44:54Z</time>
      </trkpt>
      <trkpt lat="43.35656" lon="-0.58217">
        <ele>115.98</ele>
        <time>2017-01-21T09:44:55Z</time>
      </trkpt>
      <trkpt lat="43.35663" lon="-0.58268">
        <ele>115.98</ele>
        <time>2017-01-21T09:45:06Z</time>
      </trkpt>
      <trkpt lat="43.35659" lon="-0.58301">
        <ele>115.98</ele>
        <time>2017-01-21T09:45:14Z</time>
      </trkpt>
      <trkpt lat="43.35648" lon="-0.58311">
        <ele>115.98</ele>
        <time>2017-01-21T09:45:17Z</time>
      </trkpt>
      <trkpt lat="43.35615" lon="-0.5834">
        <ele>118.38</ele>
        <time>2017-01-21T09:45:31Z</time>
      </trkpt>
      <trkpt lat="43.35609" lon="-0.58392">
        <ele>116.46</ele>
        <time>2017-01-21T09:45:45Z</time>
      </trkpt>
      <trkpt lat="43.35605" lon="-0.58438">
        <ele>116.46</ele>
        <time>2017-01-21T09:45:55Z</time>
      </trkpt>
      <trkpt lat="43.35586" lon="-0.58494">
        <ele>117.42</ele>
        <time>2017-01-21T09:46:08Z</time>
      </trkpt>
      <trkpt lat="43.35563" lon="-0.5854">
        <ele>117.9</ele>
        <time>2017-01-21T09:46:19Z</time>
      </trkpt>
      <trkpt lat="43.35561" lon="-0.58588">
        <ele>116.46</ele>
        <time>2017-01-21T09:46:28Z</time>
      </trkpt>
      <trkpt lat="43.3557" lon="-0.58648">
        <ele>115.98</ele>
        <time>2017-01-21T09:46:39Z</time>
      </trkpt>
      <trkpt lat="43.35576" lon="-0.58695">
        <ele>115.98</ele>
        <time>2017-01-21T09:46:48Z</time>
      </trkpt>
      <trkpt lat="43.35576" lon="-0.58708">
        <ele>115.5</ele>
        <time>2017-01-21T09:46:50Z</time>
      </trkpt>
      <trkpt lat="43.35577" lon="-0.58714">
        <ele>115.5</ele>
        <time>2017-01-21T09:46:51Z</time>
      </trkpt>
      <trkpt lat="43.35578" lon="-0.58719">
        <ele>115.5</ele>
        <time>2017-01-21T09:46:52Z</time>
      </trkpt>
      <trkpt lat="43.35578" lon="-0.58724">
        <ele>115.98</ele>
        <time>2017-01-21T09:46:53Z</time>
      </trkpt>
      <trkpt lat="43.35579" lon="-0.58729">
        <ele>115.98</ele>
        <time>2017-01-21T09:46:54Z</time>
      </trkpt>
      <trkpt lat="43.35589" lon="-0.58775">
        <ele>115.98</ele>
        <time>2017-01-21T09:47:03Z</time>
      </trkpt>
      <trkpt lat="43.3559" lon="-0.58785">
        <ele>115.5</ele>
        <time>2017-01-21T09:47:05Z</time>
      </trkpt>
      <trkpt lat="43.35588" lon="-0.58798">
        <ele>115.98</ele>
        <time>2017-01-21T09:47:08Z</time>
      </trkpt>
      <trkpt lat="43.35601" lon="-0.58838">
        <ele>115.98</ele>
        <time>2017-01-21T09:47:18Z</time>
      </trkpt>
      <trkpt lat="43.35619" lon="-0.58875">
        <ele>115.5</ele>
        <time>2017-01-21T09:47:28Z</time>
      </trkpt>
      <trkpt lat="43.35646" lon="-0.58887">
        <ele>115.5</ele>
        <time>2017-01-21T09:47:36Z</time>
      </trkpt>
      <trkpt lat="43.3565" lon="-0.58889">
        <ele>115.01</ele>
        <time>2017-01-21T09:47:37Z</time>
      </trkpt>
      <trkpt lat="43.35653" lon="-0.58892">
        <ele>115.01</ele>
        <time>2017-01-21T09:47:38Z</time>
      </trkpt>
      <trkpt lat="43.35697" lon="-0.58919">
        <ele>115.5</ele>
        <time>2017-01-21T09:47:50Z</time>
      </trkpt>
      <trkpt lat="43.35739" lon="-0.58941">
        <ele>116.46</ele>
        <time>2017-01-21T09:48:02Z</time>
      </trkpt>
      <trkpt lat="43.3575" lon="-0.58986">
        <ele>116.94</ele>
        <time>2017-01-21T09:48:11Z</time>
      </trkpt>
      <trkpt lat="43.35753" lon="-0.59034">
        <ele>117.42</ele>
        <time>2017-01-21T09:48:21Z</time>
      </trkpt>
      <trkpt lat="43.35761" lon="-0.59077">
        <ele>119.34</ele>
        <time>2017-01-21T09:48:32Z</time>
      </trkpt>
      <trkpt lat="43.35787" lon="-0.59116">
        <ele>116.46</ele>
        <time>2017-01-21T09:48:42Z</time>
      </trkpt>
      <trkpt lat="43.35812" lon="-0.5915">
        <ele>116.94</ele>
        <time>2017-01-21T09:48:52Z</time>
      </trkpt>
      <trkpt lat="43.3581" lon="-0.59193">
        <ele>117.9</ele>
        <time>2017-01-21T09:49:01Z</time>
      </trkpt>
      <trkpt lat="43.35811" lon="-0.59197">
        <ele>117.9</ele>
        <time>2017-01-21T09:49:02Z</time>
      </trkpt>
      <trkpt lat="43.35814" lon="-0.592">
        <ele>117.9</ele>
        <time>2017-01-21T09:49:03Z</time>
      </trkpt>
      <trkpt lat="43.35817" lon="-0.59203">
        <ele>118.38</ele>
        <time>2017-01-21T09:49:04Z</time>
      </trkpt>
      <trkpt lat="43.3582" lon="-0.59203">
        <ele>118.38</ele>
        <time>2017-01-21T09:49:05Z</time>
      </trkpt>
      <trkpt lat="43.35824" lon="-0.59203">
        <ele>118.38</ele>
        <time>2017-01-21T09:49:06Z</time>
      </trkpt>
      <trkpt lat="43.35828" lon="-0.59202">
        <ele>118.38</ele>
        <time>2017-01-21T09:49:07Z</time>
      </trkpt>
      <trkpt lat="43.35832" lon="-0.59201">
        <ele>118.38</ele>
        <time>2017-01-21T09:49:08Z</time>
      </trkpt>
      <trkpt lat="43.359" lon="-0.59185">
        <ele>114.05</ele>
        <time>2017-01-21T09:49:22Z</time>
      </trkpt>
      <trkpt lat="43.35981" lon="-0.59164">
        <ele>112.61</ele>
        <time>2017-01-21T09:49:37Z</time>
      </trkpt>
      <trkpt lat="43.36069" lon="-0.59134">
        <ele>112.13</ele>
        <time>2017-01-21T09:49:52Z</time>
      </trkpt>
      <trkpt lat="43.3614" lon="-0.59091">
        <ele>112.13</ele>
        <time>2017-01-21T09:50:05Z</time>
      </trkpt>
      <trkpt lat="43.36199" lon="-0.59059">
        <ele>111.17</ele>
        <time>2017-01-21T09:50:16Z</time>
      </trkpt>
      <trkpt lat="43.3627" lon="-0.59022">
        <ele>109.25</ele>
        <time>2017-01-21T09:50:29Z</time>
      </trkpt>
      <trkpt lat="43.36355" lon="-0.58981">
        <ele>110.21</ele>
        <time>2017-01-21T09:50:46Z</time>
      </trkpt>
      <trkpt lat="43.36417" lon="-0.58955">
        <ele>111.65</ele>
        <time>2017-01-21T09:51:01Z</time>
      </trkpt>
      <trkpt lat="43.36435" lon="-0.58953">
        <ele>111.65</ele>
        <time>2017-01-21T09:51:10Z</time>
      </trkpt>
    </trkseg>
  </trk>
</gpx>